Provisional Data: Choconut Creek near Vestal Center, NY


Please select a monitoring station.
Please select start date.
Please select start date.

Toggle Unit: C/F Toggle Unit: C/F
Sample Time Temperature (C) Temperature (F) Specific Conductivity (mS/cm) pH   Turbidity (NTU+) DO (mg/L)
1/12/2021 12:00:00 AM 0.93 33.674 0.086 6.97 4.89 14.16
1/12/2021 12:15:00 AM 0.93 33.674 0.086 6.96 4.98 14.16
1/12/2021 12:30:00 AM 0.93 33.674 0.086 6.98 4.97 14.16
1/12/2021 12:45:00 AM 0.92 33.656 0.086 6.97 5.11 14.17
1/12/2021 1:00:00 AM 0.92 33.656 0.086 6.98 4.96 14.17
1/12/2021 1:15:00 AM 0.91 33.638 0.086 6.98 5.15 14.17
1/12/2021 1:30:00 AM 0.9 33.62 0.086 6.98 5.18 14.18
1/12/2021 1:45:00 AM 0.9 33.62 0.086 6.98 4.98 14.18
1/12/2021 2:00:00 AM 0.89 33.602 0.086 6.96 5 14.19
1/12/2021 2:15:00 AM 0.88 33.584 0.086 6.97 5.17 14.19
1/12/2021 2:30:00 AM 0.87 33.566 0.086 6.99 5.29 14.19
1/12/2021 2:45:00 AM 0.84 33.512 0.086 6.93 5.12 14.2
1/12/2021 3:00:00 AM 0.82 33.476 0.086 6.98 5.19 14.21
1/12/2021 3:15:00 AM 0.81 33.458 0.086 6.92 5.14 14.21
1/12/2021 3:30:00 AM 0.79 33.422 0.086 6.97 5.17 14.21
1/12/2021 3:45:00 AM 0.78 33.404 0.086 6.95 5.12 14.22
1/12/2021 4:00:00 AM 0.77 33.386 0.086 6.97 5.16 14.22
1/12/2021 4:15:00 AM 0.76 33.368 0.086 6.98 5.23 14.23
1/12/2021 4:30:00 AM 0.76 33.368 0.086 6.97 5.18 14.23
1/12/2021 4:45:00 AM 0.75 33.35 0.086 6.98 5.24 14.23
1/12/2021 5:00:00 AM 0.75 33.35 0.086 6.96 5.13 14.23
1/12/2021 5:15:00 AM 0.75 33.35 0.086 6.98 5.12 14.23
1/12/2021 5:30:00 AM 0.74 33.332 0.086 6.97 5.2 14.23
1/12/2021 5:45:00 AM 0.73 33.314 0.086 6.96 5.13 14.23
1/12/2021 6:00:00 AM 0.73 33.314 0.086 6.97 5.14 14.24
1/12/2021 6:15:00 AM 0.73 33.314 0.086 6.97 5.09 14.24
1/12/2021 6:30:00 AM 0.72 33.296 0.086 6.98 5.18 14.24
1/12/2021 6:45:00 AM 0.71 33.278 0.086 6.94 5.13 14.24
1/12/2021 7:00:00 AM 0.72 33.296 0.086 6.96 5.09 14.24
1/12/2021 7:15:00 AM 0.72 33.296 0.086 6.96 5.12 14.24
1/12/2021 7:30:00 AM 0.72 33.296 0.086 6.97 5.25 14.24
1/12/2021 7:45:00 AM 0.72 33.296 0.086 6.95 5.23 14.24
1/12/2021 8:00:00 AM 0.73 33.314 0.086 6.95 5.24 14.24
1/12/2021 8:15:00 AM 0.74 33.332 0.086 6.97 5.11 14.25
1/12/2021 8:30:00 AM 0.75 33.35 0.086 6.95 5.12 14.25
1/12/2021 8:45:00 AM 0.77 33.386 0.086 6.99 5.21 14.25
1/12/2021 9:00:00 AM 0.79 33.422 0.086 6.97 5.15 14.26
1/12/2021 9:15:00 AM 0.81 33.458 0.086 6.93 5.24 14.26
1/12/2021 9:30:00 AM 0.84 33.512 0.086 6.98 5.08 14.26
1/12/2021 9:45:00 AM 0.88 33.584 0.086 6.95 5.3 14.26
1/12/2021 10:00:00 AM 0.92 33.656 0.086 6.97 5.22 14.26
1/12/2021 10:15:00 AM 0.96 33.728 0.086 6.99 5.24 14.25
1/12/2021 10:30:00 AM 1 33.8 0.086 6.99 5.16 14.25
1/12/2021 10:45:00 AM 1.06 33.908 0.086 6.97 5.12 14.24
1/12/2021 11:00:00 AM 1.11 33.998 0.086 6.99 5.06 14.24
1/12/2021 11:15:00 AM 1.12 34.016 0.086 7 5.05 14.23
1/12/2021 11:30:00 AM 1.17 34.106 0.086 7 4.98 14.23
1/12/2021 11:45:00 AM 1.21 34.178 0.086 6.99 4.98 14.22
1/12/2021 12:00:00 PM 1.23 34.214 0.086 6.99 5.03 14.21
1/12/2021 12:15:00 PM 1.26 34.268 0.086 6.98 4.99 14.21
1/12/2021 12:30:00 PM 1.28 34.304 0.086 7.01 4.94 14.2
1/12/2021 12:45:00 PM 1.32 34.376 0.086 7 4.85 14.19
1/12/2021 1:00:00 PM 1.37 34.466 0.086 6.98 4.91 14.18
1/12/2021 1:15:00 PM 1.41 34.538 0.086 7.01 5.06 14.17
1/12/2021 1:30:00 PM 1.44 34.592 0.086 7.01 4.88 14.17
1/12/2021 1:45:00 PM 1.47 34.646 0.086 7 4.88 14.16
1/12/2021 2:00:00 PM 1.49 34.682 0.086 6.99 4.79 14.15
1/12/2021 2:15:00 PM 1.51 34.718 0.086 7 4.89 14.14
1/12/2021 2:30:00 PM 1.52 34.736 0.086 7.01 4.91 14.13
1/12/2021 2:45:00 PM 1.53 34.754 0.086 7.01 4.86 14.12
1/12/2021 3:00:00 PM 1.54 34.772 0.086 7.02 4.96 14.12
1/12/2021 3:15:00 PM 1.55 34.79 0.086 7.01 4.84 14.11
1/12/2021 3:30:00 PM 1.55 34.79 0.086 6.96 5.07 14.1
1/12/2021 3:45:00 PM 1.55 34.79 0.086 7.01 4.82 14.09
1/12/2021 4:00:00 PM 1.56 34.808 0.086 7 4.86 14.09
1/12/2021 4:15:00 PM 1.55 34.79 0.086 7.01 4.81 14.08
1/12/2021 4:30:00 PM 1.55 34.79 0.086 7.01 4.72 14.07
1/12/2021 4:45:00 PM 1.54 34.772 0.086 6.98 4.83 14.06
1/12/2021 5:00:00 PM 1.54 34.772 0.086 7.01 5.11 14.05
1/12/2021 5:15:00 PM 1.53 34.754 0.086 7 4.8 14.04
1/12/2021 5:30:00 PM 1.52 34.736 0.086 7.01 4.84 14.03
1/12/2021 5:45:00 PM 1.52 34.736 0.086 7.01 4.83 14.02
1/12/2021 6:00:00 PM 1.52 34.736 0.086 7.01 4.68 14.01
1/12/2021 6:15:00 PM 1.51 34.718 0.086 7 4.86 14
1/12/2021 6:30:00 PM 1.51 34.718 0.086 7.01 4.79 13.99
1/12/2021 6:45:00 PM 1.51 34.718 0.086 7.01 4.78 13.99
1/12/2021 7:00:00 PM 1.5 34.7 0.086 7.01 4.78 13.98
1/12/2021 7:15:00 PM 1.5 34.7 0.086 6.97 4.88 13.98
1/12/2021 7:30:00 PM 1.49 34.682 0.086 7 4.8 13.97
1/12/2021 7:45:00 PM 1.49 34.682 0.086 6.98 4.8 13.97
1/12/2021 8:00:00 PM 1.48 34.664 0.086 7 4.78 13.97
1/12/2021 8:15:00 PM 1.47 34.646 0.086 7 4.89 13.97
1/12/2021 8:30:00 PM 1.47 34.646 0.086 6.99 4.82 13.96
1/12/2021 8:45:00 PM 1.47 34.646 0.086 6.99 4.81 13.96
1/12/2021 9:00:00 PM 1.46 34.628 0.086 7 4.86 13.96
1/12/2021 9:15:00 PM 1.46 34.628 0.086 6.99 4.73 13.96
1/12/2021 9:30:00 PM 1.46 34.628 0.086 6.96 4.8 13.95
1/12/2021 9:45:00 PM 1.45 34.61 0.086 6.99 4.82 13.95
1/12/2021 10:00:00 PM 1.45 34.61 0.086 6.99 4.95 13.95
1/12/2021 10:15:00 PM 1.45 34.61 0.086 6.98 4.82 13.95
1/12/2021 10:30:00 PM 1.44 34.592 0.086 6.98 4.91 13.95
1/12/2021 10:45:00 PM 1.44 34.592 0.086 7 4.98 13.95
1/12/2021 11:00:00 PM 1.43 34.574 0.086 6.99 5 13.95
1/12/2021 11:15:00 PM 1.42 34.556 0.086 6.99 4.94 13.95
1/12/2021 11:30:00 PM 1.41 34.538 0.086 6.99 4.95 13.95
1/12/2021 11:45:00 PM 1.41 34.538 0.086 7 5.19 13.96
1/13/2021 12:00:00 AM 1.4 34.52 0.086 6.99 5.06 13.96
1/13/2021 12:15:00 AM 1.39 34.502 0.086 6.99 5.13 13.96
1/13/2021 12:30:00 AM 1.38 34.484 0.086 6.98 5.1 13.96
1/13/2021 12:45:00 AM 1.37 34.466 0.086 6.97 5.01 13.96
1/13/2021 1:00:00 AM 1.36 34.448 0.086 6.98 4.96 13.97
1/13/2021 1:15:00 AM 1.35 34.43 0.086 6.99 5.07 13.97
1/13/2021 1:30:00 AM 1.34 34.412 0.086 6.99 5.04 13.97
1/13/2021 1:45:00 AM 1.33 34.394 0.086 6.99 5.01 13.98
1/13/2021 2:00:00 AM 1.32 34.376 0.086 6.98 5.05 13.98
1/13/2021 2:15:00 AM 1.31 34.358 0.086 6.99 5.09 13.98
1/13/2021 2:30:00 AM 1.3 34.34 0.087 6.99 5.02 13.99
1/13/2021 2:45:00 AM 1.28 34.304 0.086 6.97 5.01 13.99
1/13/2021 3:00:00 AM 1.27 34.286 0.086 6.99 5.01 13.99
1/13/2021 3:15:00 AM 1.26 34.268 0.086 6.98 5 14
1/13/2021 3:30:00 AM 1.25 34.25 0.087 6.99 5.18 14
1/13/2021 3:45:00 AM 1.23 34.214 0.086 6.99 5.16 14.01
1/13/2021 4:00:00 AM 1.23 34.214 0.087 6.98 5.06 14.01
1/13/2021 4:15:00 AM 1.22 34.196 0.087 6.98 5.02 14.01
1/13/2021 4:30:00 AM 1.22 34.196 0.086 6.98 5.12 14.01
1/13/2021 4:45:00 AM 1.21 34.178 0.087 6.99 5.03 14.01
1/13/2021 5:00:00 AM 1.2 34.16 0.086 6.97 5.17 14.02
1/13/2021 5:15:00 AM 1.2 34.16 0.087 6.96 5.21 14.02
1/13/2021 5:30:00 AM 1.19 34.142 0.087 6.97 5.07 14.02
1/13/2021 5:45:00 AM 1.18 34.124 0.087 6.99 5.09 14.02
1/13/2021 6:00:00 AM 1.17 34.106 0.087 6.99 5.16 14.02
1/13/2021 6:15:00 AM 1.17 34.106 0.087 6.96 5.13 14.03
1/13/2021 6:30:00 AM 1.16 34.088 0.087 6.99 5.14 14.03
1/13/2021 6:45:00 AM 1.16 34.088 0.087 6.99 5.15 14.03
1/13/2021 7:00:00 AM 1.15 34.07 0.087 6.98 5.18 14.03
1/13/2021 7:15:00 AM 1.14 34.052 0.087 7 5.26 14.04
1/13/2021 7:30:00 AM 1.14 34.052 0.087 6.99 5.19 14.03
1/13/2021 7:45:00 AM 1.14 34.052 0.087 6.99 5.18 14.04
1/13/2021 8:00:00 AM 1.14 34.052 0.087 6.99 5.04 14.04
1/13/2021 8:15:00 AM 1.14 34.052 0.087 6.99 5.13 14.05
1/13/2021 8:30:00 AM 1.15 34.07 0.087 6.99 5.2 14.05
1/13/2021 8:45:00 AM 1.16 34.088 0.087 6.98 5.12 14.05
1/13/2021 9:00:00 AM 1.16 34.088 0.087 7 5.02 14.06
1/13/2021 9:15:00 AM 1.17 34.106 0.087 6.99 5.09 14.06
1/13/2021 9:30:00 AM 1.18 34.124 0.087 6.99 5.28 14.06
1/13/2021 9:45:00 AM 1.19 34.142 0.087 7 5.56 14.06
1/13/2021 10:00:00 AM 1.2 34.16 0.087 6.99 5.33 14.06
1/13/2021 10:15:00 AM 1.22 34.196 0.087 7 5.18 14.07
1/13/2021 10:30:00 AM 1.24 34.232 0.087 7.01 5.32 14.07
1/13/2021 10:45:00 AM 1.26 34.268 0.087 7.01 5.23 14.07
1/13/2021 11:00:00 AM 1.29 34.322 0.087 6.98 5.07 14.07
1/13/2021 11:15:00 AM 1.32 34.376 0.087 7.01 5.11 14.07
1/13/2021 11:30:00 AM 1.34 34.412 0.087 7.01 4.9 14.07
1/13/2021 11:45:00 AM 1.37 34.466 0.087 7 4.95 14.07
1/13/2021 12:00:00 PM 1.4 34.52 0.087 6.99 4.97 14.06
1/13/2021 12:15:00 PM 1.42 34.556 0.087 7.02 5.02 14.06
1/13/2021 12:30:00 PM 1.44 34.592 0.087 6.99 5.03 14.06
1/13/2021 12:45:00 PM 1.47 34.646 0.087 7.02 4.91 14.05
1/13/2021 1:00:00 PM 1.49 34.682 0.087 7.03 4.91 14.04
1/13/2021 1:15:00 PM 1.52 34.736 0.086 6.99 4.88 14.04
1/13/2021 1:30:00 PM 1.55 34.79 0.087 7.02 4.86 14.03
1/13/2021 1:45:00 PM 1.58 34.844 0.086 7.01 4.87 14.02
1/13/2021 2:00:00 PM 1.61 34.898 0.087 7.01 4.79 14.02
1/13/2021 2:15:00 PM 1.65 34.97 0.086 7.01 4.89 14.01
1/13/2021 2:30:00 PM 1.69 35.042 0.087 7.04 4.89 14
1/13/2021 2:45:00 PM 1.71 35.078 0.086 7.03 4.95 13.99
1/13/2021 3:00:00 PM 1.73 35.114 0.086 7.03 4.94 13.98
1/13/2021 3:15:00 PM 1.76 35.168 0.086 6.98 4.85 13.97
1/13/2021 3:30:00 PM 1.77 35.186 0.086 7.02 4.82 13.97
1/13/2021 3:45:00 PM 1.77 35.186 0.086 7.04 4.72 13.96
1/13/2021 4:00:00 PM 1.76 35.168 0.086 7.02 4.79 13.95
1/13/2021 4:15:00 PM 1.75 35.15 0.086 7.03 4.79 13.94
1/13/2021 4:30:00 PM 1.73 35.114 0.086 7.03 4.71 13.93
1/13/2021 4:45:00 PM 1.71 35.078 0.086 7.02 4.77 13.93
1/13/2021 5:00:00 PM 1.69 35.042 0.086 6.99 4.83 13.92
1/13/2021 5:15:00 PM 1.67 35.006 0.086 7.02 4.68 13.91
1/13/2021 5:30:00 PM 1.65 34.97 0.087 7.02 4.77 13.9
1/13/2021 5:45:00 PM 1.64 34.952 0.087 7.02 4.77 13.89
1/13/2021 6:00:00 PM 1.63 34.934 0.086 7.02 4.74 13.88
1/13/2021 6:15:00 PM 1.62 34.916 0.086 7.02 4.73 13.88
1/13/2021 6:30:00 PM 1.62 34.916 0.087 7 4.64 13.87
1/13/2021 6:45:00 PM 1.61 34.898 0.087 7.01 4.75 13.86
1/13/2021 7:00:00 PM 1.6 34.88 0.086 7.02 4.7 13.86
1/13/2021 7:15:00 PM 1.59 34.862 0.087 7.01 4.79 13.86
1/13/2021 7:30:00 PM 1.57 34.826 0.087 7 4.76 13.85
1/13/2021 7:45:00 PM 1.56 34.808 0.087 7.02 4.73 13.85
1/13/2021 8:00:00 PM 1.55 34.79 0.087 7 4.8 13.85
1/13/2021 8:15:00 PM 1.53 34.754 0.087 7.02 4.71 13.85
1/13/2021 8:30:00 PM 1.52 34.736 0.087 7.01 4.65 13.85
1/13/2021 8:45:00 PM 1.5 34.7 0.087 7.01 4.66 13.85
1/13/2021 9:00:00 PM 1.49 34.682 0.087 7 4.66 13.85
1/13/2021 9:15:00 PM 1.47 34.646 0.087 7.01 4.78 13.85
1/13/2021 9:30:00 PM 1.46 34.628 0.087 6.99 4.72 13.85
1/13/2021 9:45:00 PM 1.44 34.592 0.087 7.01 4.91 13.85
1/13/2021 10:00:00 PM 1.42 34.556 0.087 7.01 4.79 13.85
1/13/2021 10:15:00 PM 1.4 34.52 0.087 7.01 4.79 13.85
1/13/2021 10:30:00 PM 1.39 34.502 0.087 7 4.78 13.86
1/13/2021 10:45:00 PM 1.37 34.466 0.087 7.01 4.77 13.86
1/13/2021 11:00:00 PM 1.35 34.43 0.087 6.99 4.61 13.86
1/13/2021 11:15:00 PM 1.33 34.394 0.087 7 4.79 13.86
1/13/2021 11:30:00 PM 1.32 34.376 0.087 7.01 4.75 13.87
1/13/2021 11:45:00 PM 1.31 34.358 0.087 7 4.66 13.87
1/14/2021 12:00:00 AM 1.31 34.358 0.087 7.01 4.75 13.87
1/14/2021 12:15:00 AM 1.3 34.34 0.086 7.01 4.67 13.88
1/14/2021 12:30:00 AM 1.29 34.322 0.086 6.96 4.74 13.88
1/14/2021 12:45:00 AM 1.28 34.304 0.087 7 4.68 13.88
1/14/2021 1:00:00 AM 1.28 34.304 0.086 7 4.74 13.89
1/14/2021 1:15:00 AM 1.27 34.286 0.086 7.01 4.69 13.89
1/14/2021 1:30:00 AM 1.26 34.268 0.086 7.01 4.71 13.89
1/14/2021 1:45:00 AM 1.25 34.25 0.087 6.99 4.64 13.9
1/14/2021 2:00:00 AM 1.24 34.232 0.087 7.01 4.64 13.9
1/14/2021 2:15:00 AM 1.24 34.232 0.087 7.01 4.7 13.9
1/14/2021 2:30:00 AM 1.23 34.214 0.087 7.01 4.55 13.91
1/14/2021 2:45:00 AM 1.22 34.196 0.087 7 4.67 13.91
1/14/2021 3:00:00 AM 1.22 34.196 0.087 6.98 4.7 13.91
1/14/2021 3:15:00 AM 1.21 34.178 0.087 7.01 4.73 13.92
1/14/2021 3:30:00 AM 1.21 34.178 0.087 7 4.68 13.92
1/14/2021 3:45:00 AM 1.21 34.178 0.087 6.99 4.7 13.92
1/14/2021 4:00:00 AM 1.2 34.16 0.087 7 4.7 13.92
1/14/2021 4:15:00 AM 1.2 34.16 0.087 7 4.72 13.92
1/14/2021 4:30:00 AM 1.21 34.178 0.087 7 4.83 13.92
1/14/2021 4:45:00 AM 1.21 34.178 0.087 7 4.82 13.92
1/14/2021 5:00:00 AM 1.21 34.178 0.087 7 4.75 13.92
1/14/2021 5:15:00 AM 1.22 34.196 0.087 7.01 4.77 13.92
1/14/2021 5:30:00 AM 1.22 34.196 0.087 7 4.87 13.92
1/14/2021 5:45:00 AM 1.22 34.196 0.087 6.97 4.81 13.92
1/14/2021 6:00:00 AM 1.22 34.196 0.087 7 4.88 13.92
1/14/2021 6:15:00 AM 1.23 34.214 0.087 6.99 4.69 13.92
1/14/2021 6:30:00 AM 1.23 34.214 0.087 6.98 4.88 13.92
1/14/2021 6:45:00 AM 1.23 34.214 0.087 6.98 4.84 13.92
1/14/2021 7:00:00 AM 1.23 34.214 0.087 7 4.8 13.92
1/14/2021 7:15:00 AM 1.23 34.214 0.087 6.99 4.77 13.92
1/14/2021 7:30:00 AM 1.24 34.232 0.087 6.96 4.85 13.92
1/14/2021 7:45:00 AM 1.24 34.232 0.087 6.99 4.82 13.92
1/14/2021 8:00:00 AM 1.24 34.232 0.087 6.98 4.88 13.92
1/14/2021 8:15:00 AM 1.25 34.25 0.087 7 4.71 13.92
1/14/2021 8:30:00 AM 1.26 34.268 0.087 6.95 5.11 13.93
1/14/2021 8:45:00 AM 1.28 34.304 0.087 6.99 5.08 13.93
1/14/2021 9:00:00 AM 1.3 34.34 0.087 7.01 5.24 13.94
1/14/2021 9:15:00 AM 1.32 34.376 0.087 6.99 5.36 13.94
1/14/2021 9:30:00 AM 1.35 34.43 0.087 7.01 5.59 13.94
1/14/2021 9:45:00 AM 1.38 34.484 0.087 7 5.27 13.94
1/14/2021 10:00:00 AM 1.41 34.538 0.087 7.03 5.06 13.94
1/14/2021 10:15:00 AM 1.45 34.61 0.086 6.97 5.15 13.94
1/14/2021 10:30:00 AM 1.49 34.682 0.087 7.01 4.86 13.94
1/14/2021 10:45:00 AM 1.54 34.772 0.087 7 4.81 13.94
1/14/2021 11:00:00 AM 1.6 34.88 0.087 7.01 5.02 13.93
1/14/2021 11:15:00 AM 1.63 34.934 0.087 7.03 4.78 13.93
1/14/2021 11:30:00 AM 1.68 35.024 0.086 7.03 4.85 13.93
1/14/2021 11:45:00 AM 1.71 35.078 0.087 7.03 4.78 13.92
1/14/2021 12:00:00 PM 1.74 35.132 0.086 6.95 4.68 13.91
1/14/2021 12:15:00 PM 1.78 35.204 0.086 7.03 4.74 13.91
1/14/2021 12:30:00 PM 1.84 35.312 0.086 7.03 4.83 13.9
1/14/2021 12:45:00 PM 1.87 35.366 0.086 7.03 4.85 13.9
1/14/2021 1:00:00 PM 1.9 35.42 0.087 7.03 4.74 13.89
1/14/2021 1:15:00 PM 1.92 35.456 0.086 7.04 4.71 13.88
1/14/2021 1:30:00 PM 1.96 35.528 0.087 7.04 4.78 13.86
1/14/2021 1:45:00 PM 2 35.6 0.087 7.03 4.77 13.85
1/14/2021 2:00:00 PM 2.04 35.672 0.087 7.03 4.72 13.84
1/14/2021 2:15:00 PM 2.08 35.744 0.087 7.01 4.83 13.83
1/14/2021 2:30:00 PM 2.1 35.78 0.087 7.02 4.8 13.83
1/14/2021 2:45:00 PM 2.14 35.852 0.087 7.04 4.72 13.81
1/14/2021 3:00:00 PM 2.19 35.942 0.087 7.03 4.71 13.8
1/14/2021 3:15:00 PM 2.22 35.996 0.087 7.04 4.73 13.79
1/14/2021 3:30:00 PM 2.23 36.014 0.087 7.04 4.75 13.78
1/14/2021 3:45:00 PM 2.24 36.032 0.087 7.04 4.73 13.77
1/14/2021 4:00:00 PM 2.25 36.05 0.087 7.03 4.8 13.76
1/14/2021 4:15:00 PM 2.25 36.05 0.087 7.04 4.76 13.75
1/14/2021 4:30:00 PM 2.25 36.05 0.087 7.02 4.66 13.74
1/14/2021 4:45:00 PM 2.23 36.014 0.087 7.03 4.77 13.73
1/14/2021 5:00:00 PM 2.23 36.014 0.087 7.01 4.79 13.72
1/14/2021 5:15:00 PM 2.22 35.996 0.087 7.01 4.79 13.71
1/14/2021 5:30:00 PM 2.22 35.996 0.087 7 4.71 13.7
1/14/2021 5:45:00 PM 2.21 35.978 0.088 7.02 4.84 13.69
1/14/2021 6:00:00 PM 2.21 35.978 0.088 7.02 4.72 13.68
1/14/2021 6:15:00 PM 2.21 35.978 0.088 7.02 4.84 13.67
1/14/2021 6:30:00 PM 2.21 35.978 0.088 7.01 4.79 13.67
1/14/2021 6:45:00 PM 2.2 35.96 0.088 7.01 4.72 13.66
1/14/2021 7:00:00 PM 2.2 35.96 0.088 7.01 4.71 13.65
1/14/2021 7:15:00 PM 2.2 35.96 0.088 6.99 4.8 13.65
1/14/2021 7:30:00 PM 2.2 35.96 0.088 7.02 4.83 13.64
1/14/2021 7:45:00 PM 2.19 35.942 0.088 7.02 4.86 13.64
1/14/2021 8:00:00 PM 2.19 35.942 0.088 6.99 4.88 13.63
1/14/2021 8:15:00 PM 2.19 35.942 0.088 7.02 4.86 13.63
1/14/2021 8:30:00 PM 2.19 35.942 0.089 7.01 4.75 13.62
1/14/2021 8:45:00 PM 2.19 35.942 0.089 7.01 4.95 13.62
1/14/2021 9:00:00 PM 2.19 35.942 0.089 7.01 4.99 13.61
1/14/2021 9:15:00 PM 2.19 35.942 0.089 7.01 4.89 13.61
1/14/2021 9:30:00 PM 2.19 35.942 0.089 7 5.06 13.61
1/14/2021 9:45:00 PM 2.19 35.942 0.089 7.01 5.17 13.61
1/14/2021 10:00:00 PM 2.19 35.942 0.089 7.01 5.03 13.61
1/14/2021 10:15:00 PM 2.19 35.942 0.089 7 5.15 13.61
1/14/2021 10:30:00 PM 2.19 35.942 0.089 7.01 5.14 13.61
1/14/2021 10:45:00 PM 2.18 35.924 0.089 7 5.18 13.61
1/14/2021 11:00:00 PM 2.18 35.924 0.089 7 5.17 13.61
1/14/2021 11:15:00 PM 2.17 35.906 0.089 6.98 5.25 13.61
1/14/2021 11:30:00 PM 2.17 35.906 0.089 7 5.11 13.61
1/14/2021 11:45:00 PM 2.16 35.888 0.089 7 5.29 13.61
1/15/2021 12:00:00 AM 2.15 35.87 0.089 6.97 5.22 13.61
1/15/2021 12:15:00 AM 2.15 35.87 0.089 6.99 5.26 13.62
1/15/2021 12:30:00 AM 2.14 35.852 0.089 6.99 5.27 13.62
1/15/2021 12:45:00 AM 2.13 35.834 0.089 7 5.39 13.62
1/15/2021 1:00:00 AM 2.12 35.816 0.089 7.01 5.35 13.62
1/15/2021 1:15:00 AM 2.11 35.798 0.089 7 5.37 13.63
1/15/2021 1:30:00 AM 2.1 35.78 0.089 6.99 5.49 13.63
1/15/2021 1:45:00 AM 2.09 35.762 0.089 7 5.56 13.64
1/15/2021 2:00:00 AM 2.08 35.744 0.089 7 5.63 13.64
1/15/2021 2:15:00 AM 2.07 35.726 0.089 7.01 5.46 13.64
1/15/2021 2:30:00 AM 2.06 35.708 0.089 6.98 5.6 13.65
1/15/2021 2:45:00 AM 2.05 35.69 0.089 7 5.52 13.65
1/15/2021 3:00:00 AM 2.04 35.672 0.09 7 5.62 13.66
1/15/2021 3:15:00 AM 2.03 35.654 0.089 7.01 5.64 13.67
1/15/2021 3:30:00 AM 2.02 35.636 0.09 7 5.6 13.67
1/15/2021 3:45:00 AM 2.01 35.618 0.09 6.98 5.58 13.67
1/15/2021 4:00:00 AM 1.97 35.546 0.09 7 5.66 13.68
1/15/2021 4:15:00 AM 1.94 35.492 0.09 6.98 5.62 13.68
1/15/2021 4:30:00 AM 1.92 35.456 0.09 7 5.74 13.69
1/15/2021 4:45:00 AM 1.9 35.42 0.09 6.99 5.55 13.7
1/15/2021 5:00:00 AM 1.87 35.366 0.09 7 5.76 13.7
1/15/2021 5:15:00 AM 1.84 35.312 0.09 6.99 5.71 13.71
1/15/2021 5:30:00 AM 1.81 35.258 0.09 6.98 5.65 13.72
1/15/2021 5:45:00 AM 1.79 35.222 0.09 7 5.62 13.72
1/15/2021 6:00:00 AM 1.76 35.168 0.09 7 5.58 13.73
1/15/2021 6:15:00 AM 1.74 35.132 0.09 6.99 5.67 13.73
1/15/2021 6:30:00 AM 1.71 35.078 0.09 6.97 5.59 13.74
1/15/2021 6:45:00 AM 1.67 35.006 0.09 7 5.72 13.75
1/15/2021 7:00:00 AM 1.64 34.952 0.09 7.01 5.55 13.76
1/15/2021 7:15:00 AM 1.6 34.88 0.09 6.98 5.63 13.77
1/15/2021 7:30:00 AM 1.57 34.826 0.09 6.98 5.51 13.78
1/15/2021 7:45:00 AM 1.54 34.772 0.09 6.99 5.68 13.8
1/15/2021 8:00:00 AM 1.52 34.736 0.09 6.99 5.62 13.81
1/15/2021 8:15:00 AM 1.51 34.718 0.09 7 5.75 13.82
1/15/2021 8:30:00 AM 1.51 34.718 0.09 7.01 5.54 13.83
1/15/2021 8:45:00 AM 1.51 34.718 0.09 7 5.59 13.85
1/15/2021 9:00:00 AM 1.52 34.736 0.09 7.01 5.67 13.86
1/15/2021 9:15:00 AM 1.54 34.772 0.09 7.01 5.71 13.87
1/15/2021 9:30:00 AM 1.56 34.808 0.09 7.01 5.7 13.88
1/15/2021 9:45:00 AM 1.58 34.844 0.09 7.01 5.55 13.89
1/15/2021 10:00:00 AM 1.6 34.88 0.09 7.02 5.5 13.9
1/15/2021 10:15:00 AM 1.65 34.97 0.09 7.02 5.42 13.9
1/15/2021 10:30:00 AM 1.69 35.042 0.09 7 5.63 13.91
1/15/2021 10:45:00 AM 1.73 35.114 0.09 7.01 5.64 13.91
1/15/2021 11:00:00 AM 1.78 35.204 0.09 7.04 5.6 13.91
1/15/2021 11:15:00 AM 1.83 35.294 0.09 7.04 5.39 13.91
1/15/2021 11:30:00 AM 1.89 35.402 0.09 7.01 5.53 13.91
1/15/2021 11:45:00 AM 1.97 35.546 0.09 7.05 5.24 13.9
1/15/2021 12:00:00 PM 2.06 35.708 0.09 7.04 5.32 13.89
1/15/2021 12:15:00 PM 2.13 35.834 0.09 7.03 5.42 13.88
1/15/2021 12:30:00 PM 2.17 35.906 0.09 7.04 5.42 13.87
1/15/2021 12:45:00 PM 2.2 35.96 0.09 7.05 5.36 13.86
1/15/2021 1:00:00 PM 2.22 35.996 0.09 7.05 5.58 13.85
1/15/2021 1:15:00 PM 2.23 36.014 0.09 7.05 5.62 13.84
1/15/2021 1:30:00 PM 2.25 36.05 0.09 7.06 5.71 13.84
1/15/2021 1:45:00 PM 2.27 36.086 0.09 7.06 5.74 13.83
1/15/2021 2:00:00 PM 2.28 36.104 0.09 7.06 5.74 13.82
1/15/2021 2:15:00 PM 2.29 36.122 0.09 7.06 5.8 13.81
1/15/2021 2:30:00 PM 2.31 36.158 0.09 7.05 5.73 13.79
1/15/2021 2:45:00 PM 2.33 36.194 0.09 7.04 5.84 13.77
1/15/2021 3:00:00 PM 2.34 36.212 0.09 7.06 5.81 13.76
1/15/2021 3:15:00 PM 2.35 36.23 0.09 7.05 5.78 13.75
1/15/2021 3:30:00 PM 2.34 36.212 0.09 7.06 5.73 13.74
1/15/2021 3:45:00 PM 2.34 36.212 0.09 7.05 5.85 13.72
1/15/2021 4:00:00 PM 2.34 36.212 0.09 7.05 5.9 13.71
1/15/2021 4:15:00 PM 2.33 36.194 0.09 7.04 5.87 13.7
1/15/2021 4:30:00 PM 2.33 36.194 0.09 7.03 6.08 13.69
1/15/2021 4:45:00 PM 2.33 36.194 0.091 7.04 6.05 13.68
1/15/2021 5:00:00 PM 2.32 36.176 0.09 7.04 6.22 13.67
1/15/2021 5:15:00 PM 2.32 36.176 0.091 7.04 6.1 13.66
1/15/2021 5:30:00 PM 2.32 36.176 0.091 7.04 6.65 13.65
1/15/2021 5:45:00 PM 2.32 36.176 0.091 7.04 6.68 13.63
1/15/2021 6:00:00 PM 2.32 36.176 0.091 7.04 6.59 13.62
1/15/2021 6:15:00 PM 2.33 36.194 0.091 7.04 6.71 13.61
1/15/2021 6:30:00 PM 2.33 36.194 0.091 7.04 7.01 13.6
1/15/2021 6:45:00 PM 2.34 36.212 0.091 7.04 6.84 13.59
1/15/2021 7:00:00 PM 2.35 36.23 0.091 7.01 8.03 13.58
1/15/2021 7:15:00 PM 2.36 36.248 0.091 7.04 8.15 13.57
1/15/2021 7:30:00 PM 2.37 36.266 0.092 7.03 8.61 13.56
1/15/2021 7:45:00 PM 2.38 36.284 0.092 7.05 8.05 13.55
1/15/2021 8:00:00 PM 2.39 36.302 0.092 7.05 8.38 13.54
1/15/2021 8:15:00 PM 2.4 36.32 0.092 7.05 8.3 13.53
1/15/2021 8:30:00 PM 2.4 36.32 0.092 6.98 7.89 13.52
1/15/2021 8:45:00 PM 2.41 36.338 0.093 7.02 8.15 13.52
1/15/2021 9:00:00 PM 2.42 36.356 0.093 7.03 8.67 13.51
1/15/2021 9:15:00 PM 2.42 36.356 0.094 7.03 9.09 13.51
1/15/2021 9:30:00 PM 2.42 36.356 0.094 7.03 9.93 13.5
1/15/2021 9:45:00 PM 2.42 36.356 0.094 6.98 9.75 13.5
1/15/2021 10:00:00 PM 2.43 36.374 0.095 7.03 9.98 13.5
1/15/2021 10:15:00 PM 2.42 36.356 0.095 7.04 10.8 13.49
1/15/2021 10:30:00 PM 2.42 36.356 0.095 7.03 10.91 13.49
1/15/2021 10:45:00 PM 2.42 36.356 0.095 7.03 11.81 13.5
1/15/2021 11:00:00 PM 2.41 36.338 0.095 7.05 12.71 13.49
1/15/2021 11:15:00 PM 2.4 36.32 0.096 7.05 16.9 13.5
1/15/2021 11:30:00 PM 2.38 36.284 0.096 7.03 19.39 13.5
1/15/2021 11:45:00 PM 2.36 36.248 0.098 7.05 23.39 13.51
1/16/2021 12:00:00 AM 2.34 36.212 0.1 7.06 29.04 13.51
1/16/2021 12:15:00 AM 2.32 36.176 0.102 7.05 23.33 13.52
1/16/2021 12:30:00 AM 2.29 36.122 0.104 7.06 26.99 13.53
1/16/2021 12:45:00 AM 2.26 36.068 0.106 7.05 27.94 13.54
1/16/2021 1:00:00 AM 2.22 35.996 0.108 7.05 26.9 13.56
1/16/2021 1:15:00 AM 2.18 35.924 0.11 7.04 28.3 13.57
1/16/2021 1:30:00 AM 2.14 35.852 0.113 7.04 28.89 13.59
1/16/2021 1:45:00 AM 2.09 35.762 0.114 7.02 24.62 13.6
1/16/2021 2:00:00 AM 2.05 35.69 0.116 7.01 26.42 13.62
1/16/2021 2:15:00 AM 2.01 35.618 0.118 7 25.33 13.64
1/16/2021 2:30:00 AM 1.97 35.546 0.12 6.99 26.14 13.65
1/16/2021 2:45:00 AM 1.91 35.438 0.121 6.99 26.37 13.67
1/16/2021 3:00:00 AM 1.83 35.294 0.121 6.99 41.08 13.68
1/16/2021 3:15:00 AM 1.77 35.186 0.121 6.99 36.52 13.69
1/16/2021 3:30:00 AM 1.7 35.06 0.12 7 33.38 13.71
1/16/2021 3:45:00 AM 1.64 34.952 0.118 7 33.79 13.73
1/16/2021 4:00:00 AM 1.59 34.862 0.118 7.01 33.48 13.74
1/16/2021 4:15:00 AM 1.52 34.736 0.116 7.01 39.07 13.76
1/16/2021 4:30:00 AM 1.45 34.61 0.115 7.01 43.02 13.78
1/16/2021 4:45:00 AM 1.38 34.484 0.113 6.94 32.98 13.8
1/16/2021 5:00:00 AM 1.32 34.376 0.111 7 36.27 13.82
1/16/2021 5:15:00 AM 1.26 34.268 0.109 7 38.22 13.83
1/16/2021 5:30:00 AM 1.24 34.232 0.107 6.97 31.84 13.84
1/16/2021 5:45:00 AM 1.23 34.214 0.105 7.01 40.94 13.85
1/16/2021 6:00:00 AM 1.25 34.25 0.103 7.01 31.08 13.86
1/16/2021 6:15:00 AM 1.26 34.268 0.102 7.01 42.96 13.87
1/16/2021 6:30:00 AM 1.26 34.268 0.1 6.99 46.39 13.87
1/16/2021 6:45:00 AM 1.26 34.268 0.099 6.99 35 13.87
1/16/2021 7:00:00 AM 1.26 34.268 0.098 6.98 35.13 13.88
1/16/2021 7:15:00 AM 1.25 34.25 0.097 6.98 38.91 13.88
1/16/2021 7:30:00 AM 1.25 34.25 0.097 6.97 55.28 13.88
1/16/2021 7:45:00 AM 1.24 34.232 0.097 6.97 37.95 13.89
1/16/2021 8:00:00 AM 1.24 34.232 0.097 6.97 35.49 13.89
1/16/2021 8:15:00 AM 1.24 34.232 0.098 6.96 37.74 13.89
1/16/2021 8:30:00 AM 1.25 34.25 0.098 6.97 38.41 13.89
1/16/2021 8:45:00 AM 1.25 34.25 0.098 6.97 35.55 13.9
1/16/2021 9:00:00 AM 1.24 34.232 0.099 6.96 36 13.9
1/16/2021 9:15:00 AM 1.25 34.25 0.099 6.96 27.22 13.89
1/16/2021 9:30:00 AM 1.26 34.268 0.1 6.97 30.01 13.89
1/16/2021 9:45:00 AM 1.28 34.304 0.101 6.96 41.24 13.89
1/16/2021 10:00:00 AM 1.3 34.34 0.101 6.96 34.1 13.89
1/16/2021 10:15:00 AM 1.32 34.376 0.101 6.96 37.16 13.88
1/16/2021 10:30:00 AM 1.33 34.394 0.101 6.96 47.14 13.88
1/16/2021 10:45:00 AM 1.35 34.43 0.101 6.96 23.07 13.87
1/16/2021 11:00:00 AM 1.37 34.466 0.101 6.94 27.55 13.87
1/16/2021 11:15:00 AM 1.38 34.484 0.102 6.94 26.58 13.86
1/16/2021 11:30:00 AM 1.4 34.52 0.102 6.96 23.94 13.85
1/16/2021 11:45:00 AM 1.42 34.556 0.102 6.96 25.63 13.85
1/16/2021 12:00:00 PM 1.43 34.574 0.102 6.96 24.12 13.84
1/16/2021 12:15:00 PM 1.44 34.592 0.102 6.96 24.58 13.84
1/16/2021 12:30:00 PM 1.45 34.61 0.103 6.95 23.41 13.83
1/16/2021 12:45:00 PM 1.48 34.664 0.103 6.95 23.71 13.82
1/16/2021 1:00:00 PM 1.51 34.718 0.103 6.97 23.43 13.82
1/16/2021 1:15:00 PM 1.55 34.79 0.103 6.97 21.68 13.81
1/16/2021 1:30:00 PM 1.58 34.844 0.103 6.95 22.15 13.81
1/16/2021 1:45:00 PM 1.65 34.97 0.103 6.97 22.05 13.8
1/16/2021 2:00:00 PM 1.7 35.06 0.103 6.97 24.46 13.79
1/16/2021 2:15:00 PM 1.76 35.168 0.103 6.97 22.76 13.78
1/16/2021 2:30:00 PM 1.8 35.24 0.103 6.97 20.57 13.77
1/16/2021 2:45:00 PM 1.82 35.276 0.104 6.94 20.61 13.76
1/16/2021 3:00:00 PM 1.85 35.33 0.104 6.98 20.23 13.75
1/16/2021 3:15:00 PM 1.87 35.366 0.104 6.98 19.6 13.74
1/16/2021 3:30:00 PM 1.89 35.402 0.104 6.95 19.51 13.73
1/16/2021 3:45:00 PM 1.91 35.438 0.104 6.98 17.03 13.72
1/16/2021 4:00:00 PM 1.93 35.474 0.104 6.97 18.49 13.72
1/16/2021 4:15:00 PM 1.93 35.474 0.104 6.96 16.22 13.7
1/16/2021 4:30:00 PM 1.92 35.456 0.104 6.94 21.27 13.69
1/16/2021 4:45:00 PM 1.92 35.456 0.104 6.97 19.77 13.69
1/16/2021 5:00:00 PM 1.9 35.42 0.104 6.95 19.36 13.67
1/16/2021 5:15:00 PM 1.9 35.42 0.104 6.96 18.86 13.66
1/16/2021 5:30:00 PM 1.89 35.402 0.104 6.93 18.33 13.66
1/16/2021 5:45:00 PM 1.88 35.384 0.103 6.95 18.59 13.65
1/16/2021 6:00:00 PM 1.88 35.384 0.103 6.96 18.9 13.64
1/16/2021 6:15:00 PM 1.87 35.366 0.103 6.96 17.79 13.64
1/16/2021 6:30:00 PM 1.85 35.33 0.103 6.95 17.42 13.63
1/16/2021 6:45:00 PM 1.84 35.312 0.103 6.95 17.24 13.63
1/16/2021 7:00:00 PM 1.81 35.258 0.103 6.94 17.67 13.63
1/16/2021 7:15:00 PM 1.79 35.222 0.103 6.94 17.04 13.63
1/16/2021 7:30:00 PM 1.77 35.186 0.103 6.94 16.13 13.63
1/16/2021 7:45:00 PM 1.74 35.132 0.102 6.94 15.81 13.63
1/16/2021 8:00:00 PM 1.71 35.078 0.102 6.94 16.07 13.63
1/16/2021 8:15:00 PM 1.69 35.042 0.102 6.94 15.18 13.63
1/16/2021 8:30:00 PM 1.66 34.988 0.102 6.95 14.84 13.64
1/16/2021 8:45:00 PM 1.63 34.934 0.102 6.94 15.65 13.64
1/16/2021 9:00:00 PM 1.61 34.898 0.102 6.94 15.26 13.64
1/16/2021 9:15:00 PM 1.59 34.862 0.102 6.94 15.16 13.65
1/16/2021 9:30:00 PM 1.56 34.808 0.102 6.94 14.67 13.66
1/16/2021 9:45:00 PM 1.53 34.754 0.102 6.94 14.87 13.66
1/16/2021 10:00:00 PM 1.51 34.718 0.101 6.93 14.67 13.67
1/16/2021 10:15:00 PM 1.48 34.664 0.101 6.94 14.25 13.68
1/16/2021 10:30:00 PM 1.46 34.628 0.101 6.94 14 13.69
1/16/2021 10:45:00 PM 1.45 34.61 0.101 6.94 13.96 13.69
1/16/2021 11:00:00 PM 1.44 34.592 0.101 6.94 14 13.7
1/16/2021 11:15:00 PM 1.43 34.574 0.101 6.94 13.89 13.7
1/16/2021 11:30:00 PM 1.42 34.556 0.101 6.93 14.04 13.71
1/16/2021 11:45:00 PM 1.41 34.538 0.101 6.94 13.76 13.71
1/17/2021 12:00:00 AM 1.4 34.52 0.1 6.94 14.1 13.72
1/17/2021 12:15:00 AM 1.4 34.52 0.1 6.94 13.57 13.72
1/17/2021 12:30:00 AM 1.39 34.502 0.1 6.94 13.31 13.73
1/17/2021 12:45:00 AM 1.38 34.484 0.1 6.94 14.37 13.73
1/17/2021 1:00:00 AM 1.38 34.484 0.1 6.93 13.93 13.73
1/17/2021 1:15:00 AM 1.37 34.466 0.1 6.94 14.18 13.74
1/17/2021 1:30:00 AM 1.36 34.448 0.1 6.94 13.91 13.74
1/17/2021 1:45:00 AM 1.35 34.43 0.1 6.93 13.61 13.74
1/17/2021 2:00:00 AM 1.35 34.43 0.099 6.9 14.89 13.75
1/17/2021 2:15:00 AM 1.34 34.412 0.099 6.94 14.1 13.75
1/17/2021 2:30:00 AM 1.33 34.394 0.099 6.94 13.51 13.76
1/17/2021 2:45:00 AM 1.32 34.376 0.099 6.93 13.77 13.76
1/17/2021 3:00:00 AM 1.31 34.358 0.099 6.94 12.86 13.77
1/17/2021 3:15:00 AM 1.3 34.34 0.099 6.94 12.24 13.77
1/17/2021 3:30:00 AM 1.29 34.322 0.099 6.94 11.53 13.77
1/17/2021 3:45:00 AM 1.29 34.322 0.099 6.95 12.08 13.78
1/17/2021 4:00:00 AM 1.28 34.304 0.098 6.94 11.69 13.78
1/17/2021 4:15:00 AM 1.28 34.304 0.098 6.94 11.63 13.78
1/17/2021 4:30:00 AM 1.27 34.286 0.098 6.91 11.36 13.79
1/17/2021 4:45:00 AM 1.27 34.286 0.098 6.93 10.84 13.79
1/17/2021 5:00:00 AM 1.27 34.286 0.098 6.94 11.37 13.79
1/17/2021 5:15:00 AM 1.27 34.286 0.097 6.93 10.95 13.79
1/17/2021 5:30:00 AM 1.26 34.268 0.097 6.92 10.64 13.8
1/17/2021 5:45:00 AM 1.26 34.268 0.097 6.93 10.47 13.8
1/17/2021 6:00:00 AM 1.26 34.268 0.097 6.93 9.75 13.8
1/17/2021 6:15:00 AM 1.25 34.25 0.097 6.9 10.37 13.8
1/17/2021 6:30:00 AM 1.25 34.25 0.097 6.94 10.02 13.8
1/17/2021 6:45:00 AM 1.24 34.232 0.097 6.94 9.84 13.81
1/17/2021 7:00:00 AM 1.23 34.214 0.096 6.94 9.84 13.81
1/17/2021 7:15:00 AM 1.22 34.196 0.096 6.94 10.09 13.81
1/17/2021 7:30:00 AM 1.21 34.178 0.096 6.94 9.84 13.82
1/17/2021 7:45:00 AM 1.19 34.142 0.096 6.94 9.51 13.82
1/17/2021 8:00:00 AM 1.18 34.124 0.096 6.89 9.53 13.83
1/17/2021 8:15:00 AM 1.18 34.124 0.096 6.95 9.21 13.84
1/17/2021 8:30:00 AM 1.19 34.142 0.096 6.95 9.61 13.85
1/17/2021 8:45:00 AM 1.21 34.178 0.096 6.95 9.55 13.85
1/17/2021 9:00:00 AM 1.23 34.214 0.096 6.95 9.35 13.86
1/17/2021 9:15:00 AM 1.24 34.232 0.096 6.95 9.17 13.86
1/17/2021 9:30:00 AM 1.25 34.25 0.095 6.89 9.05 13.87
1/17/2021 9:45:00 AM 1.26 34.268 0.095 6.95 9.01 13.88
1/17/2021 10:00:00 AM 1.29 34.322 0.095 6.96 9.06 13.88
1/17/2021 10:15:00 AM 1.33 34.394 0.095 6.97 8.95 13.89
1/17/2021 10:30:00 AM 1.37 34.466 0.095 6.96 8.89 13.89
1/17/2021 10:45:00 AM 1.4 34.52 0.095 6.97 8.55 13.89
1/17/2021 11:00:00 AM 1.43 34.574 0.095 6.97 8.84 13.89
1/17/2021 11:15:00 AM 1.45 34.61 0.095 6.97 8.87 13.89
1/17/2021 11:30:00 AM 1.46 34.628 0.095 6.97 9.41 13.89
1/17/2021 11:45:00 AM 1.48 34.664 0.095 6.97 8.93 13.89
1/17/2021 12:00:00 PM 1.51 34.718 0.095 6.93 9.07 13.88
1/17/2021 12:15:00 PM 1.54 34.772 0.095 6.98 8.42 13.88
1/17/2021 12:30:00 PM 1.64 34.952 0.094 6.98 8.97 13.88
1/17/2021 12:45:00 PM 1.75 35.15 0.094 6.99 8.69 13.87
1/17/2021 1:00:00 PM 1.81 35.258 0.094 7 8.49 13.86
1/17/2021 1:15:00 PM 1.88 35.384 0.094 6.99 8.77 13.84
1/17/2021 1:30:00 PM 1.9 35.42 0.094 6.99 8.71 13.83
1/17/2021 1:45:00 PM 1.91 35.438 0.094 6.98 9.11 13.83
1/17/2021 2:00:00 PM 1.93 35.474 0.094 6.94 9.02 13.82
1/17/2021 2:15:00 PM 1.98 35.564 0.094 7 9.06 13.81
1/17/2021 2:30:00 PM 2.03 35.654 0.094 6.99 8.66 13.79
1/17/2021 2:45:00 PM 2.09 35.762 0.094 6.98 9.11 13.78
1/17/2021 3:00:00 PM 2.11 35.798 0.094 7 8.66 13.77
1/17/2021 3:15:00 PM 2.12 35.816 0.094 7 8.86 13.75
1/17/2021 3:30:00 PM 2.14 35.852 0.094 6.99 8.65 13.74
1/17/2021 3:45:00 PM 2.14 35.852 0.094 6.99 8.59 13.72
1/17/2021 4:00:00 PM 2.15 35.87 0.094 6.99 8.55 13.71
1/17/2021 4:15:00 PM 2.16 35.888 0.094 6.98 8.65 13.69
1/17/2021 4:30:00 PM 2.16 35.888 0.094 6.99 8.75 13.68
1/17/2021 4:45:00 PM 2.16 35.888 0.094 6.99 8.6 13.67
1/17/2021 5:00:00 PM 2.15 35.87 0.094 6.98 8.77 13.65
1/17/2021 5:15:00 PM 2.15 35.87 0.094 6.98 8.92 13.64
1/17/2021 5:30:00 PM 2.15 35.87 0.094 6.97 8.79 13.63
1/17/2021 5:45:00 PM 2.14 35.852 0.094 6.98 8.78 13.63
1/17/2021 6:00:00 PM 2.14 35.852 0.094 6.95 8.47 13.62
1/17/2021 6:15:00 PM 2.13 35.834 0.094 6.97 8.94 13.61
1/17/2021 6:30:00 PM 2.13 35.834 0.094 6.95 8.88 13.6
1/17/2021 6:45:00 PM 2.13 35.834 0.094 6.98 9.13 13.59
1/17/2021 7:00:00 PM 2.12 35.816 0.093 6.97 8.86 13.59
1/17/2021 7:15:00 PM 2.12 35.816 0.093 6.97 8.23 13.58
1/17/2021 7:30:00 PM 2.11 35.798 0.093 6.97 8.48 13.59
1/17/2021 7:45:00 PM 2.1 35.78 0.093 6.98 8.94 13.58
1/17/2021 8:00:00 PM 2.09 35.762 0.093 6.95 9.65 13.58
1/17/2021 8:15:00 PM 2.08 35.744 0.093 6.96 9.48 13.58
1/17/2021 8:30:00 PM 2.07 35.726 0.093 6.97 9.6 13.58
1/17/2021 8:45:00 PM 2.06 35.708 0.093 6.95 9.5 13.58
1/17/2021 9:00:00 PM 2.05 35.69 0.093 6.96 9.45 13.58
1/17/2021 9:15:00 PM 2.04 35.672 0.093 6.96 9 13.58
1/17/2021 9:30:00 PM 2.03 35.654 0.093 6.96 9.08 13.58
1/17/2021 9:45:00 PM 2.02 35.636 0.093 6.96 9.09 13.59
1/17/2021 10:00:00 PM 2.01 35.618 0.093 6.9 8.68 13.59
1/17/2021 10:15:00 PM 2 35.6 0.093 6.97 9.04 13.59
1/17/2021 10:30:00 PM 1.99 35.582 0.093 6.96 8.92 13.59
1/17/2021 10:45:00 PM 1.97 35.546 0.093 6.97 8.49 13.6
1/17/2021 11:00:00 PM 1.96 35.528 0.093 6.97 8.39 13.6
1/17/2021 11:15:00 PM 1.95 35.51 0.093 6.94 8.73 13.6
1/17/2021 11:30:00 PM 1.94 35.492 0.093 6.97 8.42 13.6
1/17/2021 11:45:00 PM 1.93 35.474 0.093 6.96 8.14 13.61
1/18/2021 12:00:00 AM 1.91 35.438 0.093 6.97 8.31 13.61
1/18/2021 12:15:00 AM 1.9 35.42 0.093 6.97 8.42 13.61
1/18/2021 12:30:00 AM 1.88 35.384 0.093 6.96 8.5 13.62
1/18/2021 12:45:00 AM 1.87 35.366 0.093 6.96 8.5 13.62
1/18/2021 1:00:00 AM 1.86 35.348 0.093 6.92 8.38 13.62
1/18/2021 1:15:00 AM 1.84 35.312 0.093 6.97 8.18 13.63
1/18/2021 1:30:00 AM 1.83 35.294 0.093 6.95 8.11 13.63
1/18/2021 1:45:00 AM 1.81 35.258 0.093 6.96 8.03 13.64
1/18/2021 2:00:00 AM 1.8 35.24 0.093 6.96 8.31 13.64
1/18/2021 2:15:00 AM 1.78 35.204 0.093 6.94 8.14 13.65
1/18/2021 2:30:00 AM 1.76 35.168 0.093 6.96 8.09 13.65
1/18/2021 2:45:00 AM 1.74 35.132 0.093 6.96 7.77 13.65
1/18/2021 3:00:00 AM 1.73 35.114 0.093 6.97 8.14 13.66
1/18/2021 3:15:00 AM 1.71 35.078 0.093 6.93 8.06 13.66
1/18/2021 3:30:00 AM 1.68 35.024 0.093 6.96 8 13.67
1/18/2021 3:45:00 AM 1.66 34.988 0.093 6.97 8.09 13.67
1/18/2021 4:00:00 AM 1.65 34.97 0.093 6.97 7.85 13.68
1/18/2021 4:15:00 AM 1.64 34.952 0.093 6.96 7.72 13.68
1/18/2021 4:30:00 AM 1.63 34.934 0.093 6.97 7.85 13.69
1/18/2021 4:45:00 AM 1.62 34.916 0.093 6.96 7.79 13.69
1/18/2021 5:00:00 AM 1.61 34.898 0.093 6.96 7.7 13.7
1/18/2021 5:15:00 AM 1.6 34.88 0.093 6.96 7.92 13.7
1/18/2021 5:30:00 AM 1.59 34.862 0.093 6.95 7.43 13.71
1/18/2021 5:45:00 AM 1.58 34.844 0.093 6.97 7.77 13.71
1/18/2021 6:00:00 AM 1.57 34.826 0.093 6.96 7.68 13.71
1/18/2021 6:15:00 AM 1.56 34.808 0.093 6.96 7.53 13.72
1/18/2021 6:30:00 AM 1.55 34.79 0.093 6.96 7.75 13.73
1/18/2021 6:45:00 AM 1.54 34.772 0.093 6.97 7.63 13.73
1/18/2021 7:00:00 AM 1.53 34.754 0.093 6.97 7.51 13.73
1/18/2021 7:15:00 AM 1.53 34.754 0.093 6.96 8.55 13.74
1/18/2021 7:30:00 AM 1.53 34.754 0.093 6.97 7.96 13.74
1/18/2021 7:45:00 AM 1.52 34.736 0.093 6.96 7.98 13.75
1/18/2021 8:00:00 AM 1.53 34.754 0.093 6.97 8.68 13.75
1/18/2021 8:15:00 AM 1.53 34.754 0.093 6.97 7.99 13.76
1/18/2021 8:30:00 AM 1.54 34.772 0.093 6.97 8.04 13.78
1/18/2021 8:45:00 AM 1.56 34.808 0.093 6.98 7.85 13.79
1/18/2021 9:00:00 AM 1.58 34.844 0.093 6.98 7.58 13.8
1/18/2021 9:15:00 AM 1.61 34.898 0.093 6.98 7.51 13.81
1/18/2021 9:30:00 AM 1.63 34.934 0.093 6.99 7.65 13.82
1/18/2021 9:45:00 AM 1.65 34.97 0.093 6.98 7.26 13.82
1/18/2021 10:00:00 AM 1.67 35.006 0.093 7 7.35 13.83
1/18/2021 10:15:00 AM 1.71 35.078 0.093 6.99 7.22 13.83
1/18/2021 10:30:00 AM 1.75 35.15 0.093 6.96 7.65 13.84
1/18/2021 10:45:00 AM 1.78 35.204 0.093 6.99 7.7 13.84
1/18/2021 11:00:00 AM 1.83 35.294 0.093 6.99 7.59 13.84
1/18/2021 11:15:00 AM 1.83 35.294 0.093 7 7.71 13.84
1/18/2021 11:30:00 AM 1.77 35.186 0.092 7 7.97 13.83
1/18/2021 11:45:00 AM 1.85 35.33 0.093 7.01 7.78 13.84
1/18/2021 12:00:00 PM 1.94 35.492 0.094 7 7.83 13.83
1/18/2021 12:15:00 PM 1.96 35.528 0.093 7.01 7.76 13.83
1/18/2021 12:30:00 PM 1.99 35.582 0.093 7 7.61 13.83
1/18/2021 12:45:00 PM 2.07 35.726 0.093 7.02 7.67 13.82
1/18/2021 1:00:00 PM 2.13 35.834 0.093 7.01 7.9 13.82
1/18/2021 1:15:00 PM 2.19 35.942 0.092 6.99 7.75 13.81
1/18/2021 1:30:00 PM 2.22 35.996 0.093 7.02 7.76 13.8
1/18/2021 1:45:00 PM 2.26 36.068 0.093 7.02 7.98 13.79
1/18/2021 2:00:00 PM 2.3 36.14 0.092 7.02 7.4 13.78
1/18/2021 2:15:00 PM 2.34 36.212 0.092 7.01 7.4 13.77
1/18/2021 2:30:00 PM 2.36 36.248 0.092 7 7.44 13.77
1/18/2021 2:45:00 PM 2.36 36.248 0.092 7.02 7.63 13.76
1/18/2021 3:00:00 PM 2.35 36.23 0.092 7 7.28 13.75
1/18/2021 3:15:00 PM 2.35 36.23 0.092 7 7.55 13.74
1/18/2021 3:30:00 PM 2.38 36.284 0.092 7.03 7.29 13.74
1/18/2021 3:45:00 PM 2.37 36.266 0.093 7.02 7.44 13.73
1/18/2021 4:00:00 PM 2.36 36.248 0.093 7.03 7.32 13.72
1/18/2021 4:15:00 PM 2.35 36.23 0.093 7.03 7.21 13.72
1/18/2021 4:30:00 PM 2.35 36.23 0.093 7.02 7.12 13.7
1/18/2021 4:45:00 PM 2.32 36.176 0.093 7.02 7.27 13.69
1/18/2021 5:00:00 PM 2.29 36.122 0.093 7.01 7.03 13.68
1/18/2021 5:15:00 PM 2.28 36.104 0.093 7.01 6.9 13.67
1/18/2021 5:30:00 PM 2.26 36.068 0.092 7.01 7.07 13.66
1/18/2021 5:45:00 PM 2.23 36.014 0.092 7.01 6.76 13.66
1/18/2021 6:00:00 PM 2.22 35.996 0.092 7 6.77 13.65
1/18/2021 6:15:00 PM 2.21 35.978 0.092 7 6.79 13.65
1/18/2021 6:30:00 PM 2.2 35.96 0.093 7.01 6.68 13.64
1/18/2021 6:45:00 PM 2.18 35.924 0.093 6.99 6.71 13.64
1/18/2021 7:00:00 PM 2.17 35.906 0.093 7 6.63 13.64
1/18/2021 7:15:00 PM 2.16 35.888 0.093 7 6.86 13.63
1/18/2021 7:30:00 PM 2.15 35.87 0.093 6.98 6.72 13.63
1/18/2021 7:45:00 PM 2.14 35.852 0.093 7 6.67 13.63
1/18/2021 8:00:00 PM 2.13 35.834 0.093 6.99 6.6 13.63
1/18/2021 8:15:00 PM 2.12 35.816 0.093 6.98 6.7 13.64
1/18/2021 8:30:00 PM 2.11 35.798 0.093 6.98 6.58 13.64
1/18/2021 8:45:00 PM 2.09 35.762 0.093 6.99 6.57 13.64
1/18/2021 9:00:00 PM 2 35.6 0.092 6.96 7.2 13.64
1/18/2021 9:15:00 PM 1.93 35.474 0.092 6.99 7.04 13.64
1/18/2021 9:30:00 PM 1.89 35.402 0.092 6.99 6.82 13.65
1/18/2021 9:45:00 PM 1.81 35.258 0.092 6.98 6.91 13.66
1/18/2021 10:00:00 PM 1.79 35.222 0.092 6.98 6.89 13.67
1/18/2021 10:15:00 PM 1.77 35.186 0.092 6.98 7.12 13.69
1/18/2021 10:30:00 PM 1.75 35.15 0.092 6.99 6.98 13.7
1/18/2021 10:45:00 PM 1.74 35.132 0.092 6.99 6.94 13.71
1/18/2021 11:00:00 PM 1.73 35.114 0.092 6.98 7.29 13.72
1/18/2021 11:15:00 PM 1.71 35.078 0.092 6.99 7.2 13.73
1/18/2021 11:30:00 PM 1.68 35.024 0.092 6.99 6.99 13.74
1/18/2021 11:45:00 PM 1.65 34.97 0.092 6.98 7.04 13.75
1/19/2021 12:00:00 AM 1.63 34.934 0.092 6.96 6.82 13.76
1/19/2021 12:15:00 AM 1.61 34.898 0.092 6.98 6.89 13.77
1/19/2021 12:30:00 AM 1.59 34.862 0.092 6.98 7.06 13.78
1/19/2021 12:45:00 AM 1.58 34.844 0.092 6.99 7 13.79
1/19/2021 1:00:00 AM 1.57 34.826 0.092 6.97 7.03 13.8
1/19/2021 1:15:00 AM 1.56 34.808 0.092 6.99 6.97 13.81
1/19/2021 1:30:00 AM 1.55 34.79 0.092 6.99 6.85 13.82
1/19/2021 1:45:00 AM 1.53 34.754 0.092 6.99 6.98 13.83
1/19/2021 2:00:00 AM 1.52 34.736 0.092 6.94 6.88 13.84
1/19/2021 2:15:00 AM 1.5 34.7 0.092 6.98 6.8 13.85
1/19/2021 2:30:00 AM 1.49 34.682 0.092 6.98 6.96 13.86
1/19/2021 2:45:00 AM 1.47 34.646 0.092 6.97 6.96 13.86
1/19/2021 3:00:00 AM 1.46 34.628 0.092 6.98 6.63 13.87
1/19/2021 3:15:00 AM 1.44 34.592 0.092 6.98 6.62 13.88
1/19/2021 3:30:00 AM 1.42 34.556 0.092 6.93 6.52 13.89
1/19/2021 3:45:00 AM 1.41 34.538 0.092 6.98 6.66 13.9
1/19/2021 4:00:00 AM 1.39 34.502 0.092 6.97 6.54 13.91
1/19/2021 4:15:00 AM 1.38 34.484 0.092 6.98 6.42 13.92
1/19/2021 4:30:00 AM 1.36 34.448 0.092 6.98 6.6 13.93
1/19/2021 4:45:00 AM 1.35 34.43 0.092 6.96 6.51 13.93
1/19/2021 5:00:00 AM 1.34 34.412 0.092 6.97 6.32 13.94
1/19/2021 5:15:00 AM 1.33 34.394 0.092 6.97 6.34 13.94
1/19/2021 5:30:00 AM 1.32 34.376 0.092 6.98 6.43 13.95
1/19/2021 5:45:00 AM 1.31 34.358 0.092 6.97 6.33 13.95
1/19/2021 6:00:00 AM 1.31 34.358 0.093 6.98 6.4 13.95
1/19/2021 6:15:00 AM 1.31 34.358 0.093 6.98 6.34 13.96
1/19/2021 6:30:00 AM 1.31 34.358 0.093 6.97 6.48 13.96
1/19/2021 6:45:00 AM 1.3 34.34 0.093 6.98 6.77 13.96
1/19/2021 7:00:00 AM 1.3 34.34 0.093 6.98 6.43 13.96
1/19/2021 7:15:00 AM 1.3 34.34 0.093 6.99 6.17 13.96
1/19/2021 7:30:00 AM 1.3 34.34 0.094 6.99 6.22 13.96
1/19/2021 7:45:00 AM 1.3 34.34 0.093 6.98 6.19 13.97
1/19/2021 8:00:00 AM 1.3 34.34 0.093 6.99 6.24 13.97
1/19/2021 8:15:00 AM 1.3 34.34 0.093 6.99 6.47 13.98
1/19/2021 8:30:00 AM 1.31 34.358 0.093 6.99 6.39 13.99
1/19/2021 8:45:00 AM 1.32 34.376 0.093 6.98 6.15 14
1/19/2021 9:00:00 AM 1.34 34.412 0.093 7 6.36 14.02
1/19/2021 9:15:00 AM 1.36 34.448 0.093 7 6.46 14.03
1/19/2021 9:30:00 AM 1.39 34.502 0.093 7 6.62 14.04
1/19/2021 9:45:00 AM 1.42 34.556 0.093 7.01 6.29 14.05
1/19/2021 10:00:00 AM 1.45 34.61 0.093 7.01 5.99 14.06
1/19/2021 10:15:00 AM 1.49 34.682 0.093 7.01 6.09 14.06
1/19/2021 10:30:00 AM 1.53 34.754 0.093 7.02 6.1 14.07
1/19/2021 10:45:00 AM 1.58 34.844 0.093 7.01 6.1 14.07
1/19/2021 11:00:00 AM 1.62 34.916 0.093 7.03 6.03 14.07
1/19/2021 11:15:00 AM 1.66 34.988 0.093 7.02 5.88 14.07
1/19/2021 11:30:00 AM 1.7 35.06 0.093 7.01 5.91 14.07
1/19/2021 11:45:00 AM 1.75 35.15 0.093 7.03 6.17 14.07
1/19/2021 12:00:00 PM 1.8 35.24 0.093 7.03 5.87 14.07
1/19/2021 12:15:00 PM 1.85 35.33 0.093 7.04 6.06 14.06
1/19/2021 12:30:00 PM 1.9 35.42 0.093 7.04 5.78 14.05
1/19/2021 12:45:00 PM 1.97 35.546 0.093 7.04 5.83 14.04
1/19/2021 1:00:00 PM 2.03 35.654 0.093 7.04 5.79 14.03
1/19/2021 1:15:00 PM 2.09 35.762 0.093 7.02 5.87 14.02
1/19/2021 1:30:00 PM 2.14 35.852 0.094 7.05 5.84 14.01
1/19/2021 1:45:00 PM 2.16 35.888 0.094 7.04 6 14
1/19/2021 2:00:00 PM 2.19 35.942 0.093 7.05 5.82 13.99
1/19/2021 2:15:00 PM 2.23 36.014 0.094 7.05 5.87 13.98
1/19/2021 2:30:00 PM 2.26 36.068 0.094 7.04 5.97 13.97
1/19/2021 2:45:00 PM 2.26 36.068 0.094 7.05 6.18 13.96
1/19/2021 3:00:00 PM 2.29 36.122 0.094 7.05 5.85 13.95
1/19/2021 3:15:00 PM 2.29 36.122 0.094 7.04 5.9 13.94
1/19/2021 3:30:00 PM 2.31 36.158 0.094 7.05 5.93 13.93
1/19/2021 3:45:00 PM 2.27 36.086 0.094 7.04 5.83 13.92
1/19/2021 4:00:00 PM 2.26 36.068 0.094 7.05 5.75 13.91
1/19/2021 4:15:00 PM 2.25 36.05 0.094 7.05 5.7 13.9
1/19/2021 4:30:00 PM 2.24 36.032 0.094 7.04 5.62 13.89
1/19/2021 4:45:00 PM 2.21 35.978 0.094 7.04 5.69 13.88
1/19/2021 5:00:00 PM 2.2 35.96 0.094 7.03 5.38 13.86
1/19/2021 5:15:00 PM 2.18 35.924 0.094 7.02 5.46 13.84
1/19/2021 5:30:00 PM 2.17 35.906 0.094 7.03 5.44 13.82
1/19/2021 5:45:00 PM 2.16 35.888 0.094 7.03 5.52 13.81
1/19/2021 6:00:00 PM 2.13 35.834 0.094 7.03 5.63 13.8
1/19/2021 6:15:00 PM 2.1 35.78 0.094 7.02 5.59 13.79
1/19/2021 6:30:00 PM 2.07 35.726 0.094 7.02 5.62 13.79
1/19/2021 6:45:00 PM 2.06 35.708 0.094 7.03 5.53 13.78
1/19/2021 7:00:00 PM 2.05 35.69 0.094 7.03 5.43 13.78
1/19/2021 7:15:00 PM 2.03 35.654 0.094 7.02 5.37 13.78
1/19/2021 7:30:00 PM 2.02 35.636 0.094 7.02 5.37 13.77
1/19/2021 7:45:00 PM 2.01 35.618 0.094 7.02 5.34 13.77
1/19/2021 8:00:00 PM 2 35.6 0.094 7.02 5.31 13.77
1/19/2021 8:15:00 PM 1.98 35.564 0.095 7.02 5.49 13.77
1/19/2021 8:30:00 PM 1.96 35.528 0.095 7.02 5.34 13.77
1/19/2021 8:45:00 PM 1.93 35.474 0.095 7.02 5.3 13.77
1/19/2021 9:00:00 PM 1.91 35.438 0.095 7.01 5.32 13.78
1/19/2021 9:15:00 PM 1.89 35.402 0.095 7.01 5.26 13.78
1/19/2021 9:30:00 PM 1.86 35.348 0.095 7.01 5.31 13.79
1/19/2021 9:45:00 PM 1.84 35.312 0.095 7 5.3 13.79
1/19/2021 10:00:00 PM 1.83 35.294 0.095 7.01 5.22 13.79
1/19/2021 10:15:00 PM 1.81 35.258 0.095 7.01 5.26 13.8
1/19/2021 10:30:00 PM 1.79 35.222 0.095 7 5.3 13.8
1/19/2021 10:45:00 PM 1.77 35.186 0.095 7 5.38 13.81
1/19/2021 11:00:00 PM 1.76 35.168 0.095 7.01 5.32 13.81
1/19/2021 11:15:00 PM 1.74 35.132 0.095 7 5.45 13.81
1/19/2021 11:30:00 PM 1.72 35.096 0.095 7.01 5.44 13.82
1/19/2021 11:45:00 PM 1.71 35.078 0.095 6.97 5.38 13.82
1/20/2021 12:00:00 AM 1.69 35.042 0.095 7 5.36 13.82
1/20/2021 12:15:00 AM 1.68 35.024 0.095 7 5.5 13.83
1/20/2021 12:30:00 AM 1.66 34.988 0.095 7.01 5.26 13.83
1/20/2021 12:45:00 AM 1.65 34.97 0.095 7 5.46 13.83
1/20/2021 1:00:00 AM 1.63 34.934 0.095 7.01 5.32 13.84
1/20/2021 1:15:00 AM 1.62 34.916 0.095 7 5.43 13.84
1/20/2021 1:30:00 AM 1.6 34.88 0.095 7 5.44 13.84
1/20/2021 1:45:00 AM 1.59 34.862 0.095 7 5.4 13.84
1/20/2021 2:00:00 AM 1.57 34.826 0.095 7 5.36 13.85
1/20/2021 2:15:00 AM 1.56 34.808 0.095 6.99 5.52 13.85
1/20/2021 2:30:00 AM 1.55 34.79 0.095 7 5.36 13.85
1/20/2021 2:45:00 AM 1.54 34.772 0.095 6.98 5.37 13.85
1/20/2021 3:00:00 AM 1.53 34.754 0.095 7 5.4 13.85
1/20/2021 3:15:00 AM 1.52 34.736 0.095 6.99 5.27 13.85
1/20/2021 3:30:00 AM 1.51 34.718 0.095 7 5.24 13.85
1/20/2021 3:45:00 AM 1.49 34.682 0.095 6.99 5.56 13.86
1/20/2021 4:00:00 AM 1.48 34.664 0.095 7 5.37 13.86
1/20/2021 4:15:00 AM 1.46 34.628 0.095 7 5.46 13.86
1/20/2021 4:30:00 AM 1.45 34.61 0.095 7 5.63 13.86
1/20/2021 4:45:00 AM 1.44 34.592 0.095 6.99 5.38 13.87
1/20/2021 5:00:00 AM 1.42 34.556 0.096 7 5.41 13.87
1/20/2021 5:15:00 AM 1.41 34.538 0.095 7 5.39 13.87
1/20/2021 5:30:00 AM 1.4 34.52 0.095 6.96 5.47 13.87
1/20/2021 5:45:00 AM 1.38 34.484 0.095 7 5.46 13.87
1/20/2021 6:00:00 AM 1.37 34.466 0.095 6.96 5.54 13.88
1/20/2021 6:15:00 AM 1.36 34.448 0.095 7 5.38 13.88
1/20/2021 6:30:00 AM 1.34 34.412 0.095 7 5.25 13.89
1/20/2021 6:45:00 AM 1.18 34.124 0.095 7 5.34 13.88
1/20/2021 7:00:00 AM 1.18 34.124 0.095 7 5.43 13.89
1/20/2021 7:15:00 AM 1.18 34.124 0.096 7.01 5.16 13.9
1/20/2021 7:30:00 AM 1.14 34.052 0.095 7 5.27 13.91
1/20/2021 7:45:00 AM 1.12 34.016 0.095 7.01 5.21 13.93
1/20/2021 8:00:00 AM 1.13 34.034 0.095 7.01 5.22 13.94
1/20/2021 8:15:00 AM 1.15 34.07 0.096 7.01 5.19 13.96
1/20/2021 8:30:00 AM 1.15 34.07 0.096 7.01 5.4 13.97
1/20/2021 8:45:00 AM 1.14 34.052 0.096 7.02 5.26 13.99
1/20/2021 9:00:00 AM 1.15 34.07 0.096 7.02 5.08 14.02
1/20/2021 9:15:00 AM 1.13 34.034 0.096 7.02 5.06 14.04
1/20/2021 9:30:00 AM 1.12 34.016 0.096 7.03 5.09 14.06
1/20/2021 9:45:00 AM 1.13 34.034 0.096 7.03 5.01 14.08
1/20/2021 10:00:00 AM 1.12 34.016 0.096 7.03 4.9 14.1
1/20/2021 10:15:00 AM 1.15 34.07 0.096 7.04 4.85 14.11
1/20/2021 10:30:00 AM 1.16 34.088 0.096 7.03 4.92 14.13
1/20/2021 10:45:00 AM 1.21 34.178 0.096 7.04 4.84 14.14
1/20/2021 11:00:00 AM 1.27 34.286 0.096 7.05 4.89 14.15
1/20/2021 11:15:00 AM 1.25 34.25 0.096 7.04 4.87 14.16
1/20/2021 11:30:00 AM 1.27 34.286 0.096 7.05 4.86 14.16
1/20/2021 11:45:00 AM 1.28 34.304 0.096 7.05 5.09 14.16
1/20/2021 12:00:00 PM 1.23 34.214 0.096 7.05 5.66 14.17
1/20/2021 12:15:00 PM 1.35 34.43 0.096 7.06 5.37 14.18
1/20/2021 12:30:00 PM 1.43 34.574 0.096 7.06 5.33 14.16
1/20/2021 12:45:00 PM 1.39 34.502 0.096 7.02 5.43 14.17
1/20/2021 1:00:00 PM 1.48 34.664 0.096 7.04 5.36 14.17
1/20/2021 1:15:00 PM 1.6 34.88 0.097 7.07 5.46 14.16
1/20/2021 1:30:00 PM 1.54 34.772 0.097 7.07 5.38 14.17
1/20/2021 1:45:00 PM 1.51 34.718 0.097 7.07 5.56 14.18
1/20/2021 2:00:00 PM 1.6 34.88 0.096 7.06 5.77 14.18
1/20/2021 2:15:00 PM 1.55 34.79 0.096 7.08 5.47 14.19
1/20/2021 2:30:00 PM 1.5 34.7 0.096 7.05 5.57 14.2
1/20/2021 2:45:00 PM 1.48 34.664 0.096 7.07 5.65 14.21
1/20/2021 3:00:00 PM 1.44 34.592 0.096 7.07 5.59 14.21
1/20/2021 3:15:00 PM 1.41 34.538 0.096 7.07 5.25 14.22
1/20/2021 3:30:00 PM 1.44 34.592 0.096 7.07 5.54 14.22
1/20/2021 3:45:00 PM 1.43 34.574 0.096 7.07 5.2 14.22
1/20/2021 4:00:00 PM 1.4 34.52 0.096 7.06 5.76 14.22
1/20/2021 4:15:00 PM 1.37 34.466 0.096 7.07 5.31 14.22
1/20/2021 4:30:00 PM 1.33 34.394 0.096 7.07 5.39 14.21
1/20/2021 4:45:00 PM 1.29 34.322 0.096 7.06 5.1 14.21
1/20/2021 5:00:00 PM 1.26 34.268 0.096 7.06 5.07 14.2
1/20/2021 5:15:00 PM 1.21 34.178 0.096 7.04 5.14 14.18
1/20/2021 5:30:00 PM 1.17 34.106 0.096 7.05 5.04 14.17
1/20/2021 5:45:00 PM 1.14 34.052 0.096 7.05 5.06 14.16
1/20/2021 6:00:00 PM 1.11 33.998 0.096 7.03 4.98 14.15
1/20/2021 6:15:00 PM 1.09 33.962 0.096 7.04 5.08 14.15
1/20/2021 6:30:00 PM 1.05 33.89 0.096 7.05 4.87 14.15
1/20/2021 6:45:00 PM 1.02 33.836 0.096 7.03 4.75 14.15
1/20/2021 7:00:00 PM 1 33.8 0.096 7.04 4.62 14.15
1/20/2021 7:15:00 PM 0.98 33.764 0.096 7.04 4.68 14.15
1/20/2021 7:30:00 PM 0.95 33.71 0.096 7.04 4.76 14.15
1/20/2021 7:45:00 PM 0.93 33.674 0.096 7.03 4.68 14.15
1/20/2021 8:00:00 PM 0.9 33.62 0.096 7.02 4.64 14.16
1/20/2021 8:15:00 PM 0.86 33.548 0.096 7.03 4.64 14.16
1/20/2021 8:30:00 PM 0.84 33.512 0.096 7.02 4.62 14.16
1/20/2021 8:45:00 PM 0.81 33.458 0.096 7.03 4.59 14.17
1/20/2021 9:00:00 PM 0.78 33.404 0.096 6.96 4.69 14.18
1/20/2021 9:15:00 PM 0.75 33.35 0.096 7.02 4.74 14.18
1/20/2021 9:30:00 PM 0.72 33.296 0.096 7 4.71 14.19
1/20/2021 9:45:00 PM 0.7 33.26 0.096 7.01 4.68 14.19
1/20/2021 10:00:00 PM 0.68 33.224 0.096 7.02 4.64 14.2
1/20/2021 10:15:00 PM 0.66 33.188 0.096 7.01 4.81 14.21
1/20/2021 10:30:00 PM 0.64 33.152 0.096 7.02 4.76 14.21
1/20/2021 10:45:00 PM 0.62 33.116 0.096 7.02 4.78 14.21
1/20/2021 11:00:00 PM 0.61 33.098 0.096 7.01 4.86 14.22
1/20/2021 11:15:00 PM 0.58 33.044 0.096 7.02 4.8 14.22
1/20/2021 11:30:00 PM 0.56 33.008 0.096 7.01 4.67 14.23
1/20/2021 11:45:00 PM 0.53 32.954 0.096 7.01 4.58 14.23
1/21/2021 12:00:00 AM 0.49 32.882 0.096 7.01 4.67 14.24
1/21/2021 12:15:00 AM 0.46 32.828 0.096 7.01 4.65 14.24
1/21/2021 12:30:00 AM 0.43 32.774 0.096 7.01 4.68 14.25
1/21/2021 12:45:00 AM 0.39 32.702 0.096 7.01 4.67 14.26
1/21/2021 1:00:00 AM 0.34 32.612 0.097 7.02 4.56 14.26
1/21/2021 1:15:00 AM 0.3 32.54 0.097 7.02 4.64 14.27
1/21/2021 1:30:00 AM 0.25 32.45 0.097 7.01 4.62 14.28
1/21/2021 1:45:00 AM 0.2 32.36 0.097 7.01 4.62 14.29
1/21/2021 2:00:00 AM 0.15 32.27 0.097 7.01 4.64 14.3
1/21/2021 2:15:00 AM 0.11 32.198 0.097 7.01 4.67 14.31
1/21/2021 2:30:00 AM 0.07 32.126 0.097 7.01 4.61 14.32
1/21/2021 2:45:00 AM 0.04 32.072 0.097 7.01 4.64 14.33
1/21/2021 3:00:00 AM 0 32 0.097 7 4.51 14.34
1/21/2021 3:15:00 AM -0.03 31.946 0.097 7.01 4.61 14.34
1/21/2021 3:30:00 AM -0.06 31.892 0.097 7.01 4.55 14.35
1/21/2021 3:45:00 AM -0.09 31.838 0.097 7 4.52 14.36
1/21/2021 4:00:00 AM -0.09 31.838 0.097 6.98 5.06 14.37
1/21/2021 4:15:00 AM -0.07 31.874 0.097 7.02 5.25 14.37
1/21/2021 4:30:00 AM -0.07 31.874 0.096 7.02 4.85 14.37
1/21/2021 4:45:00 AM -0.07 31.874 0.096 7.01 5.54 14.37
1/21/2021 5:00:00 AM -0.06 31.892 0.096 7 5.55 14.37
1/21/2021 5:15:00 AM -0.06 31.892 0.096 6.98 5.68 14.37
1/21/2021 5:30:00 AM -0.06 31.892 0.096 7 5.69 14.37
1/21/2021 5:45:00 AM -0.06 31.892 0.096 7 5.73 14.36
1/21/2021 6:00:00 AM -0.06 31.892 0.098 6.97 5.32 14.35
1/21/2021 6:15:00 AM -0.06 31.892 0.098 6.96 5.55 14.34
1/21/2021 6:30:00 AM -0.06 31.892 0.098 7.01 5.4 14.33
1/21/2021 6:45:00 AM -0.06 31.892 0.099 7.01 5.41 14.32
1/21/2021 7:00:00 AM -0.06 31.892 0.1 7.01 5.22 14.31
1/21/2021 7:15:00 AM -0.06 31.892 0.101 7 5.31 14.3
1/21/2021 7:30:00 AM -0.06 31.892 0.101 6.96 5.48 14.29
1/21/2021 7:45:00 AM -0.06 31.892 0.101 7.01 5.43 14.28
1/21/2021 8:00:00 AM -0.06 31.892 0.102 7.01 5.52 14.27
1/21/2021 8:15:00 AM -0.05 31.91 0.102 7.01 5.72 14.27
1/21/2021 8:30:00 AM -0.05 31.91 0.103 7.01 5.68 14.28
1/21/2021 8:45:00 AM -0.02 31.964 0.104 7 4.72 14.3
1/21/2021 9:00:00 AM 0.02 32.036 0.105 7.01 4.66 14.3
1/21/2021 9:15:00 AM 0.05 32.09 0.105 7.02 4.72 14.31
1/21/2021 9:30:00 AM 0.08 32.144 0.105 7.02 4.62 14.32
1/21/2021 9:45:00 AM 0.1 32.18 0.105 7.02 4.77 14.33
1/21/2021 10:00:00 AM 0.13 32.234 0.104 7.02 4.6 14.34
1/21/2021 10:15:00 AM 0.16 32.288 0.104 6.99 4.65 14.35
1/21/2021 10:30:00 AM 0.19 32.342 0.104 7.02 4.49 14.36
1/21/2021 10:45:00 AM 0.23 32.414 0.104 7.02 4.63 14.36
1/21/2021 11:00:00 AM 0.28 32.504 0.104 7.02 4.49 14.37
1/21/2021 11:15:00 AM 0.32 32.576 0.104 7.03 4.53 14.37
1/21/2021 11:30:00 AM 0.33 32.594 0.103 7.03 4.59 14.37
1/21/2021 11:45:00 AM 0.35 32.63 0.103 7.03 4.68 14.38
1/21/2021 12:00:00 PM 0.38 32.684 0.102 7.02 4.8 14.39
1/21/2021 12:15:00 PM 0.41 32.738 0.102 7.03 4.83 14.39
1/21/2021 12:30:00 PM 0.44 32.792 0.102 7.03 4.81 14.4
1/21/2021 12:45:00 PM 0.47 32.846 0.102 7.04 4.76 14.4
1/21/2021 1:00:00 PM 0.5 32.9 0.103 7.02 4.75 14.4
1/21/2021 1:15:00 PM 0.52 32.936 0.103 7.04 4.89 14.4
1/21/2021 1:30:00 PM 0.53 32.954 0.103 7.04 4.79 14.39
1/21/2021 1:45:00 PM 0.55 32.99 0.103 7.05 4.69 14.39
1/21/2021 2:00:00 PM 0.57 33.026 0.103 7.04 4.66 14.39
1/21/2021 2:15:00 PM 0.6 33.08 0.103 7.05 4.84 14.38
1/21/2021 2:30:00 PM 0.63 33.134 0.102 7.05 4.95 14.38
1/21/2021 2:45:00 PM 0.66 33.188 0.102 7.06 5.08 14.37
1/21/2021 3:00:00 PM 0.72 33.296 0.101 7.06 5.06 14.36
1/21/2021 3:15:00 PM 0.76 33.368 0.1 7.06 5.12 14.35
1/21/2021 3:30:00 PM 0.78 33.404 0.099 7.06 5.18 14.35
1/21/2021 3:45:00 PM 0.82 33.476 0.099 7.07 5.23 14.34
1/21/2021 4:00:00 PM 0.81 33.458 0.098 7.06 5.15 14.33
1/21/2021 4:15:00 PM 0.8 33.44 0.098 7.07 5.29 14.33
1/21/2021 4:30:00 PM 0.79 33.422 0.097 7.06 5.12 14.31
1/21/2021 4:45:00 PM 0.77 33.386 0.097 7.07 5.29 14.3
1/21/2021 5:00:00 PM 0.77 33.386 0.097 7.07 5.12 14.28
1/21/2021 5:15:00 PM 0.76 33.368 0.097 7.05 5.27 14.25
1/21/2021 5:30:00 PM 0.77 33.386 0.096 7.05 5.18 14.23
1/21/2021 5:45:00 PM 0.77 33.386 0.096 7.05 5.03 14.21
1/21/2021 6:00:00 PM 0.77 33.386 0.096 7.04 5.13 14.19
1/21/2021 6:15:00 PM 0.78 33.404 0.095 7.03 5 14.16
1/21/2021 6:30:00 PM 0.8 33.44 0.095 7.04 5.04 14.14
1/21/2021 6:45:00 PM 0.81 33.458 0.095 7.04 5 14.12
1/21/2021 7:00:00 PM 0.83 33.494 0.095 7.04 5.11 14.11
1/21/2021 7:15:00 PM 0.85 33.53 0.095 7.04 5.14 14.09
1/21/2021 7:30:00 PM 0.87 33.566 0.095 7.04 5.11 14.07
1/21/2021 7:45:00 PM 0.89 33.602 0.095 7.04 5.05 14.05
1/21/2021 8:00:00 PM 0.9 33.62 0.095 7.03 5.15 14.04
1/21/2021 8:15:00 PM 0.91 33.638 0.095 7.03 5.2 14.03
1/21/2021 8:30:00 PM 0.92 33.656 0.095 7.03 5.2 14.02
1/21/2021 8:45:00 PM 0.93 33.674 0.095 7.03 5.29 14.01
1/21/2021 9:00:00 PM 0.94 33.692 0.095 7.01 5.23 14
1/21/2021 9:15:00 PM 0.94 33.692 0.096 7.01 5.25 13.99
1/21/2021 9:30:00 PM 0.94 33.692 0.096 7.02 5.36 13.98
1/21/2021 9:45:00 PM 0.94 33.692 0.096 7.01 5.31 13.98
1/21/2021 10:00:00 PM 0.95 33.71 0.096 7.02 5.27 13.98
1/21/2021 10:15:00 PM 0.95 33.71 0.096 7.02 5.27 13.97
1/21/2021 10:30:00 PM 0.95 33.71 0.096 7 5.22 13.97
1/21/2021 10:45:00 PM 0.95 33.71 0.096 7.02 5.19 13.97
1/21/2021 11:00:00 PM 0.94 33.692 0.096 7.02 5.26 13.96
1/21/2021 11:15:00 PM 0.91 33.638 0.096 7.02 5.49 13.96
1/21/2021 11:30:00 PM 0.87 33.566 0.096 7.01 5.36 13.96
1/21/2021 11:45:00 PM 0.88 33.584 0.095 6.98 5.31 13.96
1/22/2021 12:00:00 AM 0.86 33.548 0.095 7 5.27 13.97
1/22/2021 12:15:00 AM 0.84 33.512 0.095 7.01 5.34 13.97
1/22/2021 12:30:00 AM 0.82 33.476 0.095 7 5.34 13.98
1/22/2021 12:45:00 AM 0.81 33.458 0.095 7.02 5.35 13.98
1/22/2021 1:00:00 AM 0.79 33.422 0.095 7.01 5.42 13.98
1/22/2021 1:15:00 AM 0.78 33.404 0.095 6.99 5.4 13.99
1/22/2021 1:30:00 AM 0.77 33.386 0.096 6.99 5.38 13.99
1/22/2021 1:45:00 AM 0.76 33.368 0.095 7.01 5.44 13.99
1/22/2021 2:00:00 AM 0.75 33.35 0.096 7 5.32 13.99
1/22/2021 2:15:00 AM 0.76 33.368 0.096 7 5.43 14
1/22/2021 2:30:00 AM 0.76 33.368 0.096 6.97 5.33 14
1/22/2021 2:45:00 AM 0.75 33.35 0.096 7 5.27 14
1/22/2021 3:00:00 AM 0.76 33.368 0.096 6.99 5.31 14
1/22/2021 3:15:00 AM 0.76 33.368 0.096 7 5.25 14
1/22/2021 3:30:00 AM 0.76 33.368 0.096 7 5.19 14.01
1/22/2021 3:45:00 AM 0.75 33.35 0.095 7.01 5.27 14.01
1/22/2021 4:00:00 AM 0.75 33.35 0.096 7 5.24 14.01
1/22/2021 4:15:00 AM 0.75 33.35 0.096 7.01 5.2 14.01
1/22/2021 4:30:00 AM 0.75 33.35 0.096 6.99 5.25 14.02
1/22/2021 4:45:00 AM 0.75 33.35 0.095 7.01 5.01 14.02
1/22/2021 5:00:00 AM 0.75 33.35 0.095 6.98 5.01 14.02
1/22/2021 5:15:00 AM 0.75 33.35 0.095 7 5.12 14.02
1/22/2021 5:30:00 AM 0.75 33.35 0.095 7.01 5.09 14.01
1/22/2021 5:45:00 AM 0.75 33.35 0.095 7.01 5.06 14.02
1/22/2021 6:00:00 AM 0.74 33.332 0.096 6.99 4.9 14.02
1/22/2021 6:15:00 AM 0.75 33.35 0.096 6.99 4.93 14.02
1/22/2021 6:30:00 AM 0.75 33.35 0.095 6.99 4.95 14.02
1/22/2021 6:45:00 AM 0.75 33.35 0.095 7.01 4.98 14.02
1/22/2021 7:00:00 AM 0.74 33.332 0.095 7 4.95 14.02
1/22/2021 7:15:00 AM 0.73 33.314 0.095 7.01 4.9 14.02
1/22/2021 7:30:00 AM 0.71 33.278 0.095 7.01 4.89 14.03
1/22/2021 7:45:00 AM 0.71 33.278 0.095 6.98 4.93 14.04
1/22/2021 8:00:00 AM 0.71 33.278 0.095 7.01 4.83 14.05
1/22/2021 8:15:00 AM 0.71 33.278 0.095 7.02 4.95 14.07
1/22/2021 8:30:00 AM 0.72 33.296 0.095 7.03 4.84 14.08
1/22/2021 8:45:00 AM 0.74 33.332 0.095 7.02 4.88 14.1
1/22/2021 9:00:00 AM 0.77 33.386 0.095 7.02 4.84 14.11
1/22/2021 9:15:00 AM 0.79 33.422 0.095 7.03 4.69 14.13
1/22/2021 9:30:00 AM 0.82 33.476 0.095 7 4.8 14.15
1/22/2021 9:45:00 AM 0.84 33.512 0.095 7.03 4.77 14.16
1/22/2021 10:00:00 AM 0.89 33.602 0.095 7.04 4.65 14.17
1/22/2021 10:15:00 AM 0.93 33.674 0.095 7.04 4.73 14.18
1/22/2021 10:30:00 AM 0.97 33.746 0.095 7.05 4.65 14.18
1/22/2021 10:45:00 AM 1.02 33.836 0.095 7.05 4.77 14.19
1/22/2021 11:00:00 AM 1.08 33.944 0.095 7.06 4.69 14.19
1/22/2021 11:15:00 AM 1.11 33.998 0.095 7.06 4.53 14.19
1/22/2021 11:30:00 AM 1.15 34.07 0.095 7.06 4.49 14.19
1/22/2021 11:45:00 AM 1.19 34.142 0.095 7.06 4.58 14.19
1/22/2021 12:00:00 PM 1.23 34.214 0.095 7.05 4.53 14.19
1/22/2021 12:15:00 PM 1.29 34.322 0.095 7.04 4.53 14.19
1/22/2021 12:30:00 PM 1.37 34.466 0.095 7.08 4.63 14.18
1/22/2021 12:45:00 PM 1.4 34.52 0.095 7.08 4.49 14.18
1/22/2021 1:00:00 PM 1.45 34.61 0.094 7.07 4.47 14.17
1/22/2021 1:15:00 PM 1.51 34.718 0.094 7.09 4.46 14.17
1/22/2021 1:30:00 PM 1.57 34.826 0.094 7.07 4.67 14.16
1/22/2021 1:45:00 PM 1.63 34.934 0.095 7.07 4.58 14.15
1/22/2021 2:00:00 PM 1.53 34.754 0.094 7.07 4.82 14.13
1/22/2021 2:15:00 PM 1.57 34.826 0.094 7.08 4.61 14.13
1/22/2021 2:30:00 PM 1.61 34.898 0.094 7.08 4.69 14.12
1/22/2021 2:45:00 PM 1.61 34.898 0.095 7.08 4.45 14.12
1/22/2021 3:00:00 PM 1.55 34.79 0.095 7.09 4.68 14.1
1/22/2021 3:15:00 PM 1.55 34.79 0.095 7.08 4.6 14.11
1/22/2021 3:30:00 PM 1.58 34.844 0.095 7.08 4.52 14.1
1/22/2021 3:45:00 PM 1.59 34.862 0.095 7.08 4.61 14.1
1/22/2021 4:00:00 PM 1.56 34.808 0.095 7.07 4.57 14.08
1/22/2021 4:15:00 PM 1.51 34.718 0.095 7.07 4.59 14.07
1/22/2021 4:30:00 PM 1.53 34.754 0.095 7.07 4.49 14.06
1/22/2021 4:45:00 PM 1.51 34.718 0.095 7.07 4.5 14.05
1/22/2021 5:00:00 PM 1.48 34.664 0.095 7.05 4.59 14.03
1/22/2021 5:15:00 PM 1.45 34.61 0.095 7.07 4.5 14.02
1/22/2021 5:30:00 PM 1.44 34.592 0.095 7.07 4.46 14.01
1/22/2021 5:45:00 PM 1.43 34.574 0.095 7.04 4.48 14
1/22/2021 6:00:00 PM 1.41 34.538 0.095 7.02 4.44 13.99
1/22/2021 6:15:00 PM 1.4 34.52 0.095 7.05 4.4 13.98
1/22/2021 6:30:00 PM 1.38 34.484 0.095 7.04 4.49 13.97
1/22/2021 6:45:00 PM 1.37 34.466 0.095 7.04 4.42 13.97
1/22/2021 7:00:00 PM 1.35 34.43 0.095 7.05 4.42 13.96
1/22/2021 7:15:00 PM 1.33 34.394 0.095 7.02 4.37 13.96
1/22/2021 7:30:00 PM 1.32 34.376 0.095 7.05 4.4 13.95
1/22/2021 7:45:00 PM 1.29 34.322 0.095 7.04 4.51 13.95
1/22/2021 8:00:00 PM 1.27 34.286 0.095 7.04 4.52 13.95
1/22/2021 8:15:00 PM 1.24 34.232 0.095 7.04 4.53 13.96
1/22/2021 8:30:00 PM 1.21 34.178 0.095 7.02 4.5 13.96
1/22/2021 8:45:00 PM 1.18 34.124 0.095 7.02 4.47 13.97
1/22/2021 9:00:00 PM 1.15 34.07 0.095 7.04 4.38 13.97
1/22/2021 9:15:00 PM 1.1 33.98 0.095 7.03 4.48 13.98
1/22/2021 9:30:00 PM 1.07 33.926 0.095 7.02 4.42 13.99
1/22/2021 9:45:00 PM 1.04 33.872 0.095 7.03 4.33 14
1/22/2021 10:00:00 PM 1.01 33.818 0.095 7.03 4.36 14.01
1/22/2021 10:15:00 PM 0.97 33.746 0.095 7.02 4.57 14.02
1/22/2021 10:30:00 PM 0.91 33.638 0.095 6.99 4.48 14.04
1/22/2021 10:45:00 PM 0.89 33.602 0.095 7.04 4.47 14.05
1/22/2021 11:00:00 PM 0.85 33.53 0.095 6.98 4.44 14.06
1/22/2021 11:15:00 PM 0.81 33.458 0.095 7 4.36 14.07
1/22/2021 11:30:00 PM 0.78 33.404 0.095 7.01 4.51 14.08
1/22/2021 11:45:00 PM 0.74 33.332 0.095 7.03 4.46 14.1
1/23/2021 12:00:00 AM 0.7 33.26 0.095 7.02 4.53 14.11
1/23/2021 12:15:00 AM 0.66 33.188 0.095 7.02 4.47 14.12
1/23/2021 12:30:00 AM 0.61 33.098 0.095 7.01 4.4 14.13
1/23/2021 12:45:00 AM 0.57 33.026 0.095 7.03 4.38 14.15
1/23/2021 1:00:00 AM 0.53 32.954 0.095 7.02 4.53 14.16
1/23/2021 1:15:00 AM 0.49 32.882 0.095 7.01 4.46 14.17
1/23/2021 1:30:00 AM 0.45 32.81 0.095 7.01 4.41 14.19
1/23/2021 1:45:00 AM 0.43 32.774 0.095 7.02 4.59 14.2
1/23/2021 2:00:00 AM 0.4 32.72 0.095 7.02 4.48 14.21
1/23/2021 2:15:00 AM 0.37 32.666 0.095 7 4.59 14.22
1/23/2021 2:30:00 AM 0.35 32.63 0.095 7.01 4.52 14.23
1/23/2021 2:45:00 AM 0.32 32.576 0.095 7.02 4.51 14.25
1/23/2021 3:00:00 AM 0.29 32.522 0.095 6.96 4.55 14.26
1/23/2021 3:15:00 AM 0.26 32.468 0.095 7 4.53 14.27
1/23/2021 3:30:00 AM 0.23 32.414 0.095 7.02 4.43 14.29
1/23/2021 3:45:00 AM 0.2 32.36 0.095 6.95 4.55 14.3
1/23/2021 4:00:00 AM 0.16 32.288 0.095 7 4.74 14.31
1/23/2021 4:15:00 AM 0.13 32.234 0.095 7.01 4.64 14.32
1/23/2021 4:30:00 AM 0.11 32.198 0.096 7.01 4.68 14.33
1/23/2021 4:45:00 AM 0.07 32.126 0.096 7.01 4.74 14.34
1/23/2021 5:00:00 AM 0.03 32.054 0.096 6.99 4.79 14.35
1/23/2021 5:15:00 AM 0 32 0.096 6.99 4.9 14.36
1/23/2021 5:30:00 AM -0.01 31.982 0.096 7.01 5.05 14.37
1/23/2021 5:45:00 AM -0.03 31.946 0.096 7 5.04 14.38
1/23/2021 6:00:00 AM -0.05 31.91 0.096 6.98 4.87 14.38
1/23/2021 6:15:00 AM -0.06 31.892 0.096 7 4.69 14.39
1/23/2021 6:30:00 AM -0.06 31.892 0.096 7.01 4.69 14.4
1/23/2021 6:45:00 AM -0.06 31.892 0.097 6.99 4.71 14.4
1/23/2021 7:00:00 AM -0.07 31.874 0.097 7.01 4.52 14.4
1/23/2021 7:15:00 AM -0.07 31.874 0.097 6.96 4.46 14.41
1/23/2021 7:30:00 AM -0.06 31.892 0.097 7 4.6 14.42
1/23/2021 7:45:00 AM -0.06 31.892 0.097 7 4.84 14.43
1/23/2021 8:00:00 AM -0.06 31.892 0.097 7.02 4.82 14.45
1/23/2021 8:15:00 AM -0.06 31.892 0.097 7.01 5.03 14.47
1/23/2021 8:30:00 AM -0.06 31.892 0.097 7.02 4.69 14.49
1/23/2021 8:45:00 AM -0.06 31.892 0.098 7.03 4.93 14.5
1/23/2021 9:00:00 AM -0.06 31.892 0.098 7.02 4.71 14.52
1/23/2021 9:15:00 AM -0.06 31.892 0.098 7.03 4.71 14.54
1/23/2021 9:30:00 AM -0.05 31.91 0.098 7.04 4.66 14.56
1/23/2021 9:45:00 AM -0.05 31.91 0.098 7.04 4.68 14.58
1/23/2021 10:00:00 AM -0.03 31.946 0.098 7.03 4.9 14.6
1/23/2021 10:15:00 AM 0 32 0.098 7.05 4.72 14.62
1/23/2021 10:30:00 AM 0.03 32.054 0.099 7.02 4.51 14.63
1/23/2021 10:45:00 AM 0.08 32.144 0.099 7.05 4.23 14.64
1/23/2021 11:00:00 AM 0.11 32.198 0.099 7.02 4.22 14.64
1/23/2021 11:15:00 AM 0.11 32.198 0.099 7.05 4.37 14.65
1/23/2021 11:30:00 AM 0.13 32.234 0.099 7.05 4.18 14.66
1/23/2021 11:45:00 AM 0.27 32.486 0.099 7.05 4.19 14.66
1/23/2021 12:00:00 PM 0.39 32.702 0.099 7.05 4.23 14.66
1/23/2021 12:15:00 PM 0.38 32.684 0.099 7.06 4.13 14.66
1/23/2021 12:30:00 PM 0.41 32.738 0.1 7.06 4.2 14.66
1/23/2021 12:45:00 PM 0.48 32.864 0.1 7.05 4.24 14.66
1/23/2021 1:00:00 PM 0.53 32.954 0.1 7.07 4.29 14.66
1/23/2021 1:15:00 PM 0.59 33.062 0.1 7.07 4.4 14.66
1/23/2021 1:30:00 PM 0.61 33.098 0.099 7.07 4.35 14.66
1/23/2021 1:45:00 PM 0.6 33.08 0.099 7.05 4.34 14.67
1/23/2021 2:00:00 PM 0.59 33.062 0.099 7.06 4.28 14.67
1/23/2021 2:15:00 PM 0.57 33.026 0.099 7.06 4.3 14.67
1/23/2021 2:30:00 PM 0.56 33.008 0.099 7.05 4.3 14.67
1/23/2021 2:45:00 PM 0.57 33.026 0.099 7.06 4.24 14.67
1/23/2021 3:00:00 PM 0.56 33.008 0.099 7.07 4.23 14.67
1/23/2021 3:15:00 PM 0.51 32.918 0.098 7.07 4.13 14.68
1/23/2021 3:30:00 PM 0.48 32.864 0.098 7.08 4.15 14.69
1/23/2021 3:45:00 PM 0.46 32.828 0.098 7.07 4.21 14.7
1/23/2021 4:00:00 PM 0.46 32.828 0.097 7.07 4.05 14.7
1/23/2021 4:15:00 PM 0.44 32.792 0.097 7.08 4.1 14.7
1/23/2021 4:30:00 PM 0.4 32.72 0.097 7.06 4 14.7
1/23/2021 4:45:00 PM 0.35 32.63 0.097 7.08 4.02 14.69
1/23/2021 5:00:00 PM 0.3 32.54 0.097 7.04 3.94 14.68
1/23/2021 5:15:00 PM 0.26 32.468 0.096 7.06 4 14.67
1/23/2021 5:30:00 PM 0.22 32.396 0.096 7.01 3.99 14.66
1/23/2021 5:45:00 PM 0.19 32.342 0.096 7.06 3.99 14.65
1/23/2021 6:00:00 PM 0.16 32.288 0.096 7.05 4.05 14.64
1/23/2021 6:15:00 PM 0.12 32.216 0.096 7.05 3.95 14.63
1/23/2021 6:30:00 PM 0.09 32.162 0.096 7.05 3.94 14.62
1/23/2021 6:45:00 PM 0.07 32.126 0.096 7.05 3.97 14.62
1/23/2021 7:00:00 PM 0.04 32.072 0.096 7.05 3.95 14.62
1/23/2021 7:15:00 PM 0.02 32.036 0.096 7.06 4 14.61
1/23/2021 7:30:00 PM -0.01 31.982 0.096 7.04 4 14.61
1/23/2021 7:45:00 PM -0.02 31.964 0.096 7.05 3.95 14.61
1/23/2021 8:00:00 PM -0.03 31.946 0.096 7.01 3.95 14.61
1/23/2021 8:15:00 PM -0.05 31.91 0.096 7.04 4 14.6
1/23/2021 8:30:00 PM -0.06 31.892 0.096 7.02 3.95 14.6
1/23/2021 8:45:00 PM -0.08 31.856 0.096 7.02 3.96 14.6
1/23/2021 9:00:00 PM -0.08 31.856 0.096 7.05 3.88 14.6
1/23/2021 9:15:00 PM -0.08 31.856 0.096 7.03 4.21 14.6
1/23/2021 9:30:00 PM -0.07 31.874 0.096 7.05 4.14 14.6
1/23/2021 9:45:00 PM -0.07 31.874 0.096 7.01 4.44 14.6
1/23/2021 10:00:00 PM -0.06 31.892 0.096 7.05 4.59 14.6
1/23/2021 10:15:00 PM -0.06 31.892 0.096 7.05 4.25 14.59
1/23/2021 10:30:00 PM -0.06 31.892 0.097 7.04 4.55 14.59
1/23/2021 10:45:00 PM -0.06 31.892 0.097 7.04 4.26 14.59
1/23/2021 11:00:00 PM -0.06 31.892 0.097 7.05 4.41 14.58
1/23/2021 11:15:00 PM -0.06 31.892 0.097 7.03 4.39 14.58
1/23/2021 11:30:00 PM -0.06 31.892 0.097 7.04 4.59 14.58
1/23/2021 11:45:00 PM -0.06 31.892 0.097 7.02 4.31 14.58
1/24/2021 12:00:00 AM -0.06 31.892 0.098 7.04 4.32 14.57
1/24/2021 12:15:00 AM -0.06 31.892 0.098 7.04 4.21 14.57
1/24/2021 12:30:00 AM -0.06 31.892 0.098 7.04 4.31 14.56
1/24/2021 12:45:00 AM -0.06 31.892 0.098 7.02 4.85 14.56
1/24/2021 1:00:00 AM -0.06 31.892 0.098 7.03 5.33 14.56
1/24/2021 1:15:00 AM -0.06 31.892 0.098 7.03 5.09 14.55
1/24/2021 1:30:00 AM -0.06 31.892 0.099 7.03 5.53 14.56
1/24/2021 1:45:00 AM -0.06 31.892 0.099 7.03 4.95 14.56
1/24/2021 2:00:00 AM -0.06 31.892 0.099 7.02 4.88 14.55
1/24/2021 2:15:00 AM -0.06 31.892 0.099 7.02 4.8 14.55
1/24/2021 2:30:00 AM -0.06 31.892 0.099 7.02 5.16 14.56
1/24/2021 2:45:00 AM -0.06 31.892 0.099 7.03 4.61 14.55
1/24/2021 3:00:00 AM -0.06 31.892 0.099 7.02 4.88 14.55
1/24/2021 3:15:00 AM -0.06 31.892 0.1 7.02 5.09 14.55
1/24/2021 3:30:00 AM -0.06 31.892 0.1 7.02 4.85 14.55
1/24/2021 3:45:00 AM -0.06 31.892 0.1 7.02 4.74 14.55
1/24/2021 4:00:00 AM -0.06 31.892 0.1 7.02 4.55 14.55
1/24/2021 4:15:00 AM -0.06 31.892 0.1 7.01 4.84 14.55
1/24/2021 4:30:00 AM -0.06 31.892 0.101 7.02 4.96 14.55
1/24/2021 4:45:00 AM -0.06 31.892 0.101 7.02 5 14.55
1/24/2021 5:00:00 AM -0.06 31.892 0.101 7.02 4.73 14.55
1/24/2021 5:15:00 AM -0.06 31.892 0.101 7.01 4.73 14.56
1/24/2021 5:30:00 AM -0.06 31.892 0.101 7 4.7 14.56
1/24/2021 5:45:00 AM -0.06 31.892 0.101 7.02 4.86 14.56
1/24/2021 6:00:00 AM -0.06 31.892 0.101 7.01 4.64 14.56
1/24/2021 6:15:00 AM -0.06 31.892 0.102 7 4.6 14.56
1/24/2021 6:30:00 AM -0.06 31.892 0.102 7 4.88 14.56
1/24/2021 6:45:00 AM -0.06 31.892 0.102 7.01 4.5 14.56
1/24/2021 7:00:00 AM -0.06 31.892 0.102 6.97 4.63 14.56
1/24/2021 7:15:00 AM -0.06 31.892 0.102 6.99 4.81 14.56
1/24/2021 7:30:00 AM -0.06 31.892 0.102 7.01 4.59 14.56
1/24/2021 7:45:00 AM -0.06 31.892 0.103 6.99 4.74 14.57
1/24/2021 8:00:00 AM -0.06 31.892 0.103 7.01 4.57 14.58
1/24/2021 8:15:00 AM -0.06 31.892 0.103 7.01 4.81 14.6
1/24/2021 8:30:00 AM -0.06 31.892 0.103 7.01 4.71 14.62
1/24/2021 8:45:00 AM -0.06 31.892 0.103 6.99 5.1 14.64
1/24/2021 9:00:00 AM -0.06 31.892 0.103 7.02 5.3 14.65
1/24/2021 9:15:00 AM -0.06 31.892 0.103 7.02 5.39 14.67
1/24/2021 9:30:00 AM -0.06 31.892 0.104 7.02 5.05 14.69
1/24/2021 9:45:00 AM -0.05 31.91 0.104 7.02 4.2 14.7
1/24/2021 10:00:00 AM -0.06 31.892 0.103 7.01 4.44 14.71
1/24/2021 10:15:00 AM -0.05 31.91 0.104 7.02 4.3 14.72
1/24/2021 10:30:00 AM -0.05 31.91 0.103 7.02 4.24 14.73
1/24/2021 10:45:00 AM -0.05 31.91 0.103 7.02 4.53 14.72
1/24/2021 11:00:00 AM -0.05 31.91 0.103 7.02 4.66 14.72
1/24/2021 11:15:00 AM -0.03 31.946 0.102 7.03 4.54 14.7
1/24/2021 11:30:00 AM 0.03 32.054 0.102 7.04 4.49 14.69
1/24/2021 11:45:00 AM 0.08 32.144 0.102 7.03 4.48 14.69
1/24/2021 12:00:00 PM 0.14 32.252 0.101 7.03 4.42 14.69
1/24/2021 12:15:00 PM 0.19 32.342 0.101 7 4.53 14.7
1/24/2021 12:30:00 PM 0.24 32.432 0.101 7.04 4.56 14.7
1/24/2021 12:45:00 PM 0.3 32.54 0.1 7.06 4.69 14.7
1/24/2021 1:00:00 PM 0.35 32.63 0.1 7 4.74 14.7
1/24/2021 1:15:00 PM 0.39 32.702 0.1 7.03 4.82 14.7
1/24/2021 1:30:00 PM 0.43 32.774 0.1 7.04 4.88 14.7
1/24/2021 1:45:00 PM 0.46 32.828 0.1 7.06 4.89 14.7
1/24/2021 2:00:00 PM 0.48 32.864 0.1 7.06 4.8 14.7
1/24/2021 2:15:00 PM 0.48 32.864 0.1 7.05 4.75 14.7
1/24/2021 2:30:00 PM 0.46 32.828 0.1 7.06 4.63 14.71
1/24/2021 2:45:00 PM 0.44 32.792 0.1 7.07 4.48 14.71
1/24/2021 3:00:00 PM 0.41 32.738 0.101 7.06 4.41 14.72
1/24/2021 3:15:00 PM 0.37 32.666 0.101 7.06 4.39 14.73
1/24/2021 3:30:00 PM 0.33 32.594 0.101 7.06 4.4 14.74
1/24/2021 3:45:00 PM 0.29 32.522 0.1 7.05 4.47 14.75
1/24/2021 4:00:00 PM 0.26 32.468 0.1 7.08 4.54 14.75
1/24/2021 4:15:00 PM 0.22 32.396 0.1 7.02 4.41 14.76
1/24/2021 4:30:00 PM 0.18 32.324 0.1 7.02 4.31 14.76
1/24/2021 4:45:00 PM 0.13 32.234 0.099 7.06 4.23 14.75
1/24/2021 5:00:00 PM 0.1 32.18 0.099 7.06 4.16 14.74
1/24/2021 5:15:00 PM 0.07 32.126 0.099 7.07 4.21 14.73
1/24/2021 5:30:00 PM 0.05 32.09 0.099 7.06 4.16 14.71
1/24/2021 5:45:00 PM 0.03 32.054 0.099 7.05 4.17 14.7
1/24/2021 6:00:00 PM 0.01 32.018 0.099 7.04 4.22 14.68
1/24/2021 6:15:00 PM 0 32 0.098 7.05 4.05 14.67
1/24/2021 6:30:00 PM -0.02 31.964 0.098 7.03 4.14 14.66
1/24/2021 6:45:00 PM -0.03 31.946 0.098 7.04 4.09 14.66
1/24/2021 7:00:00 PM -0.05 31.91 0.098 7.03 4.06 14.65
1/24/2021 7:15:00 PM -0.06 31.892 0.098 7.03 4.13 14.65
1/24/2021 7:30:00 PM -0.07 31.874 0.098 7.01 4.11 14.64
1/24/2021 7:45:00 PM -0.09 31.838 0.098 7.04 4.03 14.64
1/24/2021 8:00:00 PM -0.09 31.838 0.098 7.03 4.06 14.64
1/24/2021 8:15:00 PM -0.09 31.838 0.098 7.03 4.11 14.63
1/24/2021 8:30:00 PM -0.09 31.838 0.098 7.01 4.09 14.63
1/24/2021 8:45:00 PM -0.08 31.856 0.097 7.02 4.21 14.62
1/24/2021 9:00:00 PM -0.08 31.856 0.098 7.01 4.37 14.62
1/24/2021 9:15:00 PM -0.07 31.874 0.098 7.01 5.46 14.61
1/24/2021 9:30:00 PM -0.06 31.892 0.096 7.03 5.13 14.61
1/24/2021 9:45:00 PM -0.06 31.892 0.094 7.01 5.56 14.6
1/24/2021 10:00:00 PM -0.06 31.892 0.091 7.02 6.12 14.6
1/24/2021 10:15:00 PM -0.06 31.892 0.089 7.04 6.69 14.59
1/24/2021 10:30:00 PM -0.06 31.892 0.09 7.03 7.16 14.58
1/24/2021 10:45:00 PM -0.07 31.874 0.098 7.03 8.04 14.58
1/24/2021 11:00:00 PM -0.07 31.874 0.098 7 9.3 14.57
1/24/2021 11:15:00 PM -0.07 31.874 0.099 7.03 10.07 14.56
1/24/2021 11:30:00 PM -0.07 31.874 0.099 7.02 11.79 14.56
1/24/2021 11:45:00 PM -0.07 31.874 0.099 7.02 12.21 14.55
1/25/2021 12:00:00 AM -0.07 31.874 0.1 6.99 12.93 14.55
1/25/2021 12:15:00 AM -0.07 31.874 0.092 7.02 13.28 14.55
1/25/2021 12:30:00 AM -0.07 31.874 0.1 7.02 13.75 14.55
1/25/2021 12:45:00 AM -0.07 31.874 0.1 7.02 14.39 14.55
1/25/2021 1:00:00 AM -0.07 31.874 0.101 7.02 15.46 14.55
1/25/2021 1:15:00 AM -0.07 31.874 0.101 7.01 15.51 14.54
1/25/2021 1:30:00 AM -0.07 31.874 0.101 7.01 15.92 14.54
1/25/2021 1:45:00 AM -0.07 31.874 0.101 7.01 16.81 14.54
1/25/2021 2:00:00 AM -0.07 31.874 0.102 7.01 16.84 14.54
1/25/2021 2:15:00 AM -0.07 31.874 0.102 7.01 17.36 14.54
1/25/2021 2:30:00 AM -0.07 31.874 0.102 7.01 18.29 14.54
1/25/2021 2:45:00 AM -0.07 31.874 0.101 7.01 17.79 14.54
1/25/2021 3:00:00 AM -0.06 31.892 0.103 7.01 18.04 14.54
1/25/2021 3:15:00 AM -0.06 31.892 0.103 7.01 18.01 14.54
1/25/2021 3:30:00 AM -0.06 31.892 0.103 7.01 18.25 14.53
1/25/2021 3:45:00 AM -0.06 31.892 0.103 7.01 18.73 14.53
1/25/2021 4:00:00 AM -0.06 31.892 0.103 7 18.52 14.53
1/25/2021 4:15:00 AM -0.06 31.892 0.103 6.95 18.68 14.53
1/25/2021 4:30:00 AM -0.06 31.892 0.103 7 18.51 14.53
1/25/2021 4:45:00 AM -0.06 31.892 0.103 6.99 18.98 14.52
1/25/2021 5:00:00 AM -0.06 31.892 0.103 7 17.99 14.52
1/25/2021 5:15:00 AM -0.06 31.892 0.104 7 18.55 14.52
1/25/2021 5:30:00 AM -0.06 31.892 0.104 6.99 18.52 14.52
1/25/2021 5:45:00 AM -0.06 31.892 0.104 6.99 18.03 14.52
1/25/2021 6:00:00 AM -0.06 31.892 0.104 6.99 18.29 14.52
1/25/2021 6:15:00 AM -0.06 31.892 0.104 6.98 18.41 14.52
1/25/2021 6:30:00 AM -0.06 31.892 0.104 6.99 18.86 14.52
1/25/2021 6:45:00 AM -0.06 31.892 0.105 6.98 18.63 14.52
1/25/2021 7:00:00 AM -0.06 31.892 0.105 6.99 18.82 14.52
1/25/2021 7:15:00 AM -0.06 31.892 0.105 6.97 19.23 14.52
1/25/2021 7:30:00 AM -0.06 31.892 0.105 6.97 20.19 14.52
1/25/2021 7:45:00 AM -0.06 31.892 0.106 6.98 20.35 14.52
1/25/2021 8:00:00 AM -0.06 31.892 0.106 6.98 19.76 14.53
1/25/2021 8:15:00 AM -0.06 31.892 0.106 6.97 20.12 14.55
1/25/2021 8:30:00 AM -0.06 31.892 0.106 6.98 19.27 14.57
1/25/2021 8:45:00 AM -0.06 31.892 0.106 6.98 18.54 14.58
1/25/2021 9:00:00 AM -0.06 31.892 0.106 6.99 17.89 14.59
1/25/2021 9:15:00 AM -0.05 31.91 0.107 6.97 17.06 14.61
1/25/2021 9:30:00 AM -0.05 31.91 0.107 6.99 16 14.62
1/25/2021 9:45:00 AM -0.05 31.91 0.107 6.99 14.46 14.63
1/25/2021 10:00:00 AM -0.05 31.91 0.107 6.99 12.01 14.64
1/25/2021 10:15:00 AM -0.05 31.91 0.107 6.99 12.22 14.64
1/25/2021 10:30:00 AM -0.05 31.91 0.107 6.98 11.73 14.64
1/25/2021 10:45:00 AM -0.05 31.91 0.106 7 10.36 14.65
1/25/2021 11:00:00 AM -0.05 31.91 0.106 7 9.89 14.65
1/25/2021 11:15:00 AM -0.05 31.91 0.105 7.01 8.96 14.65
1/25/2021 11:30:00 AM -0.04 31.928 0.104 7.01 7.89 14.64
1/25/2021 11:45:00 AM -0.05 31.91 0.103 7.02 7.43 14.63
1/25/2021 12:00:00 PM -0.04 31.928 0.102 7.02 4.96 14.62
1/25/2021 12:15:00 PM -0.02 31.964 0.101 7.02 5.29 14.6
1/25/2021 12:30:00 PM 0.06 32.108 0.101 7.01 5.69 14.6
1/25/2021 12:45:00 PM 0.17 32.306 0.1 7.03 5.43 14.6
1/25/2021 1:00:00 PM 0.24 32.432 0.099 7.02 5.34 14.61
1/25/2021 1:15:00 PM 0.28 32.504 0.099 7.03 5.26 14.61
1/25/2021 1:30:00 PM 0.32 32.576 0.098 7.02 5.06 14.62
1/25/2021 1:45:00 PM 0.35 32.63 0.098 7.03 5.05 14.63
1/25/2021 2:00:00 PM 0.36 32.648 0.098 7.02 5.25 14.63
1/25/2021 2:15:00 PM 0.37 32.666 0.098 7.04 5.26 14.64
1/25/2021 2:30:00 PM 0.37 32.666 0.098 7.03 5.4 14.64
1/25/2021 2:45:00 PM 0.37 32.666 0.098 7.05 5.47 14.65
1/25/2021 3:00:00 PM 0.37 32.666 0.098 7 5.27 14.65
1/25/2021 3:15:00 PM 0.35 32.63 0.099 7.04 5.19 14.65
1/25/2021 3:30:00 PM 0.34 32.612 0.099 7.04 5.13 14.66
1/25/2021 3:45:00 PM 0.32 32.576 0.099 7.05 4.95 14.67
1/25/2021 4:00:00 PM 0.3 32.54 0.1 7.06 4.91 14.67
1/25/2021 4:15:00 PM 0.28 32.504 0.1 7.05 4.75 14.68
1/25/2021 4:30:00 PM 0.25 32.45 0.1 7.04 4.74 14.67
1/25/2021 4:45:00 PM 0.23 32.414 0.1 7.04 4.77 14.66
1/25/2021 5:00:00 PM 0.21 32.378 0.1 7.05 4.55 14.64
1/25/2021 5:15:00 PM 0.18 32.324 0.1 7.04 4.49 14.62
1/25/2021 5:30:00 PM 0.16 32.288 0.1 7.05 4.38 14.6
1/25/2021 5:45:00 PM 0.14 32.252 0.099 7.04 4.4 14.57
1/25/2021 6:00:00 PM 0.13 32.234 0.099 7.04 4.3 14.56
1/25/2021 6:15:00 PM 0.11 32.198 0.099 7.04 4.35 14.55
1/25/2021 6:30:00 PM 0.1 32.18 0.099 7.04 4.27 14.54
1/25/2021 6:45:00 PM 0.09 32.162 0.099 7.04 4.22 14.53
1/25/2021 7:00:00 PM 0.09 32.162 0.099 7.03 4.25 14.52
1/25/2021 7:15:00 PM 0.08 32.144 0.098 7.04 4.24 14.51
1/25/2021 7:30:00 PM 0.08 32.144 0.098 7.03 4.23 14.5
1/25/2021 7:45:00 PM 0.07 32.126 0.098 7.03 4.34 14.5
1/25/2021 8:00:00 PM 0.07 32.126 0.098 7.02 4.3 14.49
1/25/2021 8:15:00 PM 0.06 32.108 0.098 7.03 4.22 14.48
1/25/2021 8:30:00 PM 0.06 32.108 0.098 7.03 4.27 14.48
1/25/2021 8:45:00 PM 0.06 32.108 0.098 7.02 4.23 14.47
1/25/2021 9:00:00 PM 0.05 32.09 0.097 7.01 4.13 14.47
1/25/2021 9:15:00 PM 0.05 32.09 0.097 7.02 4.13 14.46
1/25/2021 9:30:00 PM 0.05 32.09 0.097 7.02 4.14 14.46
1/25/2021 9:45:00 PM 0.05 32.09 0.097 7.01 4.1 14.45
1/25/2021 10:00:00 PM 0.04 32.072 0.097 7.01 4.17 14.45
1/25/2021 10:15:00 PM 0.04 32.072 0.097 7.02 4.16 14.44
1/25/2021 10:30:00 PM 0.04 32.072 0.097 7.02 4.16 14.44
1/25/2021 10:45:00 PM 0.04 32.072 0.097 6.99 4.07 14.44
1/25/2021 11:00:00 PM 0.04 32.072 0.097 7.02 4.25 14.44
1/25/2021 11:15:00 PM 0.04 32.072 0.097 7.01 4.16 14.43
1/25/2021 11:30:00 PM 0.04 32.072 0.097 7.02 4.25 14.43
1/25/2021 11:45:00 PM 0.04 32.072 0.097 7.02 4.3 14.43
1/26/2021 12:00:00 AM 0.04 32.072 0.097 7.01 4.43 14.42
1/26/2021 12:15:00 AM 0.04 32.072 0.098 7.02 4.42 14.42
1/26/2021 12:30:00 AM 0.04 32.072 0.098 7.02 4.36 14.42
1/26/2021 12:45:00 AM 0.05 32.09 0.098 7 4.64 14.41
1/26/2021 1:00:00 AM 0.05 32.09 0.098 7.02 4.53 14.41
1/26/2021 1:15:00 AM 0.05 32.09 0.098 7 4.66 14.41
1/26/2021 1:30:00 AM 0.05 32.09 0.098 7.02 4.64 14.4
1/26/2021 1:45:00 AM 0.06 32.108 0.098 7.01 4.78 14.4
1/26/2021 2:00:00 AM 0.06 32.108 0.098 7.01 4.82 14.39
1/26/2021 2:15:00 AM 0.06 32.108 0.098 7.01 4.68 14.39
1/26/2021 2:30:00 AM 0.06 32.108 0.098 6.99 4.65 14.39
1/26/2021 2:45:00 AM 0.06 32.108 0.098 7.01 4.85 14.38
1/26/2021 3:00:00 AM 0.06 32.108 0.098 7.01 4.75 14.38
1/26/2021 3:15:00 AM 0.06 32.108 0.098 7.01 4.74 14.38
1/26/2021 3:30:00 AM 0.06 32.108 0.098 7.01 4.77 14.38
1/26/2021 3:45:00 AM 0.07 32.126 0.098 7.01 4.61 14.37
1/26/2021 4:00:00 AM 0.07 32.126 0.098 7.01 4.66 14.37
1/26/2021 4:15:00 AM 0.07 32.126 0.098 7.01 4.74 14.37
1/26/2021 4:30:00 AM 0.07 32.126 0.098 7.01 4.78 14.37
1/26/2021 4:45:00 AM 0.07 32.126 0.098 7 4.82 14.36
1/26/2021 5:00:00 AM 0.07 32.126 0.098 7 4.88 14.36
1/26/2021 5:15:00 AM 0.08 32.144 0.098 7 4.89 14.36
1/26/2021 5:30:00 AM 0.08 32.144 0.098 7.01 4.77 14.35
1/26/2021 5:45:00 AM 0.08 32.144 0.098 7.01 4.72 14.35
1/26/2021 6:00:00 AM 0.07 32.126 0.098 7.01 4.59 14.35
1/26/2021 6:15:00 AM 0.06 32.108 0.098 7.01 4.63 14.35
1/26/2021 6:30:00 AM 0.05 32.09 0.098 7.01 4.72 14.35
1/26/2021 6:45:00 AM 0.04 32.072 0.098 7.01 4.71 14.35
1/26/2021 7:00:00 AM 0.04 32.072 0.098 7.01 4.72 14.35
1/26/2021 7:15:00 AM 0.04 32.072 0.098 7.01 4.66 14.35
1/26/2021 7:30:00 AM 0.04 32.072 0.098 7.01 4.52 14.35
1/26/2021 7:45:00 AM 0.04 32.072 0.098 7 4.46 14.36
1/26/2021 8:00:00 AM 0.05 32.09 0.098 7 4.49 14.37
1/26/2021 8:15:00 AM 0.07 32.126 0.098 7.01 4.61 14.38
1/26/2021 8:30:00 AM 0.08 32.144 0.098 7.01 4.67 14.39
1/26/2021 8:45:00 AM 0.1 32.18 0.098 7.02 4.47 14.4
1/26/2021 9:00:00 AM 0.12 32.216 0.098 7.03 4.48 14.42
1/26/2021 9:15:00 AM 0.13 32.234 0.098 7.03 4.36 14.44
1/26/2021 9:30:00 AM 0.14 32.252 0.098 7.03 4.29 14.46
1/26/2021 9:45:00 AM 0.15 32.27 0.098 7.03 4.48 14.47
1/26/2021 10:00:00 AM 0.11 32.198 0.098 7.05 4.29 14.47
1/26/2021 10:15:00 AM 0.09 32.162 0.098 7.04 4.33 14.48
1/26/2021 10:30:00 AM 0.05 32.09 0.097 7.05 4.27 14.5
1/26/2021 10:45:00 AM 0.04 32.072 0.097 7.05 4.24 14.51
1/26/2021 11:00:00 AM -0.01 31.982 0.097 7.06 4.25 14.52
1/26/2021 11:15:00 AM -0.01 31.982 0.097 7.05 4.26 14.53
1/26/2021 11:30:00 AM -0.01 31.982 0.097 7.05 4.23 14.54
1/26/2021 11:45:00 AM -0.03 31.946 0.097 7.06 4.45 14.56
1/26/2021 12:00:00 PM -0.03 31.946 0.097 7.06 4.24 14.58
1/26/2021 12:15:00 PM -0.03 31.946 0.097 7.06 4.24 14.58
1/26/2021 12:30:00 PM -0.01 31.982 0.097 7.06 4.21 14.59
1/26/2021 12:45:00 PM 0.02 32.036 0.097 7.06 4.16 14.59
1/26/2021 1:00:00 PM 0.04 32.072 0.097 7.07 4.14 14.59
1/26/2021 1:15:00 PM 0.03 32.054 0.097 7.07 4.11 14.59
1/26/2021 1:30:00 PM -0.01 31.982 0.097 7.07 4.2 14.59
1/26/2021 1:45:00 PM 0 32 0.097 7.07 4.16 14.59
1/26/2021 2:00:00 PM 0.03 32.054 0.097 7.08 4.11 14.59
1/26/2021 2:15:00 PM 0.04 32.072 0.097 7.08 4.03 14.59
1/26/2021 2:30:00 PM 0.02 32.036 0.097 7.07 4.17 14.59
1/26/2021 2:45:00 PM 0.01 32.018 0.097 7.07 4.07 14.59
1/26/2021 3:00:00 PM 0.01 32.018 0.097 7.08 4.11 14.59
1/26/2021 3:15:00 PM 0.03 32.054 0.097 7.08 4.14 14.59
1/26/2021 3:30:00 PM 0.06 32.108 0.097 7.08 4.26 14.59
1/26/2021 3:45:00 PM 0.07 32.126 0.097 7.07 4.05 14.59
1/26/2021 4:00:00 PM 0.07 32.126 0.097 7.05 4.03 14.58
1/26/2021 4:15:00 PM 0.08 32.144 0.097 7.08 4.07 14.57
1/26/2021 4:30:00 PM 0.09 32.162 0.097 7.08 4.17 14.56
1/26/2021 4:45:00 PM 0.1 32.18 0.098 7.08 4.09 14.54
1/26/2021 5:00:00 PM 0.11 32.198 0.098 7.08 4 14.52
1/26/2021 5:15:00 PM 0.11 32.198 0.098 7.07 3.98 14.5
1/26/2021 5:30:00 PM 0.11 32.198 0.098 7.07 3.95 14.47
1/26/2021 5:45:00 PM 0.11 32.198 0.099 7.07 3.94 14.45
1/26/2021 6:00:00 PM 0.1 32.18 0.099 7.06 3.94 14.43
1/26/2021 6:15:00 PM 0.1 32.18 0.1 7.07 4.01 14.42
1/26/2021 6:30:00 PM 0.1 32.18 0.101 7.06 4.02 14.41
1/26/2021 6:45:00 PM 0.1 32.18 0.101 7.05 4.03 14.39
1/26/2021 7:00:00 PM 0.1 32.18 0.1 7.06 3.94 14.38
1/26/2021 7:15:00 PM 0.1 32.18 0.1 7.05 4.01 14.38
1/26/2021 7:30:00 PM 0.1 32.18 0.099 7.04 4.02 14.37
1/26/2021 7:45:00 PM 0.11 32.198 0.099 7.05 3.98 14.36
1/26/2021 8:00:00 PM 0.12 32.216 0.099 7.05 3.94 14.35
1/26/2021 8:15:00 PM 0.12 32.216 0.098 7.05 4 14.35
1/26/2021 8:30:00 PM 0.12 32.216 0.098 7.04 3.85 14.34
1/26/2021 8:45:00 PM 0.13 32.234 0.098 7.04 3.99 14.33
1/26/2021 9:00:00 PM 0.13 32.234 0.098 7.04 4.09 14.33
1/26/2021 9:15:00 PM 0.13 32.234 0.098 7.04 3.94 14.32
1/26/2021 9:30:00 PM 0.13 32.234 0.098 7.04 3.93 14.31
1/26/2021 9:45:00 PM 0.13 32.234 0.098 7.04 4.56 14.31
1/26/2021 10:00:00 PM 0.14 32.252 0.098 7 4.28 14.3
1/26/2021 10:15:00 PM 0.14 32.252 0.098 7.04 4.2 14.3
1/26/2021 10:30:00 PM 0.14 32.252 0.098 7.03 4.03 14.3
1/26/2021 10:45:00 PM 0.14 32.252 0.098 7.02 3.93 14.29
1/26/2021 11:00:00 PM 0.15 32.27 0.098 7.03 4.06 14.29
1/26/2021 11:15:00 PM 0.15 32.27 0.098 7.03 4.08 14.29
1/26/2021 11:30:00 PM 0.16 32.288 0.098 7.03 4.02 14.28
1/26/2021 11:45:00 PM 0.16 32.288 0.098 7.03 4.12 14.28
1/27/2021 12:00:00 AM 0.16 32.288 0.098 7.02 4.11 14.28
1/27/2021 12:15:00 AM 0.17 32.306 0.098 7.03 3.99 14.28
1/27/2021 12:30:00 AM 0.17 32.306 0.098 7.03 4.03 14.27
1/27/2021 12:45:00 AM 0.17 32.306 0.098 7.02 4.02 14.27
1/27/2021 1:00:00 AM 0.18 32.324 0.098 7.02 4.02 14.27
1/27/2021 1:15:00 AM 0.18 32.324 0.098 7.02 3.97 14.26
1/27/2021 1:30:00 AM 0.17 32.306 0.098 7.02 4.05 14.26
1/27/2021 1:45:00 AM 0.17 32.306 0.098 7.03 3.92 14.26
1/27/2021 2:00:00 AM 0.18 32.324 0.098 7.02 4.03 14.25
1/27/2021 2:15:00 AM 0.18 32.324 0.097 7.01 4.28 14.25
1/27/2021 2:30:00 AM 0.19 32.342 0.097 7.02 4.11 14.25
1/27/2021 2:45:00 AM 0.19 32.342 0.097 7.02 4.05 14.25
1/27/2021 3:00:00 AM 0.19 32.342 0.097 7.02 4.19 14.25
1/27/2021 3:15:00 AM 0.19 32.342 0.097 7.03 4.03 14.25
1/27/2021 3:30:00 AM 0.19 32.342 0.097 7 4.15 14.26
1/27/2021 3:45:00 AM 0.19 32.342 0.097 7.03 4.05 14.25
1/27/2021 4:00:00 AM 0.19 32.342 0.097 7.01 4.07 14.25
1/27/2021 4:15:00 AM 0.19 32.342 0.097 7.03 4.07 14.26
1/27/2021 4:30:00 AM 0.18 32.324 0.097 7.02 4.14 14.26
1/27/2021 4:45:00 AM 0.18 32.324 0.097 7.03 4.15 14.26
1/27/2021 5:00:00 AM 0.17 32.306 0.097 7.02 4.1 14.27
1/27/2021 5:15:00 AM 0.16 32.288 0.097 7.02 4.14 14.27
1/27/2021 5:30:00 AM 0.16 32.288 0.097 7.02 4.09 14.27
1/27/2021 5:45:00 AM 0.15 32.27 0.097 7.02 4.2 14.28
1/27/2021 6:00:00 AM 0.15 32.27 0.097 7.02 4.12 14.28
1/27/2021 6:15:00 AM 0.14 32.252 0.097 7.02 4.2 14.29
1/27/2021 6:30:00 AM 0.13 32.234 0.098 7.02 4.2 14.29
1/27/2021 6:45:00 AM 0.12 32.216 0.098 7.02 4.19 14.3
1/27/2021 7:00:00 AM 0.12 32.216 0.098 7.03 4.26 14.3
1/27/2021 7:15:00 AM 0.12 32.216 0.098 7.02 4.22 14.31
1/27/2021 7:30:00 AM 0.11 32.198 0.098 7.02 4.14 14.31
1/27/2021 7:45:00 AM 0.11 32.198 0.098 7.03 4.09 14.32
1/27/2021 8:00:00 AM 0.11 32.198 0.097 7.03 4.12 14.33
1/27/2021 8:15:00 AM 0.11 32.198 0.097 7.03 4.14 14.34
1/27/2021 8:30:00 AM 0.11 32.198 0.097 7.04 4.26 14.37
1/27/2021 8:45:00 AM 0.11 32.198 0.097 7.04 4.42 14.38
1/27/2021 9:00:00 AM 0.11 32.198 0.097 7.04 4.37 14.4
1/27/2021 9:15:00 AM 0.12 32.216 0.097 7.05 4.38 14.43
1/27/2021 9:30:00 AM 0.13 32.234 0.097 7.05 4.29 14.46
1/27/2021 9:45:00 AM 0.13 32.234 0.097 7.06 5.2 14.48
1/27/2021 10:00:00 AM 0.14 32.252 0.097 7.06 4.5 14.5
1/27/2021 10:15:00 AM 0.14 32.252 0.097 7.06 4.27 14.52
1/27/2021 10:30:00 AM 0.15 32.27 0.097 7.06 4.23 14.54
1/27/2021 10:45:00 AM 0.15 32.27 0.097 7.06 4.09 14.55
1/27/2021 11:00:00 AM 0.16 32.288 0.097 7.06 4.14 14.57
1/27/2021 11:15:00 AM 0.16 32.288 0.097 7.07 4.15 14.59
1/27/2021 11:30:00 AM 0.17 32.306 0.097 7.08 4.08 14.6
1/27/2021 11:45:00 AM 0.17 32.306 0.097 7.08 4 14.62
1/27/2021 12:00:00 PM 0.18 32.324 0.097 7.09 3.97 14.63
1/27/2021 12:15:00 PM 0.19 32.342 0.097 7.09 4.01 14.65
1/27/2021 12:30:00 PM 0.2 32.36 0.097 7.09 4.12 14.66
1/27/2021 12:45:00 PM 0.21 32.378 0.097 7.09 4.1 14.68
1/27/2021 1:00:00 PM 0.23 32.414 0.097 7.1 4.13 14.69
1/27/2021 1:15:00 PM 0.24 32.432 0.097 7.1 4.18 14.7
1/27/2021 1:30:00 PM 0.26 32.468 0.097 7.1 4.23 14.71
1/27/2021 1:45:00 PM 0.28 32.504 0.097 7.11 4.1 14.71
1/27/2021 2:00:00 PM 0.28 32.504 0.097 7.11 4.21 14.72
1/27/2021 2:15:00 PM 0.29 32.522 0.097 7.11 4.24 14.73
1/27/2021 2:30:00 PM 0.31 32.558 0.097 7.11 4.15 14.73
1/27/2021 2:45:00 PM 0.3 32.54 0.097 7.11 4.22 14.74
1/27/2021 3:00:00 PM 0.3 32.54 0.097 7.11 4.24 14.74
1/27/2021 3:15:00 PM 0.31 32.558 0.097 7.11 4.22 14.74
1/27/2021 3:30:00 PM 0.3 32.54 0.097 7.12 4.43 14.74
1/27/2021 3:45:00 PM 0.28 32.504 0.097 7.12 4.11 14.73
1/27/2021 4:00:00 PM 0.28 32.504 0.097 7.11 4.25 14.73
1/27/2021 4:15:00 PM 0.27 32.486 0.097 7.11 4.25 14.72
1/27/2021 4:30:00 PM 0.26 32.468 0.097 7.1 4.3 14.71
1/27/2021 4:45:00 PM 0.25 32.45 0.097 7.11 4.26 14.69
1/27/2021 5:00:00 PM 0.25 32.45 0.097 7.1 4.13 14.67
1/27/2021 5:15:00 PM 0.24 32.432 0.097 7.07 4.15 14.65
1/27/2021 5:30:00 PM 0.23 32.414 0.097 7.09 4.16 14.63
1/27/2021 5:45:00 PM 0.22 32.396 0.097 7.09 4.15 14.6
1/27/2021 6:00:00 PM 0.22 32.396 0.097 7.09 4.16 14.59
1/27/2021 6:15:00 PM 0.21 32.378 0.097 7.08 4.08 14.57
1/27/2021 6:30:00 PM 0.21 32.378 0.097 7.06 4.09 14.56
1/27/2021 6:45:00 PM 0.2 32.36 0.097 7.07 4.05 14.54
1/27/2021 7:00:00 PM 0.2 32.36 0.097 7.07 4.1 14.53
1/27/2021 7:15:00 PM 0.19 32.342 0.097 7.06 4.2 14.52
1/27/2021 7:30:00 PM 0.19 32.342 0.097 7.07 4.14 14.52
1/27/2021 7:45:00 PM 0.18 32.324 0.097 7.07 4.26 14.51
1/27/2021 8:00:00 PM 0.18 32.324 0.097 7.06 4.22 14.51
1/27/2021 8:15:00 PM 0.17 32.306 0.097 7.06 4.18 14.5
1/27/2021 8:30:00 PM 0.17 32.306 0.097 7.07 4.18 14.5
1/27/2021 8:45:00 PM 0.16 32.288 0.097 7.05 6.48 14.49
1/27/2021 9:00:00 PM 0.15 32.27 0.097 7.05 4.54 14.49
1/27/2021 9:15:00 PM 0.15 32.27 0.097 7.06 4.25 14.48
1/27/2021 9:30:00 PM 0.14 32.252 0.097 7.06 4.24 14.48
1/27/2021 9:45:00 PM 0.13 32.234 0.097 7.06 4.16 14.47
1/27/2021 10:00:00 PM 0.12 32.216 0.097 7.06 4.14 14.47
1/27/2021 10:15:00 PM 0.12 32.216 0.097 7.03 4.12 14.47
1/27/2021 10:30:00 PM 0.11 32.198 0.097 7.05 4.16 14.47
1/27/2021 10:45:00 PM 0.1 32.18 0.097 7.06 4.15 14.46
1/27/2021 11:00:00 PM 0.09 32.162 0.097 7.05 4.19 14.47
1/27/2021 11:15:00 PM 0.07 32.126 0.098 7.05 4.04 14.47
1/27/2021 11:30:00 PM 0.04 32.072 0.098 7.03 4.06 14.47
1/27/2021 11:45:00 PM 0.03 32.054 0.098 7.05 4.14 14.47
1/28/2021 12:00:00 AM 0.02 32.036 0.097 7.04 4.09 14.47
1/28/2021 12:15:00 AM 0 32 0.097 7.05 3.97 14.48
1/28/2021 12:30:00 AM -0.03 31.946 0.098 7.02 4.1 14.48
1/28/2021 12:45:00 AM -0.05 31.91 0.098 7.02 4.02 14.49
1/28/2021 1:00:00 AM -0.07 31.874 0.098 7.02 4.03 14.49
1/28/2021 1:15:00 AM -0.09 31.838 0.098 7.02 4.49 14.5
1/28/2021 1:30:00 AM -0.1 31.82 0.098 7.03 4.3 14.51
1/28/2021 1:45:00 AM -0.09 31.838 0.096 7 4.85 14.52
1/28/2021 2:00:00 AM -0.07 31.874 0.092 7.04 4.73 14.52
1/28/2021 2:15:00 AM -0.06 31.892 0.092 7.05 5.41 14.52
1/28/2021 2:30:00 AM -0.06 31.892 0.098 7.05 4.8 14.51
1/28/2021 2:45:00 AM -0.06 31.892 0.098 7.04 4.75 14.51
1/28/2021 3:00:00 AM -0.06 31.892 0.099 7.02 4.65 14.51
1/28/2021 3:15:00 AM -0.06 31.892 0.099 7.03 4.7 14.51
1/28/2021 3:30:00 AM -0.06 31.892 0.099 7.04 4.71 14.5
1/28/2021 3:45:00 AM -0.06 31.892 0.099 7.01 4.63 14.5
1/28/2021 4:00:00 AM -0.06 31.892 0.099 7.04 4.55 14.5
1/28/2021 4:15:00 AM -0.06 31.892 0.099 7.02 4.62 14.5
1/28/2021 4:30:00 AM -0.06 31.892 0.099 7.03 4.5 14.5
1/28/2021 4:45:00 AM -0.06 31.892 0.1 7.03 4.32 14.49
1/28/2021 5:00:00 AM -0.06 31.892 0.1 7.03 4.55 14.49
1/28/2021 5:15:00 AM -0.06 31.892 0.1 7.03 4.52 14.49
1/28/2021 5:30:00 AM -0.06 31.892 0.1 7.03 4.5 14.49
1/28/2021 5:45:00 AM -0.06 31.892 0.1 7.04 4.46 14.49
1/28/2021 6:00:00 AM -0.06 31.892 0.1 7.03 4.67 14.5
1/28/2021 6:15:00 AM -0.06 31.892 0.1 7.03 4.62 14.5
1/28/2021 6:30:00 AM -0.06 31.892 0.1 7 4.6 14.51
1/28/2021 6:45:00 AM -0.06 31.892 0.1 7.03 4.53 14.51
1/28/2021 7:00:00 AM -0.06 31.892 0.1 7.03 4.44 14.51
1/28/2021 7:15:00 AM -0.06 31.892 0.1 7.02 4.59 14.51
1/28/2021 7:30:00 AM -0.06 31.892 0.1 7.03 4.44 14.52
1/28/2021 7:45:00 AM -0.06 31.892 0.1 7.04 4.46 14.53
1/28/2021 8:00:00 AM -0.06 31.892 0.1 7.03 4.39 14.55
1/28/2021 8:15:00 AM -0.06 31.892 0.1 7.04 4.26 14.57
1/28/2021 8:30:00 AM -0.06 31.892 0.1 7.05 4.23 14.6
1/28/2021 8:45:00 AM -0.06 31.892 0.1 7.02 4.13 14.63
1/28/2021 9:00:00 AM -0.06 31.892 0.1 7.04 4.29 14.66
1/28/2021 9:15:00 AM -0.06 31.892 0.1 7.06 4.32 14.69
1/28/2021 9:30:00 AM -0.05 31.91 0.1 7.02 4.01 14.72
1/28/2021 9:45:00 AM -0.05 31.91 0.1 7.07 4.22 14.75
1/28/2021 10:00:00 AM -0.05 31.91 0.1 7.08 4.13 14.77
1/28/2021 10:15:00 AM -0.05 31.91 0.1 7.08 4.33 14.79
1/28/2021 10:30:00 AM -0.05 31.91 0.1 7.08 3.96 14.79
1/28/2021 10:45:00 AM -0.04 31.928 0.099 7.09 4.43 14.8
1/28/2021 11:00:00 AM -0.01 31.982 0.099 7.07 4.82 14.8
1/28/2021 11:15:00 AM 0.05 32.09 0.099 7.09 4.28 14.81
1/28/2021 11:30:00 AM 0.08 32.144 0.099 7.09 4.22 14.82
1/28/2021 11:45:00 AM 0.13 32.234 0.098 7.08 4.38 14.83
1/28/2021 12:00:00 PM 0.16 32.288 0.098 7.08 4.25 14.84
1/28/2021 12:15:00 PM 0.19 32.342 0.098 7.08 4.2 14.85
1/28/2021 12:30:00 PM 0.22 32.396 0.098 7.1 4.18 14.86
1/28/2021 12:45:00 PM -99999.99 -179968 -99999.99 -99999.99 -99999.99 -99999.99
1/28/2021 1:00:00 PM 0.3 32.54 0.1 7.47 4.17 14.06
1/28/2021 1:15:00 PM 0.34 32.612 0.096 7.41 4.26 14.08
1/28/2021 1:30:00 PM 0.39 32.702 0.096 7.39 4.12 14.08
1/28/2021 1:45:00 PM 0.44 32.792 0.096 7.38 5.24 14.07
1/28/2021 2:00:00 PM 0.46 32.828 0.096 7.24 8.1 14.08
1/28/2021 2:15:00 PM 0.5 32.9 0.096 7.28 6.28 14.06
1/28/2021 2:30:00 PM 0.5 32.9 0.096 7.29 5.7 14.06
1/28/2021 2:45:00 PM 0.5 32.9 0.096 7.32 8.06 14.06
1/28/2021 3:00:00 PM 0.47 32.846 0.097 7.3 5.92 14.07
1/28/2021 3:15:00 PM 0.42 32.756 0.096 7.28 6.84 14.08
1/28/2021 3:30:00 PM 0.35 32.63 0.096 7.26 8.11 14.09
1/28/2021 3:45:00 PM 0.29 32.522 0.096 7.25 6.41 14.1
1/28/2021 4:00:00 PM 0.23 32.414 0.096 7.26 6.59 14.11
1/28/2021 4:15:00 PM 0.17 32.306 0.096 7.25 5.4 14.12
1/28/2021 4:30:00 PM 0.11 32.198 0.096 7.24 5.02 14.12
1/28/2021 4:45:00 PM 0.07 32.126 0.096 7.23 4.38 14.12
1/28/2021 5:00:00 PM 0.02 32.036 0.096 7.22 4.35 14.11
1/28/2021 5:15:00 PM -0.02 31.964 0.096 7.22 4.11 14.09
1/28/2021 5:30:00 PM -0.02 31.964 0.096 7.25 4.72 14.09
1/28/2021 5:45:00 PM -0.01 31.982 0.095 7.28 4.47 14.07
1/28/2021 6:00:00 PM -0.01 31.982 0.096 7.31 4.92 14.06
1/28/2021 6:15:00 PM 0 32 0.097 7.31 4.82 14.04
1/28/2021 6:30:00 PM 0 32 0.097 7.32 4.45 14.02
1/28/2021 6:45:00 PM 0 32 0.097 7.32 4.84 14
1/28/2021 7:00:00 PM 0 32 0.099 7.33 4.69 14
1/28/2021 7:15:00 PM 0 32 0.098 7.31 4.72 13.99
1/28/2021 7:30:00 PM 0 32 0.098 7.32 5.08 13.98
1/28/2021 7:45:00 PM 0 32 0.098 7.32 4.49 13.97
1/28/2021 8:00:00 PM 0 32 0.098 7.32 4.51 13.95
1/28/2021 8:15:00 PM 0 32 0.098 7.33 4.69 13.96
1/28/2021 8:30:00 PM 0 32 0.098 7.31 4.11 13.95
1/28/2021 8:45:00 PM 0 32 0.098 7.31 3.7 13.93
1/28/2021 9:00:00 PM 0 32 0.098 7.3 3.56 13.93
1/28/2021 9:15:00 PM 0 32 0.098 7.3 3.62 13.93
1/28/2021 9:30:00 PM 0 32 0.099 7.3 3.69 13.92
1/28/2021 9:45:00 PM 0 32 0.099 7.29 3.56 13.92
1/28/2021 10:00:00 PM 0 32 0.099 7.29 3.5 13.9
1/28/2021 10:15:00 PM 0 32 0.099 7.27 3.51 13.91
1/28/2021 10:30:00 PM 0 32 0.099 7.29 3.74 13.89
1/28/2021 10:45:00 PM 0 32 0.101 7.27 3.82 13.89
1/28/2021 11:00:00 PM 0 32 0.1 7.28 3.5 13.89
1/28/2021 11:15:00 PM 0 32 0.1 7.28 3.78 13.88
1/28/2021 11:30:00 PM 0 32 0.1 7.28 3.71 13.86
1/28/2021 11:45:00 PM 0 32 0.1 7.28 3.75 13.85
1/29/2021 12:00:00 AM 0 32 0.1 7.28 3.77 13.85
1/29/2021 12:15:00 AM 0 32 0.101 7.27 3.89 13.85
1/29/2021 12:30:00 AM 0 32 0.1 7.27 3.71 13.83
1/29/2021 12:45:00 AM 0 32 0.101 7.27 3.66 13.83
1/29/2021 1:00:00 AM 0 32 0.101 7.27 3.84 13.81
1/29/2021 1:15:00 AM 0 32 0.1 7.26 3.72 13.81
1/29/2021 1:30:00 AM 0 32 0.101 7.26 3.57 13.82
1/29/2021 1:45:00 AM 0 32 0.101 7.26 3.74 13.81
1/29/2021 2:00:00 AM 0 32 0.101 7.26 3.8 13.79
1/29/2021 2:15:00 AM 0 32 0.101 7.26 3.76 13.8
1/29/2021 2:30:00 AM 0 32 0.101 7.26 3.69 13.79
1/29/2021 2:45:00 AM 0 32 0.102 7.26 3.87 13.79
1/29/2021 3:00:00 AM 0 32 0.102 7.26 3.83 13.79
1/29/2021 3:15:00 AM 0 32 0.102 7.26 3.82 13.79
1/29/2021 3:30:00 AM 0 32 0.102 7.25 3.91 13.78
1/29/2021 3:45:00 AM 0 32 0.104 7.25 3.66 13.77
1/29/2021 4:00:00 AM 0 32 0.102 7.25 3.79 13.78
1/29/2021 4:15:00 AM 0 32 0.102 7.25 3.71 13.78
1/29/2021 4:30:00 AM 0 32 0.103 7.25 3.75 13.77
1/29/2021 4:45:00 AM 0 32 0.103 7.25 3.67 13.78
1/29/2021 5:00:00 AM 0 32 0.103 7.24 3.61 13.78
1/29/2021 5:15:00 AM 0.01 32.018 0.105 7.25 3.74 13.77
1/29/2021 5:30:00 AM 0.01 32.018 0.107 7.24 3.46 13.77
1/29/2021 5:45:00 AM 0.01 32.018 0.106 7.25 3.36 13.76
1/29/2021 6:00:00 AM 0.01 32.018 0.106 7.24 4.29 13.76
1/29/2021 6:15:00 AM 0.01 32.018 0.107 7.24 3.66 13.76
1/29/2021 6:30:00 AM 0.01 32.018 0.107 7.24 3.91 13.75
1/29/2021 6:45:00 AM 0.01 32.018 0.107 7.24 3.56 13.76
1/29/2021 7:00:00 AM 0.01 32.018 0.107 7.24 3.57 13.75
1/29/2021 7:15:00 AM 0 32 0.104 7.23 4.14 13.75
1/29/2021 7:30:00 AM 0.01 32.018 0.107 7.24 3.53 13.74
1/29/2021 7:45:00 AM 0.01 32.018 0.107 7.24 3.72 13.75
1/29/2021 8:00:00 AM 0.01 32.018 0.108 7.23 3.75 13.76
1/29/2021 8:15:00 AM 0.01 32.018 0.104 7.24 4 13.78
1/29/2021 8:30:00 AM 0.01 32.018 0.104 7.24 4.01 13.81
1/29/2021 8:45:00 AM 0.01 32.018 0.104 7.24 3.78 13.83
1/29/2021 9:00:00 AM 0.01 32.018 0.105 7.25 3.75 13.84
1/29/2021 9:15:00 AM 0.01 32.018 0.106 7.26 3.77 13.87
1/29/2021 9:30:00 AM 0.01 32.018 0.105 7.26 3.78 13.89
1/29/2021 9:45:00 AM 0.01 32.018 0.093 7.25 4.05 13.94
1/29/2021 10:00:00 AM 0.01 32.018 0.101 7.26 4.26 13.95
1/29/2021 10:15:00 AM 0.01 32.018 0.106 7.26 4.04 13.98
1/29/2021 10:30:00 AM 0.01 32.018 0.104 7.27 4.5 14.01
1/29/2021 10:45:00 AM 0.01 32.018 0.103 7.27 4.55 14.03
1/29/2021 11:00:00 AM 0.01 32.018 0.103 7.27 4.62 14.03
1/29/2021 11:15:00 AM 0.02 32.036 0.106 7.28 4.26 14.04
1/29/2021 11:30:00 AM 0.02 32.036 0.101 7.28 4.19 14.05
1/29/2021 11:45:00 AM 0.02 32.036 0.106 7.28 4.9 14.05
1/29/2021 12:00:00 PM 0.03 32.054 0.098 7.28 4.27 14.06
1/29/2021 12:15:00 PM 0.02 32.036 0.102 7.28 4.42 14.07
1/29/2021 12:30:00 PM 0.02 32.036 0.101 7.28 4.24 14.07
1/29/2021 12:45:00 PM 0.03 32.054 0.103 7.29 4.23 14.09
1/29/2021 1:00:00 PM 0.03 32.054 0.103 7.29 4.08 14.09
1/29/2021 1:15:00 PM 0.03 32.054 0.103 7.3 4.49 14.09
1/29/2021 1:30:00 PM 0.03 32.054 0.103 7.29 4.56 14.11
1/29/2021 1:45:00 PM 0.03 32.054 0.093 7.29 4.4 14.1
1/29/2021 2:00:00 PM 0.02 32.036 0.102 7.3 4.22 14.1
1/29/2021 2:15:00 PM 0.03 32.054 0.1 7.3 4.33 14.11
1/29/2021 2:30:00 PM 0.02 32.036 0.098 7.3 4.44 14.12
1/29/2021 2:45:00 PM 0.02 32.036 0.101 7.31 4.61 14.12
1/29/2021 3:00:00 PM 0.02 32.036 0.1 7.3 5.27 14.14
1/29/2021 3:15:00 PM 0.02 32.036 0.097 7.31 4.24 14.16
1/29/2021 3:30:00 PM 0.02 32.036 0.098 7.31 4.25 14.16
1/29/2021 3:45:00 PM 0.02 32.036 0.089 7.31 4.42 14.17
1/29/2021 4:00:00 PM 0.02 32.036 0.093 7.31 4.35 14.18
1/29/2021 4:15:00 PM 0.02 32.036 0.098 7.32 4.15 14.17
1/29/2021 4:30:00 PM 0.01 32.018 0.099 7.32 4.01 14.17
1/29/2021 4:45:00 PM 0.01 32.018 0.098 7.31 4.03 14.16
1/29/2021 5:00:00 PM 0 32 0.098 7.31 4.26 14.14
1/29/2021 5:15:00 PM 0 32 0.098 7.3 4.12 14.12
1/29/2021 5:30:00 PM 0 32 0.097 7.3 3.92 14.1
1/29/2021 5:45:00 PM 0 32 0.098 7.3 4.01 14.07
1/29/2021 6:00:00 PM 0 32 0.098 7.29 3.96 14.05
1/29/2021 6:15:00 PM 0 32 0.098 7.28 3.9 14.04
1/29/2021 6:30:00 PM 0 32 0.094 7.27 5.07 14.03
1/29/2021 6:45:00 PM 0 32 0.098 7.28 3.97 14.01
1/29/2021 7:00:00 PM 0 32 0.098 7.27 3.86 13.99
1/29/2021 7:15:00 PM 0 32 0.098 7.26 3.89 14
1/29/2021 7:30:00 PM 0 32 0.101 7.26 4.22 13.98
1/29/2021 7:45:00 PM 0 32 0.098 7.26 3.95 13.96
1/29/2021 8:00:00 PM 0 32 0.098 7.26 4.05 13.97
1/29/2021 8:15:00 PM 0 32 0.1 7.26 4.2 13.96
1/29/2021 8:30:00 PM 0 32 0.098 7.26 3.99 13.96
1/29/2021 8:45:00 PM 0 32 0.098 7.25 3.89 13.95
1/29/2021 9:00:00 PM 0 32 0.098 7.25 3.99 13.94
1/29/2021 9:15:00 PM 0 32 0.098 7.24 3.78 13.94
1/29/2021 9:30:00 PM 0 32 0.099 7.24 3.85 13.93
1/29/2021 9:45:00 PM 0 32 0.099 7.24 3.8 13.92
1/29/2021 10:00:00 PM 0 32 0.099 7.24 3.93 13.93
1/29/2021 10:15:00 PM 0 32 0.099 7.24 3.86 13.9
1/29/2021 10:30:00 PM 0 32 0.099 7.23 3.73 13.91
1/29/2021 10:45:00 PM 0 32 0.099 7.24 4.85 13.89
1/29/2021 11:00:00 PM 0 32 0.1 7.23 3.83 13.89
1/29/2021 11:15:00 PM 0 32 0.1 7.22 3.9 13.88
1/29/2021 11:30:00 PM 0 32 0.099 7.2 3.78 13.86
1/29/2021 11:45:00 PM 0 32 0.1 7.22 3.78 13.86
1/30/2021 12:00:00 AM 0 32 0.1 7.22 3.78 13.86
1/30/2021 12:15:00 AM 0 32 0.1 7.22 3.8 13.86
1/30/2021 12:30:00 AM 0 32 0.1 7.21 3.67 13.84
1/30/2021 12:45:00 AM 0 32 0.1 7.21 3.8 13.85
1/30/2021 1:00:00 AM 0 32 0.1 7.21 3.73 13.82
1/30/2021 1:15:00 AM 0 32 0.1 7.21 3.71 13.82
1/30/2021 1:30:00 AM 0 32 0.101 7.21 3.52 13.81
1/30/2021 1:45:00 AM 0 32 0.101 7.21 3.53 13.81
1/30/2021 2:00:00 AM 0 32 0.101 7.21 3.6 13.8
1/30/2021 2:15:00 AM 0 32 0.099 7.2 3.76 13.79
1/30/2021 2:30:00 AM 0 32 0.101 7.2 3.59 13.78
1/30/2021 2:45:00 AM 0 32 0.101 7.2 3.75 13.78
1/30/2021 3:00:00 AM 0 32 0.101 7.2 3.48 13.77
1/30/2021 3:15:00 AM 0 32 0.101 7.2 3.54 13.76
1/30/2021 3:30:00 AM 0 32 0.103 7.2 3.61 13.75
1/30/2021 3:45:00 AM 0 32 0.101 7.2 3.49 13.75
1/30/2021 4:00:00 AM 0 32 0.101 7.2 3.89 13.74
1/30/2021 4:15:00 AM 0 32 0.104 7.2 4.03 13.74
1/30/2021 4:30:00 AM 0 32 0.101 7.19 3.83 13.73
1/30/2021 4:45:00 AM 0 32 0.101 7.19 4.01 13.72
1/30/2021 5:00:00 AM 0 32 0.101 7.19 3.88 13.72
1/30/2021 5:15:00 AM 0 32 0.102 7.19 3.83 13.71
1/30/2021 5:30:00 AM 0 32 0.102 7.19 4 13.71
1/30/2021 5:45:00 AM 0 32 0.101 7.19 3.68 13.69
1/30/2021 6:00:00 AM 0 32 0.101 7.19 3.79 13.69
1/30/2021 6:15:00 AM 0 32 0.101 7.19 3.76 13.69
1/30/2021 6:30:00 AM 0 32 0.101 7.18 3.68 13.68
1/30/2021 6:45:00 AM 0 32 0.101 7.18 3.73 13.68
1/30/2021 7:00:00 AM 0 32 0.101 7.18 3.65 13.68
1/30/2021 7:15:00 AM 0 32 0.101 7.18 3.77 13.67
1/30/2021 7:30:00 AM 0 32 0.1 7.18 3.62 13.67
1/30/2021 7:45:00 AM 0 32 0.103 7.18 4.21 13.67
1/30/2021 8:00:00 AM 0.01 32.018 0.096 7.18 3.98 13.69
1/30/2021 8:15:00 AM 0.01 32.018 0.093 7.19 4.06 13.72
1/30/2021 8:30:00 AM 0.01 32.018 0.104 7.2 4.34 13.75
1/30/2021 8:45:00 AM 0.01 32.018 0.094 7.2 3.93 13.78
1/30/2021 9:00:00 AM 0.01 32.018 0.099 7.2 3.86 13.83
1/30/2021 9:15:00 AM 0.01 32.018 0.096 7.21 3.87 13.86
1/30/2021 9:30:00 AM 0.01 32.018 0.1 7.21 3.96 13.9
1/30/2021 9:45:00 AM 0.02 32.036 0.093 7.22 4.1 13.94
1/30/2021 10:00:00 AM 0.02 32.036 0.094 7.22 4.11 13.97
1/30/2021 10:15:00 AM 0.02 32.036 0.101 7.24 4.22 14
1/30/2021 10:30:00 AM 0.02 32.036 0.1 7.25 4.6 14.02
1/30/2021 10:45:00 AM 0.02 32.036 0.1 7.24 3.82 14.04
1/30/2021 11:00:00 AM 0.03 32.054 0.1 7.25 3.9 14.05
1/30/2021 11:15:00 AM 0.04 32.072 0.1 7.25 3.9 14.06
1/30/2021 11:30:00 AM 0.06 32.108 0.099 7.26 3.86 14.06
1/30/2021 11:45:00 AM 0.08 32.144 0.1 7.26 4.01 14.06
1/30/2021 12:00:00 PM 0.1 32.18 0.099 7.26 3.89 14.07
1/30/2021 12:15:00 PM 0.11 32.198 0.099 7.27 3.91 14.07
1/30/2021 12:30:00 PM 0.12 32.216 0.099 7.27 3.78 14.08
1/30/2021 12:45:00 PM 0.14 32.252 0.098 7.27 3.67 14.08
1/30/2021 1:00:00 PM 0.16 32.288 0.098 7.28 3.67 14.08
1/30/2021 1:15:00 PM 0.19 32.342 0.095 7.28 3.82 14.09
1/30/2021 1:30:00 PM 0.21 32.378 0.097 7.29 3.91 14.08
1/30/2021 1:45:00 PM 0.22 32.396 0.097 7.29 3.74 14.09
1/30/2021 2:00:00 PM 0.23 32.414 0.097 7.29 3.63 14.1
1/30/2021 2:15:00 PM 0.24 32.432 0.097 7.29 3.67 14.11
1/30/2021 2:30:00 PM 0.25 32.45 0.099 7.3 3.96 14.12
1/30/2021 2:45:00 PM 0.24 32.432 0.097 7.3 3.55 14.12
1/30/2021 3:00:00 PM 0.24 32.432 0.097 7.3 3.66 14.13
1/30/2021 3:15:00 PM 0.23 32.414 0.097 7.3 3.69 14.14
1/30/2021 3:30:00 PM 0.21 32.378 0.097 7.3 3.67 14.16
1/30/2021 3:45:00 PM 0.19 32.342 0.097 7.31 3.56 14.16
1/30/2021 4:00:00 PM 0.17 32.306 0.097 7.31 3.91 14.16
1/30/2021 4:15:00 PM 0.16 32.288 0.097 7.3 3.68 14.16
1/30/2021 4:30:00 PM 0.14 32.252 0.097 7.31 3.67 14.16
1/30/2021 4:45:00 PM 0.12 32.216 0.097 7.3 3.86 14.15
1/30/2021 5:00:00 PM 0.1 32.18 0.097 7.3 3.97 14.13
1/30/2021 5:15:00 PM 0.07 32.126 0.095 7.3 3.87 14.11
1/30/2021 5:30:00 PM 0.06 32.108 0.099 7.28 3.66 14.08
1/30/2021 5:45:00 PM 0.05 32.09 0.098 7.28 3.59 14.05
1/30/2021 6:00:00 PM 0.04 32.072 0.098 7.28 3.67 14.03
1/30/2021 6:15:00 PM 0.03 32.054 0.098 7.28 3.58 14.01
1/30/2021 6:30:00 PM 0.02 32.036 0.098 7.28 3.66 14
1/30/2021 6:45:00 PM 0.01 32.018 0.098 7.27 3.6 13.98
1/30/2021 7:00:00 PM 0.01 32.018 0.098 7.27 3.67 13.97
1/30/2021 7:15:00 PM 0 32 0.098 7.26 3.68 13.97
1/30/2021 7:30:00 PM 0 32 0.098 7.26 3.7 13.96
1/30/2021 7:45:00 PM -0.01 31.982 0.098 7.25 3.73 13.96
1/30/2021 8:00:00 PM -0.02 31.964 0.098 7.26 3.7 13.95
1/30/2021 8:15:00 PM -0.02 31.964 0.098 7.26 3.54 13.94
1/30/2021 8:30:00 PM -0.02 31.964 0.097 7.25 4.2 13.94
1/30/2021 8:45:00 PM -0.02 31.964 0.098 7.25 3.4 13.94
1/30/2021 9:00:00 PM -0.02 31.964 0.096 7.24 5.12 13.94
1/30/2021 9:15:00 PM -0.01 31.982 0.098 7.23 5.81 13.93
1/30/2021 9:30:00 PM -0.01 31.982 0.102 7.23 5.53 13.92
1/30/2021 9:45:00 PM -0.01 31.982 0.095 7.24 8.45 13.92
1/30/2021 10:00:00 PM -0.01 31.982 0.094 7.24 8.33 13.91
1/30/2021 10:15:00 PM -0.01 31.982 0.096 7.23 5.25 13.91
1/30/2021 10:30:00 PM 0 32 0.097 7.22 3.66 13.9
1/30/2021 10:45:00 PM 0 32 0.093 7.22 3.61 13.89
1/30/2021 11:00:00 PM 0 32 0.097 7.21 4.41 13.89
1/30/2021 11:15:00 PM 0 32 0.093 7.19 4.16 13.87
1/30/2021 11:30:00 PM 0 32 0.093 7.21 4.07 13.87
1/30/2021 11:45:00 PM 0 32 0.096 7.21 3.93 13.87
1/31/2021 12:00:00 AM 0 32 0.098 7.21 3.86 13.86
1/31/2021 12:15:00 AM 0 32 0.094 7.21 3.92 13.86
1/31/2021 12:30:00 AM 0 32 0.094 7.21 3.83 13.86
1/31/2021 12:45:00 AM 0 32 0.098 7.21 3.81 13.85
1/31/2021 1:00:00 AM 0 32 0.092 7.21 4.16 13.85
1/31/2021 1:15:00 AM 0 32 0.093 7.2 4.27 13.85
1/31/2021 1:30:00 AM 0 32 0.101 7.2 4.39 13.84
1/31/2021 1:45:00 AM 0 32 0.095 7.2 4.77 13.82
1/31/2021 2:00:00 AM 0 32 0.099 7.2 5.14 13.83
1/31/2021 2:15:00 AM 0 32 0.101 7.2 5.34 13.82
1/31/2021 2:30:00 AM 0 32 0.094 7.2 5.46 13.82
1/31/2021 2:45:00 AM 0 32 0.1 7.2 5.76 13.8
1/31/2021 3:00:00 AM 0 32 0.102 7.18 5.61 13.79
1/31/2021 3:15:00 AM 0 32 0.102 7.2 5.9 13.8
1/31/2021 3:30:00 AM 0 32 0.102 7.2 5.87 13.79
1/31/2021 3:45:00 AM 0 32 0.103 7.19 5.94 13.79
1/31/2021 4:00:00 AM 0 32 0.104 7.19 5.87 13.77
1/31/2021 4:15:00 AM 0 32 0.096 7.2 6.26 13.77
1/31/2021 4:30:00 AM 0 32 0.103 7.19 6.47 13.77
1/31/2021 4:45:00 AM 0 32 0.103 7.19 6.29 13.76
1/31/2021 5:00:00 AM 0 32 0.103 7.19 6.45 13.76
1/31/2021 5:15:00 AM 0 32 0.104 7.19 6.44 13.75
1/31/2021 5:30:00 AM 0 32 0.104 7.19 6.6 13.75
1/31/2021 5:45:00 AM 0 32 0.104 7.19 6.86 13.74
1/31/2021 6:00:00 AM 0 32 0.097 7.19 7.62 13.74
1/31/2021 6:15:00 AM 0 32 0.099 7.19 8.62 13.73
1/31/2021 6:30:00 AM 0 32 0.097 7.18 5.19 13.72
1/31/2021 6:45:00 AM 0 32 0.097 7.18 3.96 13.72
1/31/2021 7:00:00 AM 0 32 0.106 7.18 4.8 13.71
1/31/2021 7:15:00 AM 0 32 0.103 7.18 3.84 13.7
1/31/2021 7:30:00 AM 0 32 0.107 7.18 4.49 13.7
1/31/2021 7:45:00 AM 0 32 0.101 7.18 3.64 13.71
1/31/2021 8:00:00 AM 0 32 0.105 7.18 4.82 13.72
1/31/2021 8:15:00 AM 0.01 32.018 0.104 7.18 3.78 13.74
1/31/2021 8:30:00 AM 0.01 32.018 0.104 7.19 3.67 13.76
1/31/2021 8:45:00 AM 0.01 32.018 0.104 7.19 3.75 13.79
1/31/2021 9:00:00 AM 0.01 32.018 0.104 7.19 3.6 13.81
1/31/2021 9:15:00 AM 0.01 32.018 0.104 7.2 4.09 13.86
1/31/2021 9:30:00 AM 0.01 32.018 0.104 7.2 3.88 13.88
1/31/2021 9:45:00 AM 0.01 32.018 0.104 7.21 3.89 13.92
1/31/2021 10:00:00 AM 0.01 32.018 0.104 7.21 3.82 13.96
1/31/2021 10:15:00 AM 0.01 32.018 0.103 7.22 3.83 13.99
1/31/2021 10:30:00 AM 0.02 32.036 0.104 7.22 3.69 14.03
1/31/2021 10:45:00 AM 0.02 32.036 0.103 7.22 3.7 14.04
1/31/2021 11:00:00 AM 0.02 32.036 0.103 7.23 4.07 14.08
1/31/2021 11:15:00 AM 0.02 32.036 0.103 7.24 3.79 14.09
1/31/2021 11:30:00 AM 0.03 32.054 0.102 7.23 4.09 14.1
1/31/2021 11:45:00 AM 0.03 32.054 0.102 7.24 4.11 14.1
1/31/2021 12:00:00 PM 0.03 32.054 0.092 7.24 4.2 14.1
1/31/2021 12:15:00 PM 0.04 32.072 0.102 7.25 4.39 14.12
1/31/2021 12:30:00 PM 0.05 32.09 0.091 7.24 4.28 14.13
1/31/2021 12:45:00 PM 0.06 32.108 0.093 7.25 3.94 14.14
1/31/2021 1:00:00 PM 0.08 32.144 0.105 7.25 4.32 14.15
1/31/2021 1:15:00 PM 0.1 32.18 0.093 7.26 3.89 14.16
1/31/2021 1:30:00 PM 0.12 32.216 0.105 7.26 3.94 14.17
1/31/2021 1:45:00 PM 0.14 32.252 0.092 7.27 3.6 14.19
1/31/2021 2:00:00 PM 0.16 32.288 0.1 7.28 3.55 14.2
1/31/2021 2:15:00 PM 0.16 32.288 0.092 7.27 4.08 14.21
1/31/2021 2:30:00 PM 0.16 32.288 0.1 7.28 3.83 14.2
1/31/2021 2:45:00 PM 0.16 32.288 0.099 7.28 3.6 14.21
1/31/2021 3:00:00 PM 0.16 32.288 0.103 7.28 4.28 14.21
1/31/2021 3:15:00 PM 0.16 32.288 0.102 7.29 3.97 14.2
1/31/2021 3:30:00 PM 0.15 32.27 0.1 7.3 3.88 14.2
1/31/2021 3:45:00 PM 0.14 32.252 0.099 7.3 3.57 14.2
1/31/2021 4:00:00 PM 0.13 32.234 0.103 7.29 4.76 14.19
1/31/2021 4:15:00 PM 0.13 32.234 0.099 7.3 3.61 14.18
1/31/2021 4:30:00 PM 0.13 32.234 0.099 7.3 3.61 14.17
1/31/2021 4:45:00 PM 0.12 32.216 0.099 7.29 3.47 14.15
1/31/2021 5:00:00 PM 0.11 32.198 0.097 7.29 3.64 14.12
1/31/2021 5:15:00 PM 0.1 32.18 0.099 7.29 3.49 14.08
1/31/2021 5:30:00 PM 0.1 32.18 0.095 7.28 4.06 14.05
1/31/2021 5:45:00 PM 0.09 32.162 0.099 7.28 3.59 14.02
1/31/2021 6:00:00 PM 0.09 32.162 0.099 7.27 3.51 13.99
1/31/2021 6:15:00 PM 0.08 32.144 0.092 7.27 3.58 13.96
1/31/2021 6:30:00 PM 0.08 32.144 0.099 7.27 3.49 13.93
1/31/2021 6:45:00 PM 0.08 32.144 0.095 7.26 5.21 13.91
1/31/2021 7:00:00 PM 0.07 32.126 0.092 7.25 3.52 13.88
1/31/2021 7:15:00 PM 0.07 32.126 0.099 7.26 3.49 13.86
1/31/2021 7:30:00 PM 0.07 32.126 0.104 7.25 4.47 13.86
1/31/2021 7:45:00 PM 0.07 32.126 0.099 7.25 3.54 13.83
1/31/2021 8:00:00 PM 0.07 32.126 0.1 7.25 3.44 13.83
1/31/2021 8:15:00 PM 0.06 32.108 0.1 7.25 3.5 13.82
1/31/2021 8:30:00 PM 0.06 32.108 0.103 7.23 3.83 13.81
1/31/2021 8:45:00 PM 0.06 32.108 0.091 7.24 3.58 13.8
1/31/2021 9:00:00 PM 0.05 32.09 0.098 7.24 4.03 13.78
1/31/2021 9:15:00 PM 0.05 32.09 0.099 7.24 3.48 13.77
1/31/2021 9:30:00 PM 0.05 32.09 0.099 7.24 3.41 13.77
1/31/2021 9:45:00 PM 0.05 32.09 0.099 7.23 3.5 13.75
1/31/2021 10:00:00 PM 0.05 32.09 0.099 7.24 3.47 13.74
1/31/2021 10:15:00 PM 0.04 32.072 0.099 7.23 3.47 13.73
1/31/2021 10:30:00 PM 0.04 32.072 0.099 7.23 3.39 13.71
1/31/2021 10:45:00 PM 0.04 32.072 0.099 7.23 3.45 13.7
1/31/2021 11:00:00 PM 0.05 32.09 0.099 7.22 3.65 13.7
1/31/2021 11:15:00 PM 0.05 32.09 0.099 7.22 3.54 13.69
1/31/2021 11:30:00 PM 0.05 32.09 0.099 7.22 3.6 13.68
1/31/2021 11:45:00 PM 0.04 32.072 0.099 7.22 3.41 13.67
2/1/2021 12:00:00 AM 0.03 32.054 0.099 7.22 3.43 13.66
2/1/2021 12:15:00 AM 0.04 32.072 0.099 7.22 3.4 13.66
2/1/2021 12:30:00 AM 0.03 32.054 0.099 7.21 3.58 13.65
2/1/2021 12:45:00 AM 0.03 32.054 0.098 7.22 3.59 13.64
2/1/2021 1:00:00 AM 0.02 32.036 0.098 7.22 3.47 13.64
2/1/2021 1:15:00 AM 0.02 32.036 0.098 7.22 3.49 13.63
2/1/2021 1:30:00 AM 0.02 32.036 0.098 7.22 3.53 13.63
2/1/2021 1:45:00 AM 0.02 32.036 0.098 7.22 3.45 13.62
2/1/2021 2:00:00 AM 0.02 32.036 0.098 7.21 5.24 13.62
2/1/2021 2:15:00 AM 0.02 32.036 0.098 7.22 3.84 13.61
2/1/2021 2:30:00 AM 0.02 32.036 0.096 7.21 3.52 13.61
2/1/2021 2:45:00 AM 0.02 32.036 0.102 7.21 4.23 13.61
2/1/2021 3:00:00 AM 0.03 32.054 0.09 7.21 3.67 13.6
2/1/2021 3:15:00 AM 0.03 32.054 0.102 7.21 4.46 13.59
2/1/2021 3:30:00 AM 0.02 32.036 0.089 7.21 3.62 13.58
2/1/2021 3:45:00 AM 0.02 32.036 0.102 7.21 3.99 13.58
2/1/2021 4:00:00 AM 0.03 32.054 0.09 7.21 3.7 13.58
2/1/2021 4:15:00 AM 0.03 32.054 0.102 7.21 4 13.57
2/1/2021 4:30:00 AM 0.04 32.072 0.09 7.21 3.73 13.57
2/1/2021 4:45:00 AM 0.04 32.072 0.102 7.2 4.09 13.56
2/1/2021 5:00:00 AM 0.03 32.054 0.098 7.21 3.6 13.56
2/1/2021 5:15:00 AM 0.03 32.054 0.091 7.2 3.69 13.56
2/1/2021 5:30:00 AM 0.03 32.054 0.091 7.2 3.64 13.55
2/1/2021 5:45:00 AM 0.03 32.054 0.102 7.2 3.64 13.55
2/1/2021 6:00:00 AM 0.03 32.054 0.09 7.2 3.68 13.55
2/1/2021 6:15:00 AM 0.03 32.054 0.09 7.2 3.64 13.54
2/1/2021 6:30:00 AM 0.02 32.036 0.098 7.2 4.12 13.55
2/1/2021 6:45:00 AM 0.02 32.036 0.09 7.2 3.7 13.54
2/1/2021 7:00:00 AM 0.02 32.036 0.102 7.2 4.2 13.54
2/1/2021 7:15:00 AM 0.02 32.036 0.098 7.21 3.58 13.54
2/1/2021 7:30:00 AM 0.02 32.036 0.102 7.2 4.97 13.55
2/1/2021 7:45:00 AM 0.02 32.036 0.097 7.2 4.36 13.55
2/1/2021 8:00:00 AM 0.03 32.054 0.098 7.21 3.63 13.57
2/1/2021 8:15:00 AM 0.03 32.054 0.098 7.21 3.59 13.59
2/1/2021 8:30:00 AM 0.04 32.072 0.092 7.21 3.63 13.62
2/1/2021 8:45:00 AM 0.05 32.09 0.089 7.22 3.7 13.63
2/1/2021 9:00:00 AM 0.06 32.108 0.09 7.22 3.65 13.68
2/1/2021 9:15:00 AM 0.08 32.144 0.097 7.24 3.52 13.71
2/1/2021 9:30:00 AM 0.09 32.162 0.094 7.22 4.79 13.74
2/1/2021 9:45:00 AM 0.1 32.18 0.093 7.24 3.54 13.77
2/1/2021 10:00:00 AM 0.1 32.18 0.091 7.24 3.59 13.79
2/1/2021 10:15:00 AM 0.11 32.198 0.094 7.25 3.99 13.81
2/1/2021 10:30:00 AM 0.12 32.216 0.09 7.25 3.66 13.82
2/1/2021 10:45:00 AM 0.14 32.252 0.097 7.25 3.52 13.84
2/1/2021 11:00:00 AM 0.16 32.288 0.09 7.26 3.54 13.85
2/1/2021 11:15:00 AM 0.16 32.288 0.1 7.26 4.38 13.85
2/1/2021 11:30:00 AM 0.16 32.288 0.09 7.26 3.65 13.86
2/1/2021 11:45:00 AM 0.16 32.288 0.097 7.27 3.56 13.87
2/1/2021 12:00:00 PM 0.18 32.324 0.102 7.27 4.21 13.88
2/1/2021 12:15:00 PM 0.19 32.342 0.093 7.27 3.6 13.89
2/1/2021 12:30:00 PM 0.18 32.324 0.099 7.28 4.07 13.9
2/1/2021 12:45:00 PM 0.16 32.288 0.102 7.27 3.62 13.91
2/1/2021 1:00:00 PM 0.15 32.27 0.09 7.28 3.55 13.92
2/1/2021 1:15:00 PM 0.15 32.27 0.102 7.28 3.83 13.92
2/1/2021 1:30:00 PM 0.14 32.252 0.091 7.29 3.47 13.93
2/1/2021 1:45:00 PM 0.15 32.27 0.1 7.29 4.19 13.93
2/1/2021 2:00:00 PM 0.14 32.252 0.102 7.29 3.7 13.94
2/1/2021 2:15:00 PM 0.13 32.234 0.092 7.29 3.55 13.95
2/1/2021 2:30:00 PM 0.13 32.234 0.101 7.29 3.62 13.95
2/1/2021 2:45:00 PM 0.13 32.234 0.089 7.3 3.66 13.97
2/1/2021 3:00:00 PM 0.13 32.234 0.1 7.3 4.28 13.95
2/1/2021 3:15:00 PM 0.13 32.234 0.095 7.3 3.91 13.96
2/1/2021 3:30:00 PM 0.11 32.198 0.102 7.3 3.95 13.95
2/1/2021 3:45:00 PM 0.1 32.18 0.097 7.3 3.54 13.94
2/1/2021 4:00:00 PM 0.09 32.162 0.093 7.28 3.92 13.93
2/1/2021 4:15:00 PM 0.08 32.144 0.1 7.29 4.34 13.92
2/1/2021 4:30:00 PM 0.07 32.126 0.098 7.3 3.51 13.91
2/1/2021 4:45:00 PM 0.07 32.126 0.099 7.29 3.58 13.89
2/1/2021 5:00:00 PM 0.06 32.108 0.099 7.29 3.77 13.87
2/1/2021 5:15:00 PM 0.06 32.108 0.099 7.28 3.62 13.85
2/1/2021 5:30:00 PM 0.05 32.09 0.098 7.28 4.57 13.82
2/1/2021 5:45:00 PM 0.04 32.072 0.098 7.28 3.83 13.81
2/1/2021 6:00:00 PM 0.04 32.072 0.098 7.27 3.78 13.78
2/1/2021 6:15:00 PM 0.03 32.054 0.085 7.27 3.79 13.77
2/1/2021 6:30:00 PM 0.02 32.036 0.098 7.27 3.48 13.74
2/1/2021 6:45:00 PM 0.02 32.036 0.097 7.25 3.5 13.73
2/1/2021 7:00:00 PM 0.01 32.018 0.097 7.26 3.51 13.71
2/1/2021 7:15:00 PM 0.01 32.018 0.097 7.26 3.63 13.7
2/1/2021 7:30:00 PM 0.01 32.018 0.1 7.25 4.78 13.69
2/1/2021 7:45:00 PM 0.01 32.018 0.098 7.24 3.8 13.7
2/1/2021 8:00:00 PM 0.01 32.018 0.093 7.25 3.8 13.69
2/1/2021 8:15:00 PM 0 32 0.095 7.25 4.37 13.69
2/1/2021 8:30:00 PM 0 32 0.094 7.25 3.87 13.68
2/1/2021 8:45:00 PM 0.01 32.018 0.101 7.24 3.75 13.68
2/1/2021 9:00:00 PM 0.01 32.018 0.097 7.24 3.78 13.67
2/1/2021 9:15:00 PM 0 32 0.097 7.24 3.82 13.66
2/1/2021 9:30:00 PM 0.01 32.018 0.097 7.24 3.86 13.65
2/1/2021 9:45:00 PM 0 32 0.098 7.22 3.73 13.64
2/1/2021 10:00:00 PM 0.01 32.018 0.098 7.24 3.84 13.63
2/1/2021 10:15:00 PM 0 32 0.097 7.24 3.91 13.63
2/1/2021 10:30:00 PM 0.01 32.018 0.098 7.23 3.7 13.62
2/1/2021 10:45:00 PM 0 32 0.098 7.23 3.74 13.61
2/1/2021 11:00:00 PM 0.01 32.018 0.098 7.22 3.69 13.6
2/1/2021 11:15:00 PM 0.01 32.018 0.095 7.22 3.86 13.6
2/1/2021 11:30:00 PM 0.01 32.018 0.099 7.22 4.68 13.58
2/1/2021 11:45:00 PM 0.01 32.018 0.101 7.22 3.53 13.59
2/2/2021 12:00:00 AM 0.01 32.018 0.098 7.22 3.88 13.58
2/2/2021 12:15:00 AM 0 32 0.097 7.22 4.12 13.57
2/2/2021 12:30:00 AM 0.01 32.018 0.098 7.22 3.86 13.56
2/2/2021 12:45:00 AM 0.01 32.018 0.095 7.21 3.76 13.55
2/2/2021 1:00:00 AM 0.01 32.018 0.087 7.21 3.97 13.55
2/2/2021 1:15:00 AM 0 32 0.102 7.21 3.98 13.54
2/2/2021 1:30:00 AM 0.01 32.018 0.09 7.21 4.06 13.54
2/2/2021 1:45:00 AM 0 32 0.102 7.21 4.08 13.53
2/2/2021 2:00:00 AM 0.01 32.018 0.093 7.21 4.07 13.52
2/2/2021 2:15:00 AM 0.01 32.018 0.102 7.21 4.79 13.52
2/2/2021 2:30:00 AM 0.01 32.018 0.092 7.21 3.85 13.51
2/2/2021 2:45:00 AM 0.01 32.018 0.101 7.2 4.48 13.5
2/2/2021 3:00:00 AM 0.01 32.018 0.102 7.2 3.99 13.5
2/2/2021 3:15:00 AM 0.01 32.018 0.102 7.2 4.35 13.49
2/2/2021 3:30:00 AM 0.01 32.018 0.09 7.2 3.86 13.48
2/2/2021 3:45:00 AM 0.01 32.018 0.087 7.2 3.74 13.47
2/2/2021 4:00:00 AM 0.01 32.018 0.099 7.2 3.73 13.46
2/2/2021 4:15:00 AM 0.01 32.018 0.094 7.2 3.8 13.46
2/2/2021 4:30:00 AM 0.01 32.018 0.09 7.2 3.84 13.47
2/2/2021 4:45:00 AM 0.01 32.018 0.098 7.2 4.32 13.45
2/2/2021 5:00:00 AM 0.01 32.018 0.102 7.2 3.69 13.44
2/2/2021 5:15:00 AM 0.01 32.018 0.099 7.2 3.65 13.44
2/2/2021 5:30:00 AM 0.01 32.018 0.099 7.2 3.63 13.44
2/2/2021 5:45:00 AM 0.01 32.018 0.097 7.19 5.62 13.42
2/2/2021 6:00:00 AM 0.01 32.018 0.097 7.19 4.49 13.41
2/2/2021 6:15:00 AM 0.01 32.018 0.098 7.19 4.57 13.41
2/2/2021 6:30:00 AM 0.01 32.018 0.093 7.19 3.85 13.42
2/2/2021 6:45:00 AM 0.01 32.018 0.103 7.19 4.26 13.42
2/2/2021 7:00:00 AM 0.01 32.018 0.103 7.19 4.1 13.42
2/2/2021 7:15:00 AM 0.01 32.018 0.099 7.19 3.71 13.41
2/2/2021 7:30:00 AM 0.01 32.018 0.102 7.19 4.75 13.41
2/2/2021 7:45:00 AM 0.01 32.018 0.102 7.19 3.9 13.41
2/2/2021 8:00:00 AM 0.01 32.018 0.099 7.2 3.78 13.42
2/2/2021 8:15:00 AM 0.01 32.018 0.099 7.2 3.77 13.44
2/2/2021 8:30:00 AM 0.01 32.018 0.097 7.2 3.69 13.45
2/2/2021 8:45:00 AM 0.01 32.018 0.098 7.2 3.67 13.48
2/2/2021 9:00:00 AM 0.01 32.018 0.097 7.21 3.73 13.51
2/2/2021 9:15:00 AM 0.02 32.036 0.101 7.22 4.24 13.54
2/2/2021 9:30:00 AM 0.02 32.036 0.098 7.22 3.72 13.57
2/2/2021 9:45:00 AM 0.02 32.036 0.098 7.22 3.81 13.6
2/2/2021 10:00:00 AM 0.03 32.054 0.098 7.23 3.77 13.62
2/2/2021 10:15:00 AM 0.04 32.072 0.098 7.24 3.8 13.65
2/2/2021 10:30:00 AM 0.05 32.09 0.098 7.23 3.89 13.67
2/2/2021 10:45:00 AM 0.06 32.108 0.098 7.24 3.88 13.68
2/2/2021 11:00:00 AM 0.08 32.144 0.091 7.25 3.88 13.7
2/2/2021 11:15:00 AM 0.08 32.144 0.086 7.25 4.15 13.71
2/2/2021 11:30:00 AM 0.1 32.18 0.099 7.26 4.02 13.72
2/2/2021 11:45:00 AM 0.11 32.198 0.099 7.26 3.9 13.74
2/2/2021 12:00:00 PM 0.11 32.198 0.098 7.27 3.93 13.75
2/2/2021 12:15:00 PM 0.12 32.216 0.098 7.27 3.72 13.76
2/2/2021 12:30:00 PM 0.12 32.216 0.098 7.27 3.86 13.76
2/2/2021 12:45:00 PM 0.12 32.216 0.104 7.28 4.46 13.77
2/2/2021 1:00:00 PM 0.12 32.216 0.105 7.28 3.95 13.79
2/2/2021 1:15:00 PM 0.12 32.216 0.109 7.28 4.43 13.8
2/2/2021 1:30:00 PM 0.12 32.216 0.106 7.29 5.12 13.8
2/2/2021 1:45:00 PM 0.11 32.198 0.103 7.29 4.77 13.82
2/2/2021 2:00:00 PM 0.11 32.198 0.101 7.29 4.3 13.82
2/2/2021 2:15:00 PM 0.11 32.198 0.104 7.29 4.25 13.83
2/2/2021 2:30:00 PM 0.1 32.18 0.095 7.29 4.53 13.84
2/2/2021 2:45:00 PM 0.1 32.18 0.099 7.3 4.58 13.84
2/2/2021 3:00:00 PM 0.09 32.162 0.094 7.3 4.86 13.84
2/2/2021 3:15:00 PM 0.09 32.162 0.098 7.3 4.11 13.84
2/2/2021 3:30:00 PM 0.08 32.144 0.092 7.3 4.39 13.84
2/2/2021 3:45:00 PM 0.08 32.144 0.102 7.3 5.05 13.83
2/2/2021 4:00:00 PM 0.08 32.144 0.09 7.29 3.99 13.82
2/2/2021 4:15:00 PM 0.07 32.126 0.099 7.3 4.68 13.81
2/2/2021 4:30:00 PM 0.06 32.108 0.102 7.29 4.12 13.78
2/2/2021 4:45:00 PM 0.06 32.108 0.096 7.29 4.04 13.78
2/2/2021 5:00:00 PM 0.05 32.09 0.102 7.29 4.08 13.76
2/2/2021 5:15:00 PM 0.05 32.09 0.09 7.28 4.14 13.73
2/2/2021 5:30:00 PM 0.04 32.072 0.087 7.28 4.15 13.71
2/2/2021 5:45:00 PM 0.04 32.072 0.092 7.28 4.27 13.69
2/2/2021 6:00:00 PM 0.04 32.072 0.088 7.27 4.98 13.67
2/2/2021 6:15:00 PM 0.04 32.072 0.09 7.26 4.42 13.65
2/2/2021 6:30:00 PM 0.04 32.072 0.098 7.27 4.26 13.64
2/2/2021 6:45:00 PM 0.04 32.072 0.091 7.26 4.13 13.63
2/2/2021 7:00:00 PM 0.04 32.072 0.098 7.26 4.86 13.61
2/2/2021 7:15:00 PM 0.04 32.072 0.1 7.26 4.61 13.6
2/2/2021 7:30:00 PM 0.04 32.072 0.091 7.26 5.17 13.6
2/2/2021 7:45:00 PM 0.04 32.072 0.102 7.25 4.69 13.58
2/2/2021 8:00:00 PM 0.03 32.054 0.097 7.25 4.27 13.58
2/2/2021 8:15:00 PM 0.03 32.054 0.091 7.25 4.25 13.57
2/2/2021 8:30:00 PM 0.03 32.054 0.101 7.25 5.09 13.55
2/2/2021 8:45:00 PM 0.03 32.054 0.089 7.23 4.13 13.56
2/2/2021 9:00:00 PM 0.03 32.054 0.088 7.24 4.03 13.54
2/2/2021 9:15:00 PM 0.03 32.054 0.088 7.24 4.49 13.52
2/2/2021 9:30:00 PM 0.03 32.054 0.09 7.24 4.38 13.53
2/2/2021 9:45:00 PM 0.03 32.054 0.088 7.24 4.18 13.51
2/2/2021 10:00:00 PM 0.03 32.054 0.093 7.24 4.55 13.51
2/2/2021 10:15:00 PM 0.03 32.054 0.099 7.24 4.75 13.51
2/2/2021 10:30:00 PM 0.03 32.054 0.098 7.24 3.98 13.5
2/2/2021 10:45:00 PM 0.03 32.054 0.099 7.24 4.47 13.49
2/2/2021 11:00:00 PM 0.02 32.036 0.087 7.24 4.37 13.49
2/2/2021 11:15:00 PM 0.03 32.054 0.098 7.24 4.02 13.48
2/2/2021 11:30:00 PM 0.03 32.054 0.101 7.23 4.39 13.48
2/2/2021 11:45:00 PM 0.03 32.054 0.098 7.23 4.71 13.47
2/3/2021 12:00:00 AM 0.02 32.036 0.098 7.23 4.07 13.47
2/3/2021 12:15:00 AM 0.03 32.054 0.098 7.23 4.01 13.46
2/3/2021 12:30:00 AM 0.03 32.054 0.098 7.23 4.06 13.45
2/3/2021 12:45:00 AM 0.03 32.054 0.098 7.23 3.76 13.45
2/3/2021 1:00:00 AM 0.03 32.054 0.087 7.23 4.12 13.45
2/3/2021 1:15:00 AM 0.03 32.054 0.102 7.23 4.46 13.44
2/3/2021 1:30:00 AM 0.03 32.054 0.092 7.23 4.21 13.44
2/3/2021 1:45:00 AM 0.03 32.054 0.102 7.23 4.22 13.43
2/3/2021 2:00:00 AM 0.03 32.054 0.09 7.23 4.04 13.43
2/3/2021 2:15:00 AM 0.03 32.054 0.097 7.23 3.97 13.42
2/3/2021 2:30:00 AM 0.03 32.054 0.088 7.23 4.24 13.43
2/3/2021 2:45:00 AM 0.03 32.054 0.098 7.23 4.17 13.42
2/3/2021 3:00:00 AM 0.03 32.054 0.101 7.23 4.81 13.41
2/3/2021 3:15:00 AM 0.03 32.054 0.102 7.22 4.17 13.41
2/3/2021 3:30:00 AM 0.04 32.072 0.09 7.22 4.1 13.41
2/3/2021 3:45:00 AM 0.04 32.072 0.088 7.22 4.19 13.41
2/3/2021 4:00:00 AM 0.04 32.072 0.09 7.22 4.03 13.4
2/3/2021 4:15:00 AM 0.04 32.072 0.098 7.22 4.54 13.41
2/3/2021 4:30:00 AM 0.04 32.072 0.101 7.22 5.46 13.4
2/3/2021 4:45:00 AM 0.04 32.072 0.09 7.22 4.15 13.4
2/3/2021 5:00:00 AM 0.05 32.09 0.092 7.22 6.02 13.39
2/3/2021 5:15:00 AM 0.05 32.09 0.098 7.22 3.94 13.39
2/3/2021 5:30:00 AM 0.05 32.09 0.088 7.22 4.16 13.4
2/3/2021 5:45:00 AM 0.04 32.072 0.098 7.22 4.4 13.39
2/3/2021 6:00:00 AM 0.04 32.072 0.098 7.22 4.09 13.39
2/3/2021 6:15:00 AM 0.04 32.072 0.105 7.22 4.54 13.39
2/3/2021 6:30:00 AM 0.04 32.072 0.108 7.22 4.07 13.39
2/3/2021 6:45:00 AM 0.04 32.072 0.103 7.22 4.53 13.39
2/3/2021 7:00:00 AM 0.04 32.072 0.091 7.22 4.34 13.39
2/3/2021 7:15:00 AM 0.04 32.072 0.104 7.22 5.01 13.4
2/3/2021 7:30:00 AM 0.04 32.072 0.099 7.22 4.1 13.4
2/3/2021 7:45:00 AM 0.05 32.09 0.102 7.24 4.79 13.41
2/3/2021 8:00:00 AM 0.05 32.09 0.092 7.23 4.68 13.44
2/3/2021 8:15:00 AM 0.06 32.108 0.099 7.23 4.2 13.46
2/3/2021 8:30:00 AM 0.06 32.108 0.103 7.23 4.12 13.49
2/3/2021 8:45:00 AM 0.07 32.126 0.091 7.24 4.24 13.52
2/3/2021 9:00:00 AM 0.08 32.144 0.102 7.25 4.91 13.55
2/3/2021 9:15:00 AM 0.09 32.162 0.099 7.26 3.91 13.59
2/3/2021 9:30:00 AM 0.1 32.18 0.103 7.26 4.38 13.62
2/3/2021 9:45:00 AM 0.1 32.18 0.102 7.27 3.91 13.65
2/3/2021 10:00:00 AM 0.12 32.216 0.102 7.28 4.22 13.68
2/3/2021 10:15:00 AM 0.13 32.234 0.103 7.28 4.67 13.69
2/3/2021 10:30:00 AM 0.14 32.252 0.1 7.28 4.21 13.72
2/3/2021 10:45:00 AM 0.15 32.27 0.1 7.28 4.37 13.73
2/3/2021 11:00:00 AM 0.17 32.306 0.099 7.29 3.88 13.75
2/3/2021 11:15:00 AM 0.17 32.306 0.101 7.29 4.35 13.76
2/3/2021 11:30:00 AM 0.18 32.324 0.1 7.3 4.3 13.77
2/3/2021 11:45:00 AM 0.17 32.306 0.1 7.3 3.95 13.79
2/3/2021 12:00:00 PM 0.17 32.306 0.101 7.3 4.31 13.79
2/3/2021 12:15:00 PM 0.17 32.306 0.1 7.31 4.49 13.8
2/3/2021 12:30:00 PM 0.17 32.306 0.101 7.31 4.24 13.82
2/3/2021 12:45:00 PM 0.17 32.306 0.1 7.31 5.35 13.82
2/3/2021 1:00:00 PM 0.17 32.306 0.1 7.31 6.17 13.84
2/3/2021 1:15:00 PM 0.16 32.288 0.1 7.31 6.97 13.84
2/3/2021 1:30:00 PM 0.16 32.288 0.1 7.32 5.7 13.86
2/3/2021 1:45:00 PM 0.17 32.306 0.1 7.32 4.83 13.87
2/3/2021 2:00:00 PM 0.16 32.288 0.1 7.32 4.39 13.88
2/3/2021 2:15:00 PM 0.14 32.252 0.101 7.33 4.07 13.88
2/3/2021 2:30:00 PM 0.13 32.234 0.1 7.32 4.15 13.88
2/3/2021 2:45:00 PM 0.12 32.216 0.1 7.32 4.14 13.88
2/3/2021 3:00:00 PM 0.11 32.198 0.1 7.33 4.3 13.87
2/3/2021 3:15:00 PM 0.1 32.18 0.1 7.32 3.93 13.86
2/3/2021 3:30:00 PM 0.09 32.162 0.1 7.32 4.14 13.84
2/3/2021 3:45:00 PM 0.08 32.144 0.1 7.32 4.06 13.84
2/3/2021 4:00:00 PM 0.07 32.126 0.101 7.32 4.12 13.84
2/3/2021 4:15:00 PM 0.07 32.126 0.1 7.31 4.11 13.83
2/3/2021 4:30:00 PM 0.07 32.126 0.102 7.32 4.31 13.82
2/3/2021 4:45:00 PM 0.06 32.108 0.102 7.32 4.34 13.81
2/3/2021 5:00:00 PM 0.06 32.108 0.1 7.3 4.14 13.78
2/3/2021 5:15:00 PM 0.06 32.108 0.101 7.3 4.86 13.78
2/3/2021 5:30:00 PM 0.06 32.108 0.1 7.3 4.28 13.76
2/3/2021 5:45:00 PM 0.06 32.108 0.1 7.29 4.21 13.74
2/3/2021 6:00:00 PM 0.06 32.108 0.102 7.29 4.07 13.71
2/3/2021 6:15:00 PM 0.06 32.108 0.101 7.28 4.67 13.7
2/3/2021 6:30:00 PM 0.07 32.126 0.102 7.28 4.07 13.68
2/3/2021 6:45:00 PM 0.07 32.126 0.1 7.27 3.89 13.66
2/3/2021 7:00:00 PM 0.07 32.126 0.102 7.27 4.07 13.65
2/3/2021 7:15:00 PM 0.07 32.126 0.102 7.28 4.32 13.63
2/3/2021 7:30:00 PM 0.07 32.126 0.103 7.27 3.95 13.62
2/3/2021 7:45:00 PM 0.07 32.126 0.102 7.27 4.21 13.62
2/3/2021 8:00:00 PM 0.06 32.108 0.099 7.26 3.94 13.62
2/3/2021 8:15:00 PM 0.06 32.108 0.101 7.26 4.01 13.6
2/3/2021 8:30:00 PM 0.06 32.108 0.102 7.26 4.86 13.61
2/3/2021 8:45:00 PM 0.06 32.108 0.102 7.26 4.29 13.59
2/3/2021 9:00:00 PM 0.06 32.108 0.1 7.26 4.07 13.59
2/3/2021 9:15:00 PM 0.06 32.108 0.101 7.25 4.4 13.58
2/3/2021 9:30:00 PM 0.06 32.108 0.1 7.25 3.94 13.58
2/3/2021 9:45:00 PM 0.06 32.108 0.102 7.25 4.13 13.58
2/3/2021 10:00:00 PM 0.05 32.09 0.1 7.24 4.17 13.56
2/3/2021 10:15:00 PM 0.06 32.108 0.102 7.26 4.82 13.56
2/3/2021 10:30:00 PM 0.06 32.108 0.101 7.24 4.31 13.56
2/3/2021 10:45:00 PM 0.06 32.108 0.1 7.24 4.08 13.55
2/3/2021 11:00:00 PM 0.06 32.108 0.102 7.25 4.05 13.55
2/3/2021 11:15:00 PM 0.06 32.108 0.1 7.24 4.07 13.54
2/3/2021 11:30:00 PM 0.06 32.108 0.101 7.24 4.43 13.55
2/3/2021 11:45:00 PM 0.06 32.108 0.101 7.24 4.51 13.54
2/4/2021 12:00:00 AM 0.06 32.108 0.1 7.24 4.12 13.54
2/4/2021 12:15:00 AM 0.06 32.108 0.102 7.24 4.56 13.54
2/4/2021 12:30:00 AM 0.06 32.108 0.102 7.24 4.23 13.53
2/4/2021 12:45:00 AM 0.05 32.09 0.101 7.24 4.16 13.53
2/4/2021 1:00:00 AM 0.05 32.09 0.102 7.24 4.13 13.53
2/4/2021 1:15:00 AM 0.05 32.09 0.102 7.24 4.31 13.53
2/4/2021 1:30:00 AM 0.05 32.09 0.101 7.23 4.25 13.53
2/4/2021 1:45:00 AM 0.05 32.09 0.101 7.23 4.18 13.53
2/4/2021 2:00:00 AM 0.05 32.09 0.103 7.23 4.33 13.53
2/4/2021 2:15:00 AM 0.05 32.09 0.1 7.23 4.12 13.53
2/4/2021 2:30:00 AM 0.05 32.09 0.103 7.24 4.11 13.53
2/4/2021 2:45:00 AM 0.05 32.09 0.104 7.23 4.8 13.53
2/4/2021 3:00:00 AM 0.04 32.072 0.101 7.23 4.2 13.53
2/4/2021 3:15:00 AM 0.04 32.072 0.1 7.23 4.82 13.53
2/4/2021 3:30:00 AM 0.03 32.054 0.101 7.23 4.31 13.53
2/4/2021 3:45:00 AM 0.03 32.054 0.1 7.23 3.98 13.53
2/4/2021 4:00:00 AM 0.02 32.036 0.102 7.23 4.57 13.53
2/4/2021 4:15:00 AM 0.02 32.036 0.102 7.23 4.63 13.54
2/4/2021 4:30:00 AM 0.01 32.018 0.103 7.23 4.11 13.54
2/4/2021 4:45:00 AM 0.01 32.018 0.101 7.23 4.25 13.53
2/4/2021 5:00:00 AM 0.01 32.018 0.101 7.23 4.08 13.54
2/4/2021 5:15:00 AM 0 32 0.102 7.23 4.3 13.55
2/4/2021 5:30:00 AM 0 32 0.102 7.23 4.1 13.55
2/4/2021 5:45:00 AM 0 32 0.103 7.23 4.53 13.55
2/4/2021 6:00:00 AM 0 32 0.101 7.22 4.45 13.55
2/4/2021 6:15:00 AM 0.01 32.018 0.102 7.22 4.11 13.56
2/4/2021 6:30:00 AM 0.02 32.036 0.102 7.22 4.32 13.56
2/4/2021 6:45:00 AM 0.03 32.054 0.101 7.23 4.28 13.56
2/4/2021 7:00:00 AM 0.03 32.054 0.103 7.22 4.16 13.55
2/4/2021 7:15:00 AM 0.04 32.072 0.101 7.22 4.13 13.56
2/4/2021 7:30:00 AM 0.04 32.072 0.101 7.22 4.3 13.56
2/4/2021 7:45:00 AM 0.05 32.09 0.103 7.22 4.27 13.57
2/4/2021 8:00:00 AM 0.05 32.09 0.104 7.24 4.37 13.59
2/4/2021 8:15:00 AM 0.06 32.108 0.103 7.24 4.71 13.62
2/4/2021 8:30:00 AM 0.07 32.126 0.103 7.25 5.14 13.65
2/4/2021 8:45:00 AM 0.07 32.126 0.103 7.26 4.29 13.68
2/4/2021 9:00:00 AM 0.09 32.162 0.103 7.26 4.87 13.72
2/4/2021 9:15:00 AM 0.1 32.18 0.103 7.27 4.68 13.76
2/4/2021 9:30:00 AM 0.12 32.216 0.103 7.27 4.33 13.8
2/4/2021 9:45:00 AM 0.14 32.252 0.104 7.28 4.84 13.84
2/4/2021 10:00:00 AM 0.17 32.306 0.103 7.28 4.87 13.87
2/4/2021 10:15:00 AM 0.21 32.378 0.103 7.29 4.73 13.89
2/4/2021 10:30:00 AM 0.23 32.414 0.103 7.29 4.07 13.91
2/4/2021 10:45:00 AM 0.26 32.468 0.103 7.3 4.27 13.92
2/4/2021 11:00:00 AM 0.29 32.522 0.103 7.3 4.29 13.93
2/4/2021 11:15:00 AM 0.33 32.594 0.101 7.3 4.1 13.93
2/4/2021 11:30:00 AM 0.37 32.666 0.101 7.3 4 13.93
2/4/2021 11:45:00 AM 0.4 32.72 0.101 7.31 4.04 13.93
2/4/2021 12:00:00 PM 0.42 32.756 0.1 7.31 3.97 13.93
2/4/2021 12:15:00 PM 0.45 32.81 0.1 7.31 3.9 13.94
2/4/2021 12:30:00 PM 0.49 32.882 0.101 7.31 4.24 13.94
2/4/2021 12:45:00 PM 0.51 32.918 0.1 7.32 3.75 13.95
2/4/2021 1:00:00 PM 0.53 32.954 0.103 7.32 4.16 13.95
2/4/2021 1:15:00 PM 0.56 33.008 0.103 7.34 4.1 13.95
2/4/2021 1:30:00 PM 0.58 33.044 0.101 7.33 4.1 13.95
2/4/2021 1:45:00 PM 0.59 33.062 0.101 7.33 4.18 13.95
2/4/2021 2:00:00 PM 0.59 33.062 0.103 7.35 4.38 13.95
2/4/2021 2:15:00 PM 0.59 33.062 0.103 7.35 4.11 13.96
2/4/2021 2:30:00 PM 0.57 33.026 0.102 7.35 4.36 13.96
2/4/2021 2:45:00 PM 0.56 33.008 0.103 7.36 4.47 13.97
2/4/2021 3:00:00 PM 0.53 32.954 0.102 7.35 4.16 13.98
2/4/2021 3:15:00 PM 0.5 32.9 0.101 7.35 4.32 13.98
2/4/2021 3:30:00 PM 0.46 32.828 0.102 7.35 4.46 13.98
2/4/2021 3:45:00 PM 0.42 32.756 0.103 7.36 4.84 13.99
2/4/2021 4:00:00 PM 0.38 32.684 0.102 7.36 4.63 13.99
2/4/2021 4:15:00 PM 0.34 32.612 0.102 7.35 5.04 13.99
2/4/2021 4:30:00 PM 0.31 32.558 0.102 7.35 4.87 13.99
2/4/2021 4:45:00 PM 0.27 32.486 0.103 7.35 4.64 13.99
2/4/2021 5:00:00 PM 0.24 32.432 0.103 7.35 4.49 13.98
2/4/2021 5:15:00 PM 0.2 32.36 0.103 7.35 4.5 13.97
2/4/2021 5:30:00 PM 0.17 32.306 0.103 7.34 4.83 13.94
2/4/2021 5:45:00 PM 0.14 32.252 0.103 7.33 4.39 13.91
2/4/2021 6:00:00 PM 0.12 32.216 0.103 7.32 4.96 13.88
2/4/2021 6:15:00 PM 0.1 32.18 0.103 7.32 4.94 13.86
2/4/2021 6:30:00 PM 0.08 32.144 0.103 7.31 4.31 13.83
2/4/2021 6:45:00 PM 0.07 32.126 0.103 7.31 4.9 13.82
2/4/2021 7:00:00 PM 0.05 32.09 0.104 7.3 4.96 13.8
2/4/2021 7:15:00 PM 0.04 32.072 0.104 7.3 5.04 13.79
2/4/2021 7:30:00 PM 0.03 32.054 0.104 7.29 4.86 13.78
2/4/2021 7:45:00 PM 0.02 32.036 0.104 7.29 4.88 13.77
2/4/2021 8:00:00 PM 0.02 32.036 0.104 7.28 4.9 13.76
2/4/2021 8:15:00 PM 0.01 32.018 0.104 7.28 4.67 13.76
2/4/2021 8:30:00 PM 0 32 0.104 7.27 4.2 13.75
2/4/2021 8:45:00 PM 0 32 0.104 7.27 4.72 13.74
2/4/2021 9:00:00 PM 0 32 0.104 7.27 4.75 13.74
2/4/2021 9:15:00 PM 0 32 0.104 7.27 4.54 13.73
2/4/2021 9:30:00 PM 0 32 0.104 7.27 4.24 13.72
2/4/2021 9:45:00 PM 0 32 0.104 7.26 5.35 13.71
2/4/2021 10:00:00 PM 0 32 0.104 7.26 4.65 13.7
2/4/2021 10:15:00 PM 0 32 0.105 7.26 4.24 13.69
2/4/2021 10:30:00 PM 0 32 0.105 7.25 4.6 13.68
2/4/2021 10:45:00 PM 0 32 0.105 7.25 4.17 13.67
2/4/2021 11:00:00 PM 0 32 0.105 7.25 4.2 13.66
2/4/2021 11:15:00 PM 0.01 32.018 0.105 7.25 4.18 13.65
2/4/2021 11:30:00 PM 0.01 32.018 0.105 7.25 4.31 13.64
2/4/2021 11:45:00 PM 0.01 32.018 0.105 7.25 4.34 13.63
2/5/2021 12:00:00 AM 0.02 32.036 0.105 7.25 4.88 13.63
2/5/2021 12:15:00 AM 0.03 32.054 0.105 7.25 4.59 13.62
2/5/2021 12:30:00 AM 0.03 32.054 0.106 7.24 4.67 13.61
2/5/2021 12:45:00 AM 0.04 32.072 0.104 7.24 4.55 13.6
2/5/2021 1:00:00 AM 0.05 32.09 0.103 7.23 4.48 13.59
2/5/2021 1:15:00 AM 0.06 32.108 0.106 7.24 4.79 13.58
2/5/2021 1:30:00 AM 0.07 32.126 0.106 7.24 4.98 13.57
2/5/2021 1:45:00 AM 0.08 32.144 0.106 7.24 4.94 13.56
2/5/2021 2:00:00 AM 0.09 32.162 0.106 7.24 4.84 13.55
2/5/2021 2:15:00 AM 0.1 32.18 0.106 7.23 4.55 13.55
2/5/2021 2:30:00 AM 0.11 32.198 0.106 7.24 5.06 13.54
2/5/2021 2:45:00 AM 0.11 32.198 0.107 7.24 4.85 13.54
2/5/2021 3:00:00 AM 0.12 32.216 0.107 7.24 4.49 13.53
2/5/2021 3:15:00 AM 0.12 32.216 0.105 7.23 4.08 13.51
2/5/2021 3:30:00 AM 0.13 32.234 0.105 7.23 4.15 13.52
2/5/2021 3:45:00 AM 0.13 32.234 0.105 7.23 3.94 13.51
2/5/2021 4:00:00 AM 0.14 32.252 0.105 7.23 4.25 13.5
2/5/2021 4:15:00 AM 0.13 32.234 0.105 7.23 4.02 13.49
2/5/2021 4:30:00 AM 0.14 32.252 0.106 7.23 4.15 13.49
2/5/2021 4:45:00 AM 0.14 32.252 0.108 7.23 4.04 13.48
2/5/2021 5:00:00 AM 0.14 32.252 0.107 7.21 4.24 13.48
2/5/2021 5:15:00 AM 0.15 32.27 0.106 7.23 4.19 13.47
2/5/2021 5:30:00 AM 0.15 32.27 0.109 7.26 4.09 13.47
2/5/2021 5:45:00 AM 0.15 32.27 0.107 7.24 3.98 13.46
2/5/2021 6:00:00 AM 0.14 32.252 0.109 7.24 4.35 13.46
2/5/2021 6:15:00 AM 0.12 32.216 0.109 7.24 4.84 13.45
2/5/2021 6:30:00 AM 0.12 32.216 0.108 7.24 4.25 13.45
2/5/2021 6:45:00 AM 0.13 32.234 0.109 7.24 4.22 13.45
2/5/2021 7:00:00 AM 0.13 32.234 0.107 7.23 4.18 13.44
2/5/2021 7:15:00 AM 0.11 32.198 0.11 7.25 4.21 13.45
2/5/2021 7:30:00 AM 0.12 32.216 0.111 7.25 4.25 13.44
2/5/2021 7:45:00 AM 0.13 32.234 0.107 7.24 4.36 13.46
2/5/2021 8:00:00 AM 0.13 32.234 0.107 7.23 4.25 13.47
2/5/2021 8:15:00 AM 0.15 32.27 0.11 7.25 4.72 13.5
2/5/2021 8:30:00 AM 0.16 32.288 0.109 7.26 4.47 13.53
2/5/2021 8:45:00 AM 0.18 32.324 0.107 7.26 4.36 13.57
2/5/2021 9:00:00 AM 0.2 32.36 0.11 7.27 4.39 13.61
2/5/2021 9:15:00 AM 0.22 32.396 0.108 7.28 4.08 13.64
2/5/2021 9:30:00 AM 0.24 32.432 0.109 7.28 4.78 13.68
2/5/2021 9:45:00 AM 0.26 32.468 0.108 7.29 4.24 13.72
2/5/2021 10:00:00 AM 0.28 32.504 0.109 7.3 4.54 13.76
2/5/2021 10:15:00 AM 0.33 32.594 0.11 7.31 4.54 13.78
2/5/2021 10:30:00 AM 0.35 32.63 0.107 7.31 4.17 13.8
2/5/2021 10:45:00 AM 0.36 32.648 0.11 7.32 4.22 13.81
2/5/2021 11:00:00 AM 0.38 32.684 0.11 7.32 4.31 13.82
2/5/2021 11:15:00 AM 0.41 32.738 0.108 7.32 4.43